<?xml version="1.0" encoding="UTF-8" standalone="no" ?>
<gpx xmlns="http://www.topografix.com/GPX/1/1" xmlns:xsi="http://www.w3.org/2001/XMLSchema-instance" xsi:schemaLocation="http://www.topografix.com/GPX/1/1 http://www.topografix.com/GPX/1/1/gpx.xsd" version="1.1" creator="VisuGPX - https://www.visugpx.com">
  <metadata>
    <name>lundi 2015 11 30</name>
    <desc><![CDATA[rando du lundi]]></desc>
  </metadata>
  <trk>
    <name><![CDATA[lundi 2015 11 30]]></name>
    <trkseg>
      <trkpt lat="48.85742" lon="2.34725">
        <ele>40.400001525879</ele>
        <time>2015-11-30T19:27:25.000Z</time>
      </trkpt>
      <trkpt lat="48.85738" lon="2.347">
        <ele>40</ele>
        <time>2015-11-30T19:27:53.000Z</time>
      </trkpt>
      <trkpt lat="48.85725" lon="2.34686">
        <ele>40</ele>
        <time>2015-11-30T19:28:09.000Z</time>
      </trkpt>
      <trkpt lat="48.85705" lon="2.34684">
        <ele>40.799999237061</ele>
        <time>2015-11-30T19:28:16.000Z</time>
      </trkpt>
      <trkpt lat="48.85687" lon="2.34676">
        <ele>41.200000762939</ele>
        <time>2015-11-30T19:28:22.000Z</time>
      </trkpt>
      <trkpt lat="48.85667" lon="2.34667">
        <ele>42.799999237061</ele>
        <time>2015-11-30T19:28:29.000Z</time>
      </trkpt>
      <trkpt lat="48.85648" lon="2.34655">
        <ele>44.400001525879</ele>
        <time>2015-11-30T19:28:35.000Z</time>
      </trkpt>
      <trkpt lat="48.85628" lon="2.34644">
        <ele>46.200000762939</ele>
        <time>2015-11-30T19:28:41.000Z</time>
      </trkpt>
      <trkpt lat="48.85609" lon="2.34642">
        <ele>47.799999237061</ele>
        <time>2015-11-30T19:28:46.000Z</time>
      </trkpt>
      <trkpt lat="48.85591" lon="2.34631">
        <ele>47.799999237061</ele>
        <time>2015-11-30T19:28:51.000Z</time>
      </trkpt>
      <trkpt lat="48.85573" lon="2.34623">
        <ele>47.599998474121</ele>
        <time>2015-11-30T19:28:55.000Z</time>
      </trkpt>
      <trkpt lat="48.85556" lon="2.34613">
        <ele>47.400001525879</ele>
        <time>2015-11-30T19:28:59.000Z</time>
      </trkpt>
      <trkpt lat="48.85539" lon="2.34602">
        <ele>47.200000762939</ele>
        <time>2015-11-30T19:29:03.000Z</time>
      </trkpt>
      <trkpt lat="48.85522" lon="2.34587">
        <ele>46.799999237061</ele>
        <time>2015-11-30T19:29:07.000Z</time>
      </trkpt>
      <trkpt lat="48.85511" lon="2.34577">
        <ele>46.200000762939</ele>
        <time>2015-11-30T19:29:10.000Z</time>
      </trkpt>
      <trkpt lat="48.85492" lon="2.34561">
        <ele>44.799999237061</ele>
        <time>2015-11-30T19:29:15.000Z</time>
      </trkpt>
      <trkpt lat="48.85475" lon="2.34548">
        <ele>43.599998474121</ele>
        <time>2015-11-30T19:29:19.000Z</time>
      </trkpt>
      <trkpt lat="48.85471" lon="2.34546">
        <ele>43.200000762939</ele>
        <time>2015-11-30T19:29:20.000Z</time>
      </trkpt>
      <trkpt lat="48.8545" lon="2.34531">
        <ele>41.799999237061</ele>
        <time>2015-11-30T19:29:25.000Z</time>
      </trkpt>
      <trkpt lat="48.85433" lon="2.34521">
        <ele>41.200000762939</ele>
        <time>2015-11-30T19:29:29.000Z</time>
      </trkpt>
      <trkpt lat="48.85425" lon="2.34514">
        <ele>41.599998474121</ele>
        <time>2015-11-30T19:29:31.000Z</time>
      </trkpt>
      <trkpt lat="48.85411" lon="2.34488">
        <ele>42</ele>
        <time>2015-11-30T19:29:36.000Z</time>
      </trkpt>
      <trkpt lat="48.85401" lon="2.3447">
        <ele>42.400001525879</ele>
        <time>2015-11-30T19:29:40.000Z</time>
      </trkpt>
      <trkpt lat="48.85398" lon="2.34463">
        <ele>42.599998474121</ele>
        <time>2015-11-30T19:29:42.000Z</time>
      </trkpt>
      <trkpt lat="48.85388" lon="2.34443">
        <ele>42.799999237061</ele>
        <time>2015-11-30T19:29:49.000Z</time>
      </trkpt>
      <trkpt lat="48.85381" lon="2.34433">
        <ele>43</ele>
        <time>2015-11-30T19:29:57.000Z</time>
      </trkpt>
      <trkpt lat="48.85367" lon="2.3441">
        <ele>43.400001525879</ele>
        <time>2015-11-30T19:30:22.000Z</time>
      </trkpt>
      <trkpt lat="48.85353" lon="2.34393">
        <ele>44.799999237061</ele>
        <time>2015-11-30T19:30:26.000Z</time>
      </trkpt>
      <trkpt lat="48.85337" lon="2.34374">
        <ele>45.799999237061</ele>
        <time>2015-11-30T19:30:30.000Z</time>
      </trkpt>
      <trkpt lat="48.85323" lon="2.34354">
        <ele>47</ele>
        <time>2015-11-30T19:30:34.000Z</time>
      </trkpt>
      <trkpt lat="48.8531" lon="2.34335">
        <ele>48</ele>
        <time>2015-11-30T19:30:38.000Z</time>
      </trkpt>
      <trkpt lat="48.85301" lon="2.34322">
        <ele>48.400001525879</ele>
        <time>2015-11-30T19:30:41.000Z</time>
      </trkpt>
      <trkpt lat="48.85294" lon="2.34294">
        <ele>49</ele>
        <time>2015-11-30T19:30:46.000Z</time>
      </trkpt>
      <trkpt lat="48.8529" lon="2.34278">
        <ele>49.200000762939</ele>
        <time>2015-11-30T19:30:50.000Z</time>
      </trkpt>
      <trkpt lat="48.85284" lon="2.34259">
        <ele>49.599998474121</ele>
        <time>2015-11-30T19:30:55.000Z</time>
      </trkpt>
      <trkpt lat="48.85272" lon="2.34238">
        <ele>49.400001525879</ele>
        <time>2015-11-30T19:31:01.000Z</time>
      </trkpt>
      <trkpt lat="48.85253" lon="2.34225">
        <ele>49</ele>
        <time>2015-11-30T19:31:05.000Z</time>
      </trkpt>
      <trkpt lat="48.85236" lon="2.34207">
        <ele>48</ele>
        <time>2015-11-30T19:31:08.000Z</time>
      </trkpt>
      <trkpt lat="48.85227" lon="2.34179">
        <ele>46.400001525879</ele>
        <time>2015-11-30T19:31:13.000Z</time>
      </trkpt>
      <trkpt lat="48.85222" lon="2.34156">
        <ele>45.599998474121</ele>
        <time>2015-11-30T19:31:17.000Z</time>
      </trkpt>
      <trkpt lat="48.85219" lon="2.34129">
        <ele>45.200000762939</ele>
        <time>2015-11-30T19:31:21.000Z</time>
      </trkpt>
      <trkpt lat="48.85218" lon="2.3411">
        <ele>45</ele>
        <time>2015-11-30T19:31:24.000Z</time>
      </trkpt>
      <trkpt lat="48.85205" lon="2.34088">
        <ele>45</ele>
        <time>2015-11-30T19:31:29.000Z</time>
      </trkpt>
      <trkpt lat="48.85201" lon="2.3408">
        <ele>44.799999237061</ele>
        <time>2015-11-30T19:31:31.000Z</time>
      </trkpt>
      <trkpt lat="48.85199" lon="2.34056">
        <ele>45.400001525879</ele>
        <time>2015-11-30T19:31:37.000Z</time>
      </trkpt>
      <trkpt lat="48.85193" lon="2.3403">
        <ele>46.200000762939</ele>
        <time>2015-11-30T19:31:43.000Z</time>
      </trkpt>
      <trkpt lat="48.8518" lon="2.34009">
        <ele>46.799999237061</ele>
        <time>2015-11-30T19:31:49.000Z</time>
      </trkpt>
      <trkpt lat="48.8517" lon="2.33981">
        <ele>48.400001525879</ele>
        <time>2015-11-30T19:31:55.000Z</time>
      </trkpt>
      <trkpt lat="48.85162" lon="2.33957">
        <ele>50</ele>
        <time>2015-11-30T19:32:00.000Z</time>
      </trkpt>
      <trkpt lat="48.85156" lon="2.33942">
        <ele>50.799999237061</ele>
        <time>2015-11-30T19:32:05.000Z</time>
      </trkpt>
      <trkpt lat="48.85161" lon="2.33935">
        <ele>51</ele>
        <time>2015-11-30T19:32:10.000Z</time>
      </trkpt>
      <trkpt lat="48.85164" lon="2.3393">
        <ele>51.200000762939</ele>
        <time>2015-11-30T19:32:13.000Z</time>
      </trkpt>
      <trkpt lat="48.85146" lon="2.33931">
        <ele>51.799999237061</ele>
        <time>2015-11-30T19:32:30.000Z</time>
      </trkpt>
      <trkpt lat="48.85126" lon="2.33938">
        <ele>52</ele>
        <time>2015-11-30T19:32:34.000Z</time>
      </trkpt>
      <trkpt lat="48.85106" lon="2.33951">
        <ele>51.400001525879</ele>
        <time>2015-11-30T19:32:38.000Z</time>
      </trkpt>
      <trkpt lat="48.85086" lon="2.33951">
        <ele>52</ele>
        <time>2015-11-30T19:32:43.000Z</time>
      </trkpt>
      <trkpt lat="48.85085" lon="2.33951">
        <ele>52</ele>
        <time>2015-11-30T19:32:44.000Z</time>
      </trkpt>
      <trkpt lat="48.85067" lon="2.3396">
        <ele>52.200000762939</ele>
        <time>2015-11-30T19:32:51.000Z</time>
      </trkpt>
      <trkpt lat="48.85049" lon="2.33972">
        <ele>52.599998474121</ele>
        <time>2015-11-30T19:32:58.000Z</time>
      </trkpt>
      <trkpt lat="48.85031" lon="2.3398">
        <ele>53.400001525879</ele>
        <time>2015-11-30T19:33:04.000Z</time>
      </trkpt>
      <trkpt lat="48.8501" lon="2.33988">
        <ele>53.599998474121</ele>
        <time>2015-11-30T19:33:10.000Z</time>
      </trkpt>
      <trkpt lat="48.85005" lon="2.33994">
        <ele>54.400001525879</ele>
        <time>2015-11-30T19:33:13.000Z</time>
      </trkpt>
      <trkpt lat="48.84998" lon="2.33995">
        <ele>55.200000762939</ele>
        <time>2015-11-30T19:33:20.000Z</time>
      </trkpt>
      <trkpt lat="48.8498" lon="2.34005">
        <ele>56.799999237061</ele>
        <time>2015-11-30T19:33:28.000Z</time>
      </trkpt>
      <trkpt lat="48.84961" lon="2.34006">
        <ele>58.599998474121</ele>
        <time>2015-11-30T19:33:35.000Z</time>
      </trkpt>
      <trkpt lat="48.84941" lon="2.34012">
        <ele>60</ele>
        <time>2015-11-30T19:33:41.000Z</time>
      </trkpt>
      <trkpt lat="48.84924" lon="2.34023">
        <ele>59.799999237061</ele>
        <time>2015-11-30T19:33:47.000Z</time>
      </trkpt>
      <trkpt lat="48.84911" lon="2.3404">
        <ele>59</ele>
        <time>2015-11-30T19:33:55.000Z</time>
      </trkpt>
      <trkpt lat="48.84904" lon="2.34045">
        <ele>59</ele>
        <time>2015-11-30T19:34:00.000Z</time>
      </trkpt>
      <trkpt lat="48.8488" lon="2.3405">
        <ele>60</ele>
        <time>2015-11-30T19:34:08.000Z</time>
      </trkpt>
      <trkpt lat="48.8487" lon="2.34053">
        <ele>60.400001525879</ele>
        <time>2015-11-30T19:34:10.000Z</time>
      </trkpt>
      <trkpt lat="48.8485" lon="2.34057">
        <ele>60.200000762939</ele>
        <time>2015-11-30T19:34:14.000Z</time>
      </trkpt>
      <trkpt lat="48.84828" lon="2.34063">
        <ele>58.599998474121</ele>
        <time>2015-11-30T19:34:18.000Z</time>
      </trkpt>
      <trkpt lat="48.84806" lon="2.34071">
        <ele>58.400001525879</ele>
        <time>2015-11-30T19:34:21.000Z</time>
      </trkpt>
      <trkpt lat="48.84788" lon="2.34081">
        <ele>58.400001525879</ele>
        <time>2015-11-30T19:34:24.000Z</time>
      </trkpt>
      <trkpt lat="48.84771" lon="2.34075">
        <ele>57.799999237061</ele>
        <time>2015-11-30T19:34:29.000Z</time>
      </trkpt>
      <trkpt lat="48.84766" lon="2.34074">
        <ele>57.599998474121</ele>
        <time>2015-11-30T19:34:32.000Z</time>
      </trkpt>
      <trkpt lat="48.84763" lon="2.34078">
        <ele>58</ele>
        <time>2015-11-30T19:34:38.000Z</time>
      </trkpt>
      <trkpt lat="48.84752" lon="2.34079">
        <ele>58.599998474121</ele>
        <time>2015-11-30T19:35:07.000Z</time>
      </trkpt>
      <trkpt lat="48.8475" lon="2.34065">
        <ele>57.200000762939</ele>
        <time>2015-11-30T19:35:11.000Z</time>
      </trkpt>
      <trkpt lat="48.8474" lon="2.34043">
        <ele>55.400001525879</ele>
        <time>2015-11-30T19:35:16.000Z</time>
      </trkpt>
      <trkpt lat="48.84723" lon="2.34042">
        <ele>55.599998474121</ele>
        <time>2015-11-30T19:35:21.000Z</time>
      </trkpt>
      <trkpt lat="48.84703" lon="2.34043">
        <ele>56.400001525879</ele>
        <time>2015-11-30T19:35:27.000Z</time>
      </trkpt>
      <trkpt lat="48.84684" lon="2.34042">
        <ele>57.599998474121</ele>
        <time>2015-11-30T19:35:32.000Z</time>
      </trkpt>
      <trkpt lat="48.84664" lon="2.34037">
        <ele>59.200000762939</ele>
        <time>2015-11-30T19:35:37.000Z</time>
      </trkpt>
      <trkpt lat="48.84646" lon="2.3403">
        <ele>60.599998474121</ele>
        <time>2015-11-30T19:35:42.000Z</time>
      </trkpt>
      <trkpt lat="48.84625" lon="2.34022">
        <ele>62</ele>
        <time>2015-11-30T19:35:47.000Z</time>
      </trkpt>
      <trkpt lat="48.84605" lon="2.34013">
        <ele>62.400001525879</ele>
        <time>2015-11-30T19:35:52.000Z</time>
      </trkpt>
      <trkpt lat="48.84586" lon="2.34005">
        <ele>63.200000762939</ele>
        <time>2015-11-30T19:35:57.000Z</time>
      </trkpt>
      <trkpt lat="48.84567" lon="2.33997">
        <ele>63.799999237061</ele>
        <time>2015-11-30T19:36:03.000Z</time>
      </trkpt>
      <trkpt lat="48.84549" lon="2.33988">
        <ele>64</ele>
        <time>2015-11-30T19:36:09.000Z</time>
      </trkpt>
      <trkpt lat="48.84531" lon="2.3398">
        <ele>64</ele>
        <time>2015-11-30T19:36:14.000Z</time>
      </trkpt>
      <trkpt lat="48.84512" lon="2.33969">
        <ele>64</ele>
        <time>2015-11-30T19:36:19.000Z</time>
      </trkpt>
      <trkpt lat="48.84491" lon="2.3396">
        <ele>64</ele>
        <time>2015-11-30T19:36:24.000Z</time>
      </trkpt>
      <trkpt lat="48.84471" lon="2.33952">
        <ele>63.799999237061</ele>
        <time>2015-11-30T19:36:29.000Z</time>
      </trkpt>
      <trkpt lat="48.84451" lon="2.33941">
        <ele>63.200000762939</ele>
        <time>2015-11-30T19:36:34.000Z</time>
      </trkpt>
      <trkpt lat="48.84433" lon="2.33934">
        <ele>62.400001525879</ele>
        <time>2015-11-30T19:36:39.000Z</time>
      </trkpt>
      <trkpt lat="48.84414" lon="2.33925">
        <ele>61.200000762939</ele>
        <time>2015-11-30T19:36:44.000Z</time>
      </trkpt>
      <trkpt lat="48.84398" lon="2.33915">
        <ele>60</ele>
        <time>2015-11-30T19:36:49.000Z</time>
      </trkpt>
      <trkpt lat="48.8438" lon="2.339">
        <ele>60.200000762939</ele>
        <time>2015-11-30T19:36:55.000Z</time>
      </trkpt>
      <trkpt lat="48.84362" lon="2.3389">
        <ele>60</ele>
        <time>2015-11-30T19:37:00.000Z</time>
      </trkpt>
      <trkpt lat="48.84344" lon="2.3388">
        <ele>60</ele>
        <time>2015-11-30T19:37:05.000Z</time>
      </trkpt>
      <trkpt lat="48.84325" lon="2.33869">
        <ele>60.200000762939</ele>
        <time>2015-11-30T19:37:11.000Z</time>
      </trkpt>
      <trkpt lat="48.84305" lon="2.33859">
        <ele>60.200000762939</ele>
        <time>2015-11-30T19:37:17.000Z</time>
      </trkpt>
      <trkpt lat="48.84288" lon="2.33849">
        <ele>60.400001525879</ele>
        <time>2015-11-30T19:37:22.000Z</time>
      </trkpt>
      <trkpt lat="48.84269" lon="2.33837">
        <ele>61</ele>
        <time>2015-11-30T19:37:28.000Z</time>
      </trkpt>
      <trkpt lat="48.8425" lon="2.33824">
        <ele>62.200000762939</ele>
        <time>2015-11-30T19:37:34.000Z</time>
      </trkpt>
      <trkpt lat="48.84233" lon="2.33813">
        <ele>63</ele>
        <time>2015-11-30T19:37:40.000Z</time>
      </trkpt>
      <trkpt lat="48.84215" lon="2.33804">
        <ele>63.799999237061</ele>
        <time>2015-11-30T19:37:46.000Z</time>
      </trkpt>
      <trkpt lat="48.84197" lon="2.33792">
        <ele>64.599998474121</ele>
        <time>2015-11-30T19:37:53.000Z</time>
      </trkpt>
      <trkpt lat="48.84179" lon="2.33784">
        <ele>64.599998474121</ele>
        <time>2015-11-30T19:37:59.000Z</time>
      </trkpt>
      <trkpt lat="48.84162" lon="2.33775">
        <ele>63.599998474121</ele>
        <time>2015-11-30T19:38:05.000Z</time>
      </trkpt>
      <trkpt lat="48.84142" lon="2.33763">
        <ele>62.599998474121</ele>
        <time>2015-11-30T19:38:11.000Z</time>
      </trkpt>
      <trkpt lat="48.84125" lon="2.33751">
        <ele>61.799999237061</ele>
        <time>2015-11-30T19:38:16.000Z</time>
      </trkpt>
      <trkpt lat="48.84106" lon="2.33738">
        <ele>61</ele>
        <time>2015-11-30T19:38:21.000Z</time>
      </trkpt>
      <trkpt lat="48.84089" lon="2.33728">
        <ele>61.200000762939</ele>
        <time>2015-11-30T19:38:26.000Z</time>
      </trkpt>
      <trkpt lat="48.84072" lon="2.33717">
        <ele>61.400001525879</ele>
        <time>2015-11-30T19:38:31.000Z</time>
      </trkpt>
      <trkpt lat="48.84054" lon="2.33705">
        <ele>61.799999237061</ele>
        <time>2015-11-30T19:38:37.000Z</time>
      </trkpt>
      <trkpt lat="48.84046" lon="2.33698">
        <ele>62</ele>
        <time>2015-11-30T19:38:43.000Z</time>
      </trkpt>
      <trkpt lat="48.84031" lon="2.3368">
        <ele>62</ele>
        <time>2015-11-30T19:38:57.000Z</time>
      </trkpt>
      <trkpt lat="48.84013" lon="2.33667">
        <ele>62</ele>
        <time>2015-11-30T19:39:04.000Z</time>
      </trkpt>
      <trkpt lat="48.83994" lon="2.33661">
        <ele>61.599998474121</ele>
        <time>2015-11-30T19:39:10.000Z</time>
      </trkpt>
      <trkpt lat="48.83974" lon="2.33659">
        <ele>61.200000762939</ele>
        <time>2015-11-30T19:39:16.000Z</time>
      </trkpt>
      <trkpt lat="48.83954" lon="2.33663">
        <ele>61.200000762939</ele>
        <time>2015-11-30T19:39:23.000Z</time>
      </trkpt>
      <trkpt lat="48.83934" lon="2.33663">
        <ele>61</ele>
        <time>2015-11-30T19:39:29.000Z</time>
      </trkpt>
      <trkpt lat="48.83914" lon="2.3366">
        <ele>60.799999237061</ele>
        <time>2015-11-30T19:39:35.000Z</time>
      </trkpt>
      <trkpt lat="48.83895" lon="2.33657">
        <ele>60.599998474121</ele>
        <time>2015-11-30T19:39:41.000Z</time>
      </trkpt>
      <trkpt lat="48.83875" lon="2.33654">
        <ele>60.400001525879</ele>
        <time>2015-11-30T19:39:48.000Z</time>
      </trkpt>
      <trkpt lat="48.83856" lon="2.33655">
        <ele>60.200000762939</ele>
        <time>2015-11-30T19:39:54.000Z</time>
      </trkpt>
      <trkpt lat="48.83837" lon="2.33663">
        <ele>61</ele>
        <time>2015-11-30T19:39:59.000Z</time>
      </trkpt>
      <trkpt lat="48.83818" lon="2.33668">
        <ele>61.799999237061</ele>
        <time>2015-11-30T19:40:04.000Z</time>
      </trkpt>
      <trkpt lat="48.83798" lon="2.33664">
        <ele>62.799999237061</ele>
        <time>2015-11-30T19:40:10.000Z</time>
      </trkpt>
      <trkpt lat="48.8378" lon="2.33664">
        <ele>63.599998474121</ele>
        <time>2015-11-30T19:40:15.000Z</time>
      </trkpt>
      <trkpt lat="48.83761" lon="2.33663">
        <ele>64</ele>
        <time>2015-11-30T19:40:20.000Z</time>
      </trkpt>
      <trkpt lat="48.83743" lon="2.33662">
        <ele>64</ele>
        <time>2015-11-30T19:40:25.000Z</time>
      </trkpt>
      <trkpt lat="48.83725" lon="2.33662">
        <ele>64</ele>
        <time>2015-11-30T19:40:31.000Z</time>
      </trkpt>
      <trkpt lat="48.83723" lon="2.33663">
        <ele>64</ele>
        <time>2015-11-30T19:40:32.000Z</time>
      </trkpt>
      <trkpt lat="48.83717" lon="2.33676">
        <ele>63.799999237061</ele>
        <time>2015-11-30T19:40:38.000Z</time>
      </trkpt>
      <trkpt lat="48.83708" lon="2.33704">
        <ele>63.200000762939</ele>
        <time>2015-11-30T19:40:46.000Z</time>
      </trkpt>
      <trkpt lat="48.83701" lon="2.33735">
        <ele>62.400001525879</ele>
        <time>2015-11-30T19:40:53.000Z</time>
      </trkpt>
      <trkpt lat="48.83697" lon="2.33767">
        <ele>61.599998474121</ele>
        <time>2015-11-30T19:40:59.000Z</time>
      </trkpt>
      <trkpt lat="48.83689" lon="2.33796">
        <ele>60.200000762939</ele>
        <time>2015-11-30T19:41:04.000Z</time>
      </trkpt>
      <trkpt lat="48.83685" lon="2.33819">
        <ele>59.400001525879</ele>
        <time>2015-11-30T19:41:08.000Z</time>
      </trkpt>
      <trkpt lat="48.83665" lon="2.33822">
        <ele>59.400001525879</ele>
        <time>2015-11-30T19:41:11.000Z</time>
      </trkpt>
      <trkpt lat="48.83647" lon="2.33813">
        <ele>60</ele>
        <time>2015-11-30T19:41:15.000Z</time>
      </trkpt>
      <trkpt lat="48.83643" lon="2.3381">
        <ele>60</ele>
        <time>2015-11-30T19:41:16.000Z</time>
      </trkpt>
      <trkpt lat="48.83624" lon="2.33799">
        <ele>60.599998474121</ele>
        <time>2015-11-30T19:41:20.000Z</time>
      </trkpt>
      <trkpt lat="48.83607" lon="2.33787">
        <ele>61</ele>
        <time>2015-11-30T19:41:24.000Z</time>
      </trkpt>
      <trkpt lat="48.8359" lon="2.33777">
        <ele>60.599998474121</ele>
        <time>2015-11-30T19:41:28.000Z</time>
      </trkpt>
      <trkpt lat="48.8357" lon="2.33763">
        <ele>60</ele>
        <time>2015-11-30T19:41:33.000Z</time>
      </trkpt>
      <trkpt lat="48.83549" lon="2.33752">
        <ele>59.200000762939</ele>
        <time>2015-11-30T19:41:38.000Z</time>
      </trkpt>
      <trkpt lat="48.83529" lon="2.3374">
        <ele>58.599998474121</ele>
        <time>2015-11-30T19:41:43.000Z</time>
      </trkpt>
      <trkpt lat="48.83516" lon="2.33733">
        <ele>58.599998474121</ele>
        <time>2015-11-30T19:41:46.000Z</time>
      </trkpt>
      <trkpt lat="48.83498" lon="2.33721">
        <ele>59.200000762939</ele>
        <time>2015-11-30T19:41:51.000Z</time>
      </trkpt>
      <trkpt lat="48.8348" lon="2.33709">
        <ele>60</ele>
        <time>2015-11-30T19:41:56.000Z</time>
      </trkpt>
      <trkpt lat="48.83463" lon="2.33697">
        <ele>60.599998474121</ele>
        <time>2015-11-30T19:42:01.000Z</time>
      </trkpt>
      <trkpt lat="48.83451" lon="2.33689">
        <ele>61.200000762939</ele>
        <time>2015-11-30T19:42:05.000Z</time>
      </trkpt>
      <trkpt lat="48.83441" lon="2.33683">
        <ele>61.400001525879</ele>
        <time>2015-11-30T19:42:08.000Z</time>
      </trkpt>
      <trkpt lat="48.83424" lon="2.33671">
        <ele>62</ele>
        <time>2015-11-30T19:42:13.000Z</time>
      </trkpt>
      <trkpt lat="48.83406" lon="2.3367">
        <ele>62.200000762939</ele>
        <time>2015-11-30T19:42:19.000Z</time>
      </trkpt>
      <trkpt lat="48.83395" lon="2.33697">
        <ele>61.799999237061</ele>
        <time>2015-11-30T19:42:25.000Z</time>
      </trkpt>
      <trkpt lat="48.8339" lon="2.33724">
        <ele>61.200000762939</ele>
        <time>2015-11-30T19:42:31.000Z</time>
      </trkpt>
      <trkpt lat="48.83386" lon="2.33753">
        <ele>60.400001525879</ele>
        <time>2015-11-30T19:42:37.000Z</time>
      </trkpt>
      <trkpt lat="48.8338" lon="2.33785">
        <ele>59.400001525879</ele>
        <time>2015-11-30T19:42:43.000Z</time>
      </trkpt>
      <trkpt lat="48.83375" lon="2.33812">
        <ele>58.400001525879</ele>
        <time>2015-11-30T19:42:48.000Z</time>
      </trkpt>
      <trkpt lat="48.83368" lon="2.33843">
        <ele>57.400001525879</ele>
        <time>2015-11-30T19:42:53.000Z</time>
      </trkpt>
      <trkpt lat="48.83362" lon="2.33875">
        <ele>55.799999237061</ele>
        <time>2015-11-30T19:42:58.000Z</time>
      </trkpt>
      <trkpt lat="48.83357" lon="2.33901">
        <ele>54.599998474121</ele>
        <time>2015-11-30T19:43:02.000Z</time>
      </trkpt>
      <trkpt lat="48.8335" lon="2.33928">
        <ele>53.799999237061</ele>
        <time>2015-11-30T19:43:06.000Z</time>
      </trkpt>
      <trkpt lat="48.83343" lon="2.33956">
        <ele>53.200000762939</ele>
        <time>2015-11-30T19:43:10.000Z</time>
      </trkpt>
      <trkpt lat="48.83337" lon="2.33985">
        <ele>52.599998474121</ele>
        <time>2015-11-30T19:43:14.000Z</time>
      </trkpt>
      <trkpt lat="48.83331" lon="2.34014">
        <ele>52.599998474121</ele>
        <time>2015-11-30T19:43:18.000Z</time>
      </trkpt>
      <trkpt lat="48.83325" lon="2.34044">
        <ele>52.599998474121</ele>
        <time>2015-11-30T19:43:22.000Z</time>
      </trkpt>
      <trkpt lat="48.83319" lon="2.34072">
        <ele>51.400001525879</ele>
        <time>2015-11-30T19:43:26.000Z</time>
      </trkpt>
      <trkpt lat="48.83313" lon="2.34098">
        <ele>50.799999237061</ele>
        <time>2015-11-30T19:43:30.000Z</time>
      </trkpt>
      <trkpt lat="48.83308" lon="2.34119">
        <ele>50.400001525879</ele>
        <time>2015-11-30T19:43:34.000Z</time>
      </trkpt>
      <trkpt lat="48.8329" lon="2.34125">
        <ele>49.799999237061</ele>
        <time>2015-11-30T19:43:39.000Z</time>
      </trkpt>
      <trkpt lat="48.83287" lon="2.34125">
        <ele>49.799999237061</ele>
        <time>2015-11-30T19:43:40.000Z</time>
      </trkpt>
      <trkpt lat="48.83282" lon="2.34124">
        <ele>49.599998474121</ele>
        <time>2015-11-30T19:43:42.000Z</time>
      </trkpt>
      <trkpt lat="48.8327" lon="2.34122">
        <ele>49.599998474121</ele>
        <time>2015-11-30T19:43:47.000Z</time>
      </trkpt>
      <trkpt lat="48.83252" lon="2.34119">
        <ele>50</ele>
        <time>2015-11-30T19:43:55.000Z</time>
      </trkpt>
      <trkpt lat="48.83234" lon="2.34112">
        <ele>50.799999237061</ele>
        <time>2015-11-30T19:44:05.000Z</time>
      </trkpt>
      <trkpt lat="48.83215" lon="2.34106">
        <ele>51.400001525879</ele>
        <time>2015-11-30T19:44:11.000Z</time>
      </trkpt>
      <trkpt lat="48.83204" lon="2.34103">
        <ele>51.799999237061</ele>
        <time>2015-11-30T19:44:16.000Z</time>
      </trkpt>
      <trkpt lat="48.83192" lon="2.34097">
        <ele>52.400001525879</ele>
        <time>2015-11-30T19:44:58.000Z</time>
      </trkpt>
      <trkpt lat="48.83175" lon="2.34087">
        <ele>53</ele>
        <time>2015-11-30T19:45:09.000Z</time>
      </trkpt>
      <trkpt lat="48.83157" lon="2.34086">
        <ele>53.200000762939</ele>
        <time>2015-11-30T19:45:15.000Z</time>
      </trkpt>
      <trkpt lat="48.83136" lon="2.34083">
        <ele>53.599998474121</ele>
        <time>2015-11-30T19:45:21.000Z</time>
      </trkpt>
      <trkpt lat="48.83115" lon="2.3408">
        <ele>54</ele>
        <time>2015-11-30T19:45:27.000Z</time>
      </trkpt>
      <trkpt lat="48.83093" lon="2.34076">
        <ele>54</ele>
        <time>2015-11-30T19:45:33.000Z</time>
      </trkpt>
      <trkpt lat="48.83075" lon="2.34069">
        <ele>54</ele>
        <time>2015-11-30T19:45:38.000Z</time>
      </trkpt>
      <trkpt lat="48.83057" lon="2.34062">
        <ele>53.799999237061</ele>
        <time>2015-11-30T19:45:43.000Z</time>
      </trkpt>
      <trkpt lat="48.83039" lon="2.34059">
        <ele>53.799999237061</ele>
        <time>2015-11-30T19:45:48.000Z</time>
      </trkpt>
      <trkpt lat="48.83023" lon="2.34045">
        <ele>53.799999237061</ele>
        <time>2015-11-30T19:45:55.000Z</time>
      </trkpt>
      <trkpt lat="48.83025" lon="2.34017">
        <ele>54.599998474121</ele>
        <time>2015-11-30T19:46:00.000Z</time>
      </trkpt>
      <trkpt lat="48.83027" lon="2.33988">
        <ele>55.599998474121</ele>
        <time>2015-11-30T19:46:05.000Z</time>
      </trkpt>
      <trkpt lat="48.83031" lon="2.3396">
        <ele>57</ele>
        <time>2015-11-30T19:46:10.000Z</time>
      </trkpt>
      <trkpt lat="48.8303" lon="2.33929">
        <ele>58.599998474121</ele>
        <time>2015-11-30T19:46:16.000Z</time>
      </trkpt>
      <trkpt lat="48.83032" lon="2.33898">
        <ele>59.200000762939</ele>
        <time>2015-11-30T19:46:21.000Z</time>
      </trkpt>
      <trkpt lat="48.83032" lon="2.33866">
        <ele>59.200000762939</ele>
        <time>2015-11-30T19:46:26.000Z</time>
      </trkpt>
      <trkpt lat="48.83033" lon="2.33835">
        <ele>59</ele>
        <time>2015-11-30T19:46:31.000Z</time>
      </trkpt>
      <trkpt lat="48.83035" lon="2.33806">
        <ele>58.799999237061</ele>
        <time>2015-11-30T19:46:36.000Z</time>
      </trkpt>
      <trkpt lat="48.83039" lon="2.33778">
        <ele>58.799999237061</ele>
        <time>2015-11-30T19:46:41.000Z</time>
      </trkpt>
      <trkpt lat="48.83042" lon="2.33751">
        <ele>59</ele>
        <time>2015-11-30T19:46:46.000Z</time>
      </trkpt>
      <trkpt lat="48.83043" lon="2.33721">
        <ele>58.599998474121</ele>
        <time>2015-11-30T19:46:51.000Z</time>
      </trkpt>
      <trkpt lat="48.83046" lon="2.3369">
        <ele>58.400001525879</ele>
        <time>2015-11-30T19:46:57.000Z</time>
      </trkpt>
      <trkpt lat="48.83047" lon="2.33682">
        <ele>58.200000762939</ele>
        <time>2015-11-30T19:46:59.000Z</time>
      </trkpt>
      <trkpt lat="48.83031" lon="2.33665">
        <ele>58.200000762939</ele>
        <time>2015-11-30T19:47:05.000Z</time>
      </trkpt>
      <trkpt lat="48.83026" lon="2.33665">
        <ele>58</ele>
        <time>2015-11-30T19:47:07.000Z</time>
      </trkpt>
      <trkpt lat="48.83005" lon="2.33665">
        <ele>58</ele>
        <time>2015-11-30T19:47:13.000Z</time>
      </trkpt>
      <trkpt lat="48.82985" lon="2.33663">
        <ele>58</ele>
        <time>2015-11-30T19:47:18.000Z</time>
      </trkpt>
      <trkpt lat="48.82964" lon="2.33663">
        <ele>58</ele>
        <time>2015-11-30T19:47:23.000Z</time>
      </trkpt>
      <trkpt lat="48.82943" lon="2.33662">
        <ele>58.200000762939</ele>
        <time>2015-11-30T19:47:28.000Z</time>
      </trkpt>
      <trkpt lat="48.82923" lon="2.33661">
        <ele>58.400001525879</ele>
        <time>2015-11-30T19:47:33.000Z</time>
      </trkpt>
      <trkpt lat="48.82904" lon="2.33657">
        <ele>58.799999237061</ele>
        <time>2015-11-30T19:47:38.000Z</time>
      </trkpt>
      <trkpt lat="48.82884" lon="2.33657">
        <ele>59.200000762939</ele>
        <time>2015-11-30T19:47:43.000Z</time>
      </trkpt>
      <trkpt lat="48.82862" lon="2.33659">
        <ele>59.200000762939</ele>
        <time>2015-11-30T19:47:48.000Z</time>
      </trkpt>
      <trkpt lat="48.8284" lon="2.33661">
        <ele>59.400001525879</ele>
        <time>2015-11-30T19:47:53.000Z</time>
      </trkpt>
      <trkpt lat="48.8282" lon="2.3366">
        <ele>60</ele>
        <time>2015-11-30T19:47:58.000Z</time>
      </trkpt>
      <trkpt lat="48.828" lon="2.33656">
        <ele>60.599998474121</ele>
        <time>2015-11-30T19:48:03.000Z</time>
      </trkpt>
      <trkpt lat="48.82778" lon="2.33656">
        <ele>61.200000762939</ele>
        <time>2015-11-30T19:48:08.000Z</time>
      </trkpt>
      <trkpt lat="48.82758" lon="2.33662">
        <ele>60.799999237061</ele>
        <time>2015-11-30T19:48:13.000Z</time>
      </trkpt>
      <trkpt lat="48.82739" lon="2.33666">
        <ele>60.400001525879</ele>
        <time>2015-11-30T19:48:19.000Z</time>
      </trkpt>
      <trkpt lat="48.82722" lon="2.33665">
        <ele>60.400001525879</ele>
        <time>2015-11-30T19:48:37.000Z</time>
      </trkpt>
      <trkpt lat="48.82727" lon="2.33639">
        <ele>60.799999237061</ele>
        <time>2015-11-30T19:48:43.000Z</time>
      </trkpt>
      <trkpt lat="48.82733" lon="2.33611">
        <ele>61.400001525879</ele>
        <time>2015-11-30T19:48:50.000Z</time>
      </trkpt>
      <trkpt lat="48.82735" lon="2.33584">
        <ele>62.599998474121</ele>
        <time>2015-11-30T19:48:55.000Z</time>
      </trkpt>
      <trkpt lat="48.82738" lon="2.33554">
        <ele>65.400001525879</ele>
        <time>2015-11-30T19:49:01.000Z</time>
      </trkpt>
      <trkpt lat="48.82738" lon="2.33525">
        <ele>66.199996948242</ele>
        <time>2015-11-30T19:49:08.000Z</time>
      </trkpt>
      <trkpt lat="48.82735" lon="2.33495">
        <ele>66.800003051758</ele>
        <time>2015-11-30T19:49:15.000Z</time>
      </trkpt>
      <trkpt lat="48.82732" lon="2.33483">
        <ele>67.800003051758</ele>
        <time>2015-11-30T19:49:21.000Z</time>
      </trkpt>
      <trkpt lat="48.82728" lon="2.33479">
        <ele>68.199996948242</ele>
        <time>2015-11-30T19:49:26.000Z</time>
      </trkpt>
      <trkpt lat="48.82717" lon="2.33487">
        <ele>68.199996948242</ele>
        <time>2015-11-30T19:50:04.000Z</time>
      </trkpt>
      <trkpt lat="48.82701" lon="2.33479">
        <ele>69.599998474121</ele>
        <time>2015-11-30T19:50:13.000Z</time>
      </trkpt>
      <trkpt lat="48.8268" lon="2.33477">
        <ele>70.400001525879</ele>
        <time>2015-11-30T19:50:19.000Z</time>
      </trkpt>
      <trkpt lat="48.8266" lon="2.33474">
        <ele>71.199996948242</ele>
        <time>2015-11-30T19:50:26.000Z</time>
      </trkpt>
      <trkpt lat="48.8265" lon="2.33471">
        <ele>71.599998474121</ele>
        <time>2015-11-30T19:50:31.000Z</time>
      </trkpt>
      <trkpt lat="48.82631" lon="2.33466">
        <ele>72.599998474121</ele>
        <time>2015-11-30T19:50:42.000Z</time>
      </trkpt>
      <trkpt lat="48.82612" lon="2.33463">
        <ele>73.400001525879</ele>
        <time>2015-11-30T19:50:50.000Z</time>
      </trkpt>
      <trkpt lat="48.82592" lon="2.3346">
        <ele>73.400001525879</ele>
        <time>2015-11-30T19:50:57.000Z</time>
      </trkpt>
      <trkpt lat="48.82573" lon="2.33447">
        <ele>73.599998474121</ele>
        <time>2015-11-30T19:51:06.000Z</time>
      </trkpt>
      <trkpt lat="48.82572" lon="2.33445">
        <ele>73.800003051758</ele>
        <time>2015-11-30T19:51:07.000Z</time>
      </trkpt>
      <trkpt lat="48.82569" lon="2.33442">
        <ele>73.800003051758</ele>
        <time>2015-11-30T19:51:11.000Z</time>
      </trkpt>
      <trkpt lat="48.82561" lon="2.33458">
        <ele>72.599998474121</ele>
        <time>2015-11-30T19:51:41.000Z</time>
      </trkpt>
      <trkpt lat="48.82557" lon="2.33485">
        <ele>69.800003051758</ele>
        <time>2015-11-30T19:51:47.000Z</time>
      </trkpt>
      <trkpt lat="48.82555" lon="2.33512">
        <ele>67.400001525879</ele>
        <time>2015-11-30T19:51:52.000Z</time>
      </trkpt>
      <trkpt lat="48.82553" lon="2.33536">
        <ele>66</ele>
        <time>2015-11-30T19:51:57.000Z</time>
      </trkpt>
      <trkpt lat="48.82538" lon="2.33543">
        <ele>65.199996948242</ele>
        <time>2015-11-30T19:52:02.000Z</time>
      </trkpt>
      <trkpt lat="48.82519" lon="2.33547">
        <ele>64.400001525879</ele>
        <time>2015-11-30T19:52:07.000Z</time>
      </trkpt>
      <trkpt lat="48.82498" lon="2.33554">
        <ele>65.599998474121</ele>
        <time>2015-11-30T19:52:12.000Z</time>
      </trkpt>
      <trkpt lat="48.8248" lon="2.33562">
        <ele>67</ele>
        <time>2015-11-30T19:52:16.000Z</time>
      </trkpt>
      <trkpt lat="48.82463" lon="2.3357">
        <ele>68.199996948242</ele>
        <time>2015-11-30T19:52:20.000Z</time>
      </trkpt>
      <trkpt lat="48.82444" lon="2.33578">
        <ele>69.599998474121</ele>
        <time>2015-11-30T19:52:25.000Z</time>
      </trkpt>
      <trkpt lat="48.82428" lon="2.33589">
        <ele>69.599998474121</ele>
        <time>2015-11-30T19:52:35.000Z</time>
      </trkpt>
      <trkpt lat="48.8241" lon="2.33594">
        <ele>69.800003051758</ele>
        <time>2015-11-30T19:52:47.000Z</time>
      </trkpt>
      <trkpt lat="48.82389" lon="2.3359">
        <ele>71</ele>
        <time>2015-11-30T19:52:52.000Z</time>
      </trkpt>
      <trkpt lat="48.8238" lon="2.33586">
        <ele>71.599998474121</ele>
        <time>2015-11-30T19:52:54.000Z</time>
      </trkpt>
      <trkpt lat="48.8236" lon="2.33575">
        <ele>73.199996948242</ele>
        <time>2015-11-30T19:52:58.000Z</time>
      </trkpt>
      <trkpt lat="48.82343" lon="2.33567">
        <ele>74.400001525879</ele>
        <time>2015-11-30T19:53:01.000Z</time>
      </trkpt>
      <trkpt lat="48.82323" lon="2.33557">
        <ele>76.199996948242</ele>
        <time>2015-11-30T19:53:04.000Z</time>
      </trkpt>
      <trkpt lat="48.82299" lon="2.33544">
        <ele>78.400001525879</ele>
        <time>2015-11-30T19:53:08.000Z</time>
      </trkpt>
      <trkpt lat="48.82278" lon="2.33532">
        <ele>80.400001525879</ele>
        <time>2015-11-30T19:53:12.000Z</time>
      </trkpt>
      <trkpt lat="48.82269" lon="2.33526">
        <ele>81</ele>
        <time>2015-11-30T19:53:14.000Z</time>
      </trkpt>
      <trkpt lat="48.82251" lon="2.3351">
        <ele>81.199996948242</ele>
        <time>2015-11-30T19:53:18.000Z</time>
      </trkpt>
      <trkpt lat="48.82242" lon="2.33505">
        <ele>81.400001525879</ele>
        <time>2015-11-30T19:53:20.000Z</time>
      </trkpt>
      <trkpt lat="48.82234" lon="2.33501">
        <ele>81.400001525879</ele>
        <time>2015-11-30T19:53:22.000Z</time>
      </trkpt>
      <trkpt lat="48.82214" lon="2.33491">
        <ele>81.599998474121</ele>
        <time>2015-11-30T19:53:26.000Z</time>
      </trkpt>
      <trkpt lat="48.82209" lon="2.33488">
        <ele>81.599998474121</ele>
        <time>2015-11-30T19:53:27.000Z</time>
      </trkpt>
      <trkpt lat="48.82193" lon="2.33475">
        <ele>81.800003051758</ele>
        <time>2015-11-30T19:53:31.000Z</time>
      </trkpt>
      <trkpt lat="48.82175" lon="2.33461">
        <ele>82.199996948242</ele>
        <time>2015-11-30T19:53:36.000Z</time>
      </trkpt>
      <trkpt lat="48.82157" lon="2.33451">
        <ele>82.199996948242</ele>
        <time>2015-11-30T19:53:41.000Z</time>
      </trkpt>
      <trkpt lat="48.82154" lon="2.33448">
        <ele>82.400001525879</ele>
        <time>2015-11-30T19:53:42.000Z</time>
      </trkpt>
      <trkpt lat="48.82146" lon="2.33435">
        <ele>82.800003051758</ele>
        <time>2015-11-30T19:53:48.000Z</time>
      </trkpt>
      <trkpt lat="48.82141" lon="2.33427">
        <ele>83</ele>
        <time>2015-11-30T19:55:17.000Z</time>
      </trkpt>
      <trkpt lat="48.82121" lon="2.33423">
        <ele>82.800003051758</ele>
        <time>2015-11-30T19:55:25.000Z</time>
      </trkpt>
      <trkpt lat="48.82102" lon="2.33428">
        <ele>82.599998474121</ele>
        <time>2015-11-30T19:55:34.000Z</time>
      </trkpt>
      <trkpt lat="48.82084" lon="2.33422">
        <ele>82.599998474121</ele>
        <time>2015-11-30T19:55:41.000Z</time>
      </trkpt>
      <trkpt lat="48.82064" lon="2.33415">
        <ele>82.400001525879</ele>
        <time>2015-11-30T19:55:48.000Z</time>
      </trkpt>
      <trkpt lat="48.82045" lon="2.33409">
        <ele>82.400001525879</ele>
        <time>2015-11-30T19:55:54.000Z</time>
      </trkpt>
      <trkpt lat="48.82026" lon="2.33397">
        <ele>82.199996948242</ele>
        <time>2015-11-30T19:56:01.000Z</time>
      </trkpt>
      <trkpt lat="48.82009" lon="2.33385">
        <ele>82.599998474121</ele>
        <time>2015-11-30T19:56:08.000Z</time>
      </trkpt>
      <trkpt lat="48.81989" lon="2.33377">
        <ele>82.800003051758</ele>
        <time>2015-11-30T19:56:16.000Z</time>
      </trkpt>
      <trkpt lat="48.8197" lon="2.33365">
        <ele>83.199996948242</ele>
        <time>2015-11-30T19:56:22.000Z</time>
      </trkpt>
      <trkpt lat="48.81951" lon="2.33357">
        <ele>83.199996948242</ele>
        <time>2015-11-30T19:56:28.000Z</time>
      </trkpt>
      <trkpt lat="48.81929" lon="2.33344">
        <ele>83</ele>
        <time>2015-11-30T19:56:35.000Z</time>
      </trkpt>
      <trkpt lat="48.81912" lon="2.33334">
        <ele>82.599998474121</ele>
        <time>2015-11-30T19:56:41.000Z</time>
      </trkpt>
      <trkpt lat="48.81894" lon="2.33323">
        <ele>82</ele>
        <time>2015-11-30T19:56:45.000Z</time>
      </trkpt>
      <trkpt lat="48.81874" lon="2.33312">
        <ele>81.400001525879</ele>
        <time>2015-11-30T19:56:50.000Z</time>
      </trkpt>
      <trkpt lat="48.81857" lon="2.33303">
        <ele>80.800003051758</ele>
        <time>2015-11-30T19:56:54.000Z</time>
      </trkpt>
      <trkpt lat="48.81839" lon="2.33295">
        <ele>81.400001525879</ele>
        <time>2015-11-30T19:56:58.000Z</time>
      </trkpt>
      <trkpt lat="48.8182" lon="2.33286">
        <ele>82.400001525879</ele>
        <time>2015-11-30T19:57:02.000Z</time>
      </trkpt>
      <trkpt lat="48.81788" lon="2.33278">
        <ele>83.599998474121</ele>
        <time>2015-11-30T19:57:08.000Z</time>
      </trkpt>
      <trkpt lat="48.81771" lon="2.33259">
        <ele>84.599998474121</ele>
        <time>2015-11-30T19:57:13.000Z</time>
      </trkpt>
      <trkpt lat="48.81752" lon="2.33242">
        <ele>84.199996948242</ele>
        <time>2015-11-30T19:57:18.000Z</time>
      </trkpt>
      <trkpt lat="48.81735" lon="2.33227">
        <ele>83.199996948242</ele>
        <time>2015-11-30T19:57:22.000Z</time>
      </trkpt>
      <trkpt lat="48.81716" lon="2.33219">
        <ele>82.400001525879</ele>
        <time>2015-11-30T19:57:29.000Z</time>
      </trkpt>
      <trkpt lat="48.81696" lon="2.33219">
        <ele>81.599998474121</ele>
        <time>2015-11-30T19:57:41.000Z</time>
      </trkpt>
      <trkpt lat="48.81696" lon="2.33218">
        <ele>81.599998474121</ele>
        <time>2015-11-30T19:57:42.000Z</time>
      </trkpt>
      <trkpt lat="48.81697" lon="2.33209">
        <ele>81.400001525879</ele>
        <time>2015-11-30T19:57:47.000Z</time>
      </trkpt>
      <trkpt lat="48.81696" lon="2.33203">
        <ele>81.199996948242</ele>
        <time>2015-11-30T19:57:50.000Z</time>
      </trkpt>
      <trkpt lat="48.81694" lon="2.33202">
        <ele>81.199996948242</ele>
        <time>2015-11-30T19:57:52.000Z</time>
      </trkpt>
      <trkpt lat="48.81685" lon="2.33194">
        <ele>80.599998474121</ele>
        <time>2015-11-30T19:58:22.000Z</time>
      </trkpt>
      <trkpt lat="48.81676" lon="2.33193">
        <ele>80.400001525879</ele>
        <time>2015-11-30T19:58:29.000Z</time>
      </trkpt>
      <trkpt lat="48.81659" lon="2.3318">
        <ele>79.599998474121</ele>
        <time>2015-11-30T19:58:36.000Z</time>
      </trkpt>
      <trkpt lat="48.81642" lon="2.33162">
        <ele>78.800003051758</ele>
        <time>2015-11-30T19:58:42.000Z</time>
      </trkpt>
      <trkpt lat="48.81625" lon="2.33146">
        <ele>78.199996948242</ele>
        <time>2015-11-30T19:58:47.000Z</time>
      </trkpt>
      <trkpt lat="48.81608" lon="2.33131">
        <ele>77.599998474121</ele>
        <time>2015-11-30T19:58:52.000Z</time>
      </trkpt>
      <trkpt lat="48.8159" lon="2.33116">
        <ele>78.599998474121</ele>
        <time>2015-11-30T19:58:57.000Z</time>
      </trkpt>
      <trkpt lat="48.81572" lon="2.33101">
        <ele>79.599998474121</ele>
        <time>2015-11-30T19:59:02.000Z</time>
      </trkpt>
      <trkpt lat="48.81554" lon="2.33085">
        <ele>80.800003051758</ele>
        <time>2015-11-30T19:59:07.000Z</time>
      </trkpt>
      <trkpt lat="48.81537" lon="2.33073">
        <ele>81.800003051758</ele>
        <time>2015-11-30T19:59:12.000Z</time>
      </trkpt>
      <trkpt lat="48.81521" lon="2.33061">
        <ele>83</ele>
        <time>2015-11-30T19:59:16.000Z</time>
      </trkpt>
      <trkpt lat="48.81504" lon="2.33047">
        <ele>82.800003051758</ele>
        <time>2015-11-30T19:59:20.000Z</time>
      </trkpt>
      <trkpt lat="48.81498" lon="2.33041">
        <ele>82.800003051758</ele>
        <time>2015-11-30T19:59:23.000Z</time>
      </trkpt>
      <trkpt lat="48.81493" lon="2.33038">
        <ele>82.599998474121</ele>
        <time>2015-11-30T19:59:25.000Z</time>
      </trkpt>
      <trkpt lat="48.81475" lon="2.33024">
        <ele>82.400001525879</ele>
        <time>2015-11-30T19:59:32.000Z</time>
      </trkpt>
      <trkpt lat="48.81457" lon="2.33009">
        <ele>82.199996948242</ele>
        <time>2015-11-30T19:59:36.000Z</time>
      </trkpt>
      <trkpt lat="48.81441" lon="2.32995">
        <ele>82</ele>
        <time>2015-11-30T19:59:40.000Z</time>
      </trkpt>
      <trkpt lat="48.81424" lon="2.32985">
        <ele>82.199996948242</ele>
        <time>2015-11-30T19:59:45.000Z</time>
      </trkpt>
      <trkpt lat="48.81407" lon="2.32971">
        <ele>82.400001525879</ele>
        <time>2015-11-30T19:59:50.000Z</time>
      </trkpt>
      <trkpt lat="48.81391" lon="2.32955">
        <ele>82.199996948242</ele>
        <time>2015-11-30T19:59:55.000Z</time>
      </trkpt>
      <trkpt lat="48.81373" lon="2.32938">
        <ele>82.400001525879</ele>
        <time>2015-11-30T20:00:00.000Z</time>
      </trkpt>
      <trkpt lat="48.81351" lon="2.3292">
        <ele>82.199996948242</ele>
        <time>2015-11-30T20:00:04.000Z</time>
      </trkpt>
      <trkpt lat="48.81327" lon="2.329">
        <ele>81.599998474121</ele>
        <time>2015-11-30T20:00:09.000Z</time>
      </trkpt>
      <trkpt lat="48.81309" lon="2.3289">
        <ele>81.400001525879</ele>
        <time>2015-11-30T20:00:13.000Z</time>
      </trkpt>
      <trkpt lat="48.8129" lon="2.32877">
        <ele>81.199996948242</ele>
        <time>2015-11-30T20:00:17.000Z</time>
      </trkpt>
      <trkpt lat="48.81271" lon="2.32865">
        <ele>81</ele>
        <time>2015-11-30T20:00:21.000Z</time>
      </trkpt>
      <trkpt lat="48.81255" lon="2.32847">
        <ele>80.400001525879</ele>
        <time>2015-11-30T20:00:25.000Z</time>
      </trkpt>
      <trkpt lat="48.81254" lon="2.3284">
        <ele>80.400001525879</ele>
        <time>2015-11-30T20:00:28.000Z</time>
      </trkpt>
      <trkpt lat="48.81247" lon="2.32819">
        <ele>80.199996948242</ele>
        <time>2015-11-30T20:00:34.000Z</time>
      </trkpt>
      <trkpt lat="48.81225" lon="2.32815">
        <ele>79.400001525879</ele>
        <time>2015-11-30T20:00:36.000Z</time>
      </trkpt>
      <trkpt lat="48.81209" lon="2.32806">
        <ele>79</ele>
        <time>2015-11-30T20:00:41.000Z</time>
      </trkpt>
      <trkpt lat="48.81191" lon="2.32795">
        <ele>78.599998474121</ele>
        <time>2015-11-30T20:00:46.000Z</time>
      </trkpt>
      <trkpt lat="48.81187" lon="2.32792">
        <ele>78.400001525879</ele>
        <time>2015-11-30T20:00:47.000Z</time>
      </trkpt>
      <trkpt lat="48.81176" lon="2.32777">
        <ele>78.800003051758</ele>
        <time>2015-11-30T20:00:51.000Z</time>
      </trkpt>
      <trkpt lat="48.81168" lon="2.32765">
        <ele>79</ele>
        <time>2015-11-30T20:00:54.000Z</time>
      </trkpt>
      <trkpt lat="48.81156" lon="2.32752">
        <ele>79.400001525879</ele>
        <time>2015-11-30T20:00:58.000Z</time>
      </trkpt>
      <trkpt lat="48.81141" lon="2.32744">
        <ele>79.599998474121</ele>
        <time>2015-11-30T20:01:02.000Z</time>
      </trkpt>
      <trkpt lat="48.81132" lon="2.3273">
        <ele>79.800003051758</ele>
        <time>2015-11-30T20:01:06.000Z</time>
      </trkpt>
      <trkpt lat="48.81125" lon="2.32723">
        <ele>80</ele>
        <time>2015-11-30T20:01:07.000Z</time>
      </trkpt>
      <trkpt lat="48.81109" lon="2.32708">
        <ele>80.400001525879</ele>
        <time>2015-11-30T20:01:14.000Z</time>
      </trkpt>
      <trkpt lat="48.8109" lon="2.32708">
        <ele>80.199996948242</ele>
        <time>2015-11-30T20:01:19.000Z</time>
      </trkpt>
      <trkpt lat="48.81076" lon="2.32692">
        <ele>80.400001525879</ele>
        <time>2015-11-30T20:01:32.000Z</time>
      </trkpt>
      <trkpt lat="48.81066" lon="2.32687">
        <ele>80.199996948242</ele>
        <time>2015-11-30T20:02:12.000Z</time>
      </trkpt>
      <trkpt lat="48.81064" lon="2.32685">
        <ele>80.199996948242</ele>
        <time>2015-11-30T20:02:13.000Z</time>
      </trkpt>
      <trkpt lat="48.81057" lon="2.32683">
        <ele>80.199996948242</ele>
        <time>2015-11-30T20:02:16.000Z</time>
      </trkpt>
      <trkpt lat="48.81041" lon="2.32679">
        <ele>80</ele>
        <time>2015-11-30T20:02:22.000Z</time>
      </trkpt>
      <trkpt lat="48.81033" lon="2.32675">
        <ele>80</ele>
        <time>2015-11-30T20:02:31.000Z</time>
      </trkpt>
      <trkpt lat="48.81013" lon="2.32683">
        <ele>79.599998474121</ele>
        <time>2015-11-30T20:02:38.000Z</time>
      </trkpt>
      <trkpt lat="48.81001" lon="2.32707">
        <ele>79</ele>
        <time>2015-11-30T20:02:46.000Z</time>
      </trkpt>
      <trkpt lat="48.80999" lon="2.32709">
        <ele>78.800003051758</ele>
        <time>2015-11-30T20:02:47.000Z</time>
      </trkpt>
      <trkpt lat="48.80996" lon="2.32711">
        <ele>78.800003051758</ele>
        <time>2015-11-30T20:02:49.000Z</time>
      </trkpt>
      <trkpt lat="48.80994" lon="2.32712">
        <ele>78.800003051758</ele>
        <time>2015-11-30T20:02:53.000Z</time>
      </trkpt>
      <trkpt lat="48.80993" lon="2.32714">
        <ele>78.800003051758</ele>
        <time>2015-11-30T20:02:54.000Z</time>
      </trkpt>
      <trkpt lat="48.80993" lon="2.32715">
        <ele>78.800003051758</ele>
        <time>2015-11-30T20:02:56.000Z</time>
      </trkpt>
      <trkpt lat="48.80983" lon="2.32738">
        <ele>78.800003051758</ele>
        <time>2015-11-30T20:03:27.000Z</time>
      </trkpt>
      <trkpt lat="48.80975" lon="2.32766">
        <ele>78.599998474121</ele>
        <time>2015-11-30T20:03:33.000Z</time>
      </trkpt>
      <trkpt lat="48.8097" lon="2.32797">
        <ele>77.400001525879</ele>
        <time>2015-11-30T20:03:39.000Z</time>
      </trkpt>
      <trkpt lat="48.80961" lon="2.32824">
        <ele>75.800003051758</ele>
        <time>2015-11-30T20:03:45.000Z</time>
      </trkpt>
      <trkpt lat="48.80952" lon="2.32848">
        <ele>75.199996948242</ele>
        <time>2015-11-30T20:03:51.000Z</time>
      </trkpt>
      <trkpt lat="48.80944" lon="2.32874">
        <ele>75</ele>
        <time>2015-11-30T20:03:56.000Z</time>
      </trkpt>
      <trkpt lat="48.80934" lon="2.32901">
        <ele>75.199996948242</ele>
        <time>2015-11-30T20:04:01.000Z</time>
      </trkpt>
      <trkpt lat="48.80926" lon="2.32927">
        <ele>75</ele>
        <time>2015-11-30T20:04:06.000Z</time>
      </trkpt>
      <trkpt lat="48.80918" lon="2.32952">
        <ele>74.599998474121</ele>
        <time>2015-11-30T20:04:11.000Z</time>
      </trkpt>
      <trkpt lat="48.8091" lon="2.3298">
        <ele>73.599998474121</ele>
        <time>2015-11-30T20:04:16.000Z</time>
      </trkpt>
      <trkpt lat="48.80901" lon="2.33011">
        <ele>72.400001525879</ele>
        <time>2015-11-30T20:04:21.000Z</time>
      </trkpt>
      <trkpt lat="48.80891" lon="2.33035">
        <ele>72</ele>
        <time>2015-11-30T20:04:25.000Z</time>
      </trkpt>
      <trkpt lat="48.8088" lon="2.33064">
        <ele>71.599998474121</ele>
        <time>2015-11-30T20:04:30.000Z</time>
      </trkpt>
      <trkpt lat="48.80869" lon="2.33088">
        <ele>71.199996948242</ele>
        <time>2015-11-30T20:04:35.000Z</time>
      </trkpt>
      <trkpt lat="48.80858" lon="2.33116">
        <ele>70.199996948242</ele>
        <time>2015-11-30T20:04:40.000Z</time>
      </trkpt>
      <trkpt lat="48.80848" lon="2.33141">
        <ele>69.599998474121</ele>
        <time>2015-11-30T20:04:44.000Z</time>
      </trkpt>
      <trkpt lat="48.80838" lon="2.33166">
        <ele>69.400001525879</ele>
        <time>2015-11-30T20:04:48.000Z</time>
      </trkpt>
      <trkpt lat="48.80832" lon="2.33179">
        <ele>69.400001525879</ele>
        <time>2015-11-30T20:04:50.000Z</time>
      </trkpt>
      <trkpt lat="48.80823" lon="2.33208">
        <ele>69.199996948242</ele>
        <time>2015-11-30T20:04:54.000Z</time>
      </trkpt>
      <trkpt lat="48.80818" lon="2.33221">
        <ele>69.199996948242</ele>
        <time>2015-11-30T20:04:56.000Z</time>
      </trkpt>
      <trkpt lat="48.80814" lon="2.33249">
        <ele>69</ele>
        <time>2015-11-30T20:05:00.000Z</time>
      </trkpt>
      <trkpt lat="48.80808" lon="2.3328">
        <ele>69.199996948242</ele>
        <time>2015-11-30T20:05:05.000Z</time>
      </trkpt>
      <trkpt lat="48.80799" lon="2.33308">
        <ele>67.800003051758</ele>
        <time>2015-11-30T20:05:10.000Z</time>
      </trkpt>
      <trkpt lat="48.8079" lon="2.33334">
        <ele>66.400001525879</ele>
        <time>2015-11-30T20:05:15.000Z</time>
      </trkpt>
      <trkpt lat="48.8078" lon="2.33358">
        <ele>65.400001525879</ele>
        <time>2015-11-30T20:05:19.000Z</time>
      </trkpt>
      <trkpt lat="48.80768" lon="2.33386">
        <ele>64</ele>
        <time>2015-11-30T20:05:23.000Z</time>
      </trkpt>
      <trkpt lat="48.80757" lon="2.33412">
        <ele>63.400001525879</ele>
        <time>2015-11-30T20:05:27.000Z</time>
      </trkpt>
      <trkpt lat="48.80747" lon="2.33442">
        <ele>63.200000762939</ele>
        <time>2015-11-30T20:05:32.000Z</time>
      </trkpt>
      <trkpt lat="48.80737" lon="2.3347">
        <ele>63</ele>
        <time>2015-11-30T20:05:38.000Z</time>
      </trkpt>
      <trkpt lat="48.80731" lon="2.33485">
        <ele>62.400001525879</ele>
        <time>2015-11-30T20:05:42.000Z</time>
      </trkpt>
      <trkpt lat="48.80719" lon="2.33508">
        <ele>61.599998474121</ele>
        <time>2015-11-30T20:05:47.000Z</time>
      </trkpt>
      <trkpt lat="48.80712" lon="2.33529">
        <ele>60.799999237061</ele>
        <time>2015-11-30T20:05:51.000Z</time>
      </trkpt>
      <trkpt lat="48.80706" lon="2.33551">
        <ele>59.599998474121</ele>
        <time>2015-11-30T20:05:55.000Z</time>
      </trkpt>
      <trkpt lat="48.80702" lon="2.33565">
        <ele>59</ele>
        <time>2015-11-30T20:05:58.000Z</time>
      </trkpt>
      <trkpt lat="48.80699" lon="2.33585">
        <ele>57.799999237061</ele>
        <time>2015-11-30T20:06:02.000Z</time>
      </trkpt>
      <trkpt lat="48.80698" lon="2.3359">
        <ele>57.599998474121</ele>
        <time>2015-11-30T20:06:03.000Z</time>
      </trkpt>
      <trkpt lat="48.80696" lon="2.33604">
        <ele>56.599998474121</ele>
        <time>2015-11-30T20:06:06.000Z</time>
      </trkpt>
      <trkpt lat="48.80685" lon="2.33632">
        <ele>54.200000762939</ele>
        <time>2015-11-30T20:06:12.000Z</time>
      </trkpt>
      <trkpt lat="48.80676" lon="2.33659">
        <ele>51.599998474121</ele>
        <time>2015-11-30T20:06:17.000Z</time>
      </trkpt>
      <trkpt lat="48.80666" lon="2.33685">
        <ele>50.200000762939</ele>
        <time>2015-11-30T20:06:21.000Z</time>
      </trkpt>
      <trkpt lat="48.80653" lon="2.3371">
        <ele>48.799999237061</ele>
        <time>2015-11-30T20:06:25.000Z</time>
      </trkpt>
      <trkpt lat="48.80637" lon="2.33731">
        <ele>47.400001525879</ele>
        <time>2015-11-30T20:06:29.000Z</time>
      </trkpt>
      <trkpt lat="48.80625" lon="2.33746">
        <ele>46.400001525879</ele>
        <time>2015-11-30T20:06:32.000Z</time>
      </trkpt>
      <trkpt lat="48.80617" lon="2.33755">
        <ele>45.400001525879</ele>
        <time>2015-11-30T20:06:34.000Z</time>
      </trkpt>
      <trkpt lat="48.80609" lon="2.33763">
        <ele>44.400001525879</ele>
        <time>2015-11-30T20:06:36.000Z</time>
      </trkpt>
      <trkpt lat="48.8059" lon="2.33776">
        <ele>43.200000762939</ele>
        <time>2015-11-30T20:06:40.000Z</time>
      </trkpt>
      <trkpt lat="48.80585" lon="2.33779">
        <ele>43</ele>
        <time>2015-11-30T20:06:41.000Z</time>
      </trkpt>
      <trkpt lat="48.80563" lon="2.33789">
        <ele>42</ele>
        <time>2015-11-30T20:06:45.000Z</time>
      </trkpt>
      <trkpt lat="48.8054" lon="2.33794">
        <ele>43</ele>
        <time>2015-11-30T20:06:49.000Z</time>
      </trkpt>
      <trkpt lat="48.80534" lon="2.33794">
        <ele>43.200000762939</ele>
        <time>2015-11-30T20:06:50.000Z</time>
      </trkpt>
      <trkpt lat="48.80512" lon="2.33794">
        <ele>43.599998474121</ele>
        <time>2015-11-30T20:06:54.000Z</time>
      </trkpt>
      <trkpt lat="48.8049" lon="2.33797">
        <ele>44</ele>
        <time>2015-11-30T20:06:58.000Z</time>
      </trkpt>
      <trkpt lat="48.8047" lon="2.33799">
        <ele>45</ele>
        <time>2015-11-30T20:07:02.000Z</time>
      </trkpt>
      <trkpt lat="48.80452" lon="2.33797">
        <ele>45.799999237061</ele>
        <time>2015-11-30T20:07:06.000Z</time>
      </trkpt>
      <trkpt lat="48.80435" lon="2.33794">
        <ele>46.599998474121</ele>
        <time>2015-11-30T20:07:10.000Z</time>
      </trkpt>
      <trkpt lat="48.80421" lon="2.33775">
        <ele>46.599998474121</ele>
        <time>2015-11-30T20:07:14.000Z</time>
      </trkpt>
      <trkpt lat="48.80406" lon="2.33748">
        <ele>46.400001525879</ele>
        <time>2015-11-30T20:07:18.000Z</time>
      </trkpt>
      <trkpt lat="48.80395" lon="2.33725">
        <ele>45.799999237061</ele>
        <time>2015-11-30T20:07:21.000Z</time>
      </trkpt>
      <trkpt lat="48.80384" lon="2.33702">
        <ele>45.200000762939</ele>
        <time>2015-11-30T20:07:24.000Z</time>
      </trkpt>
      <trkpt lat="48.8038" lon="2.33695">
        <ele>45</ele>
        <time>2015-11-30T20:07:25.000Z</time>
      </trkpt>
      <trkpt lat="48.80367" lon="2.33665">
        <ele>44.799999237061</ele>
        <time>2015-11-30T20:07:29.000Z</time>
      </trkpt>
      <trkpt lat="48.80356" lon="2.33642">
        <ele>44.799999237061</ele>
        <time>2015-11-30T20:07:32.000Z</time>
      </trkpt>
      <trkpt lat="48.80343" lon="2.33615">
        <ele>44.599998474121</ele>
        <time>2015-11-30T20:07:36.000Z</time>
      </trkpt>
      <trkpt lat="48.80337" lon="2.33603">
        <ele>44.599998474121</ele>
        <time>2015-11-30T20:07:38.000Z</time>
      </trkpt>
      <trkpt lat="48.80324" lon="2.33583">
        <ele>44.799999237061</ele>
        <time>2015-11-30T20:07:42.000Z</time>
      </trkpt>
      <trkpt lat="48.80319" lon="2.33577">
        <ele>44.799999237061</ele>
        <time>2015-11-30T20:07:44.000Z</time>
      </trkpt>
      <trkpt lat="48.80306" lon="2.33568">
        <ele>45</ele>
        <time>2015-11-30T20:07:48.000Z</time>
      </trkpt>
      <trkpt lat="48.80287" lon="2.33557">
        <ele>45.400001525879</ele>
        <time>2015-11-30T20:07:53.000Z</time>
      </trkpt>
      <trkpt lat="48.80274" lon="2.33551">
        <ele>45.599998474121</ele>
        <time>2015-11-30T20:07:56.000Z</time>
      </trkpt>
      <trkpt lat="48.80265" lon="2.33547">
        <ele>45.799999237061</ele>
        <time>2015-11-30T20:07:58.000Z</time>
      </trkpt>
      <trkpt lat="48.80248" lon="2.33537">
        <ele>46</ele>
        <time>2015-11-30T20:08:03.000Z</time>
      </trkpt>
      <trkpt lat="48.80245" lon="2.33536">
        <ele>46.200000762939</ele>
        <time>2015-11-30T20:08:04.000Z</time>
      </trkpt>
      <trkpt lat="48.8023" lon="2.33528">
        <ele>46.400001525879</ele>
        <time>2015-11-30T20:08:10.000Z</time>
      </trkpt>
      <trkpt lat="48.80226" lon="2.33528">
        <ele>46.400001525879</ele>
        <time>2015-11-30T20:08:12.000Z</time>
      </trkpt>
      <trkpt lat="48.80223" lon="2.33528">
        <ele>46.599998474121</ele>
        <time>2015-11-30T20:08:14.000Z</time>
      </trkpt>
      <trkpt lat="48.80205" lon="2.33537">
        <ele>48.200000762939</ele>
        <time>2015-11-30T20:08:41.000Z</time>
      </trkpt>
      <trkpt lat="48.80195" lon="2.33561">
        <ele>50.400001525879</ele>
        <time>2015-11-30T20:08:55.000Z</time>
      </trkpt>
      <trkpt lat="48.80181" lon="2.33581">
        <ele>52.799999237061</ele>
        <time>2015-11-30T20:09:07.000Z</time>
      </trkpt>
      <trkpt lat="48.80168" lon="2.33603">
        <ele>55.400001525879</ele>
        <time>2015-11-30T20:09:17.000Z</time>
      </trkpt>
      <trkpt lat="48.80155" lon="2.33624">
        <ele>57.799999237061</ele>
        <time>2015-11-30T20:09:31.000Z</time>
      </trkpt>
      <trkpt lat="48.80153" lon="2.33629">
        <ele>58.400001525879</ele>
        <time>2015-11-30T20:09:36.000Z</time>
      </trkpt>
      <trkpt lat="48.80141" lon="2.33649">
        <ele>59.799999237061</ele>
        <time>2015-11-30T20:10:07.000Z</time>
      </trkpt>
      <trkpt lat="48.80128" lon="2.33668">
        <ele>61.599998474121</ele>
        <time>2015-11-30T20:10:17.000Z</time>
      </trkpt>
      <trkpt lat="48.8012" lon="2.33685">
        <ele>63.799999237061</ele>
        <time>2015-11-30T20:10:27.000Z</time>
      </trkpt>
      <trkpt lat="48.80117" lon="2.33687">
        <ele>64.199996948242</ele>
        <time>2015-11-30T20:10:29.000Z</time>
      </trkpt>
      <trkpt lat="48.80112" lon="2.33693">
        <ele>65</ele>
        <time>2015-11-30T20:10:34.000Z</time>
      </trkpt>
      <trkpt lat="48.8011" lon="2.33696">
        <ele>65.400001525879</ele>
        <time>2015-11-30T20:10:36.000Z</time>
      </trkpt>
      <trkpt lat="48.801" lon="2.33717">
        <ele>67.400001525879</ele>
        <time>2015-11-30T20:10:58.000Z</time>
      </trkpt>
      <trkpt lat="48.80084" lon="2.33736">
        <ele>69.400001525879</ele>
        <time>2015-11-30T20:11:10.000Z</time>
      </trkpt>
      <trkpt lat="48.8007" lon="2.33755">
        <ele>70.800003051758</ele>
        <time>2015-11-30T20:11:17.000Z</time>
      </trkpt>
      <trkpt lat="48.80056" lon="2.33775">
        <ele>72</ele>
        <time>2015-11-30T20:11:26.000Z</time>
      </trkpt>
      <trkpt lat="48.80044" lon="2.33795">
        <ele>73.400001525879</ele>
        <time>2015-11-30T20:11:37.000Z</time>
      </trkpt>
      <trkpt lat="48.80032" lon="2.33817">
        <ele>75</ele>
        <time>2015-11-30T20:11:47.000Z</time>
      </trkpt>
      <trkpt lat="48.80019" lon="2.33837">
        <ele>76.199996948242</ele>
        <time>2015-11-30T20:11:59.000Z</time>
      </trkpt>
      <trkpt lat="48.80007" lon="2.33861">
        <ele>77</ele>
        <time>2015-11-30T20:12:10.000Z</time>
      </trkpt>
      <trkpt lat="48.79998" lon="2.33887">
        <ele>77.800003051758</ele>
        <time>2015-11-30T20:12:21.000Z</time>
      </trkpt>
      <trkpt lat="48.79986" lon="2.3391">
        <ele>78.199996948242</ele>
        <time>2015-11-30T20:12:32.000Z</time>
      </trkpt>
      <trkpt lat="48.79974" lon="2.33932">
        <ele>79.400001525879</ele>
        <time>2015-11-30T20:12:43.000Z</time>
      </trkpt>
      <trkpt lat="48.79959" lon="2.33951">
        <ele>80</ele>
        <time>2015-11-30T20:12:51.000Z</time>
      </trkpt>
      <trkpt lat="48.79946" lon="2.33972">
        <ele>80</ele>
        <time>2015-11-30T20:12:58.000Z</time>
      </trkpt>
      <trkpt lat="48.79935" lon="2.33994">
        <ele>80</ele>
        <time>2015-11-30T20:13:06.000Z</time>
      </trkpt>
      <trkpt lat="48.79924" lon="2.34018">
        <ele>81</ele>
        <time>2015-11-30T20:13:15.000Z</time>
      </trkpt>
      <trkpt lat="48.79915" lon="2.34045">
        <ele>82</ele>
        <time>2015-11-30T20:13:24.000Z</time>
      </trkpt>
      <trkpt lat="48.79903" lon="2.34069">
        <ele>83</ele>
        <time>2015-11-30T20:13:33.000Z</time>
      </trkpt>
      <trkpt lat="48.79891" lon="2.3409">
        <ele>83.599998474121</ele>
        <time>2015-11-30T20:13:43.000Z</time>
      </trkpt>
      <trkpt lat="48.7989" lon="2.34091">
        <ele>83.599998474121</ele>
        <time>2015-11-30T20:13:44.000Z</time>
      </trkpt>
      <trkpt lat="48.7988" lon="2.34111">
        <ele>83.800003051758</ele>
        <time>2015-11-30T20:14:47.000Z</time>
      </trkpt>
      <trkpt lat="48.79869" lon="2.34137">
        <ele>84.400001525879</ele>
        <time>2015-11-30T20:14:54.000Z</time>
      </trkpt>
      <trkpt lat="48.79859" lon="2.34162">
        <ele>84.800003051758</ele>
        <time>2015-11-30T20:15:01.000Z</time>
      </trkpt>
      <trkpt lat="48.7985" lon="2.34189">
        <ele>85.599998474121</ele>
        <time>2015-11-30T20:15:08.000Z</time>
      </trkpt>
      <trkpt lat="48.79841" lon="2.34212">
        <ele>86.400001525879</ele>
        <time>2015-11-30T20:15:15.000Z</time>
      </trkpt>
      <trkpt lat="48.7983" lon="2.34236">
        <ele>87.199996948242</ele>
        <time>2015-11-30T20:15:22.000Z</time>
      </trkpt>
      <trkpt lat="48.79818" lon="2.34259">
        <ele>88.400001525879</ele>
        <time>2015-11-30T20:15:29.000Z</time>
      </trkpt>
      <trkpt lat="48.79804" lon="2.3428">
        <ele>89.800003051758</ele>
        <time>2015-11-30T20:15:37.000Z</time>
      </trkpt>
      <trkpt lat="48.79789" lon="2.34299">
        <ele>90.599998474121</ele>
        <time>2015-11-30T20:15:45.000Z</time>
      </trkpt>
      <trkpt lat="48.79786" lon="2.34306">
        <ele>91</ele>
        <time>2015-11-30T20:15:49.000Z</time>
      </trkpt>
      <trkpt lat="48.79781" lon="2.34311">
        <ele>91.199996948242</ele>
        <time>2015-11-30T20:15:54.000Z</time>
      </trkpt>
      <trkpt lat="48.79774" lon="2.3432">
        <ele>91.599998474121</ele>
        <time>2015-11-30T20:16:02.000Z</time>
      </trkpt>
      <trkpt lat="48.79755" lon="2.34317">
        <ele>92.599998474121</ele>
        <time>2015-11-30T20:16:12.000Z</time>
      </trkpt>
      <trkpt lat="48.79745" lon="2.34314">
        <ele>93.199996948242</ele>
        <time>2015-11-30T20:16:17.000Z</time>
      </trkpt>
      <trkpt lat="48.79723" lon="2.34305">
        <ele>94.599998474121</ele>
        <time>2015-11-30T20:16:27.000Z</time>
      </trkpt>
      <trkpt lat="48.79704" lon="2.34303">
        <ele>96</ele>
        <time>2015-11-30T20:16:36.000Z</time>
      </trkpt>
      <trkpt lat="48.79686" lon="2.34302">
        <ele>97.199996948242</ele>
        <time>2015-11-30T20:16:46.000Z</time>
      </trkpt>
      <trkpt lat="48.79666" lon="2.34304">
        <ele>97.599998474121</ele>
        <time>2015-11-30T20:16:55.000Z</time>
      </trkpt>
      <trkpt lat="48.79648" lon="2.34308">
        <ele>98.800003051758</ele>
        <time>2015-11-30T20:17:05.000Z</time>
      </trkpt>
      <trkpt lat="48.79628" lon="2.34313">
        <ele>100.19999694824</ele>
        <time>2015-11-30T20:17:16.000Z</time>
      </trkpt>
      <trkpt lat="48.79609" lon="2.34317">
        <ele>101.59999847412</ele>
        <time>2015-11-30T20:17:25.000Z</time>
      </trkpt>
      <trkpt lat="48.79589" lon="2.34324">
        <ele>101.80000305176</ele>
        <time>2015-11-30T20:17:34.000Z</time>
      </trkpt>
      <trkpt lat="48.7957" lon="2.34324">
        <ele>101.40000152588</ele>
        <time>2015-11-30T20:17:43.000Z</time>
      </trkpt>
      <trkpt lat="48.79556" lon="2.34329">
        <ele>101.59999847412</ele>
        <time>2015-11-30T20:17:51.000Z</time>
      </trkpt>
      <trkpt lat="48.79551" lon="2.34335">
        <ele>101.59999847412</ele>
        <time>2015-11-30T20:17:56.000Z</time>
      </trkpt>
      <trkpt lat="48.79539" lon="2.3434">
        <ele>101.19999694824</ele>
        <time>2015-11-30T20:18:01.000Z</time>
      </trkpt>
      <trkpt lat="48.7952" lon="2.34345">
        <ele>101.80000305176</ele>
        <time>2015-11-30T20:18:09.000Z</time>
      </trkpt>
      <trkpt lat="48.79501" lon="2.3435">
        <ele>102.40000152588</ele>
        <time>2015-11-30T20:18:18.000Z</time>
      </trkpt>
      <trkpt lat="48.79482" lon="2.34356">
        <ele>103.19999694824</ele>
        <time>2015-11-30T20:18:26.000Z</time>
      </trkpt>
      <trkpt lat="48.79463" lon="2.34362">
        <ele>103.80000305176</ele>
        <time>2015-11-30T20:18:36.000Z</time>
      </trkpt>
      <trkpt lat="48.79445" lon="2.34365">
        <ele>104.19999694824</ele>
        <time>2015-11-30T20:18:42.000Z</time>
      </trkpt>
      <trkpt lat="48.79423" lon="2.3437">
        <ele>103.80000305176</ele>
        <time>2015-11-30T20:18:49.000Z</time>
      </trkpt>
      <trkpt lat="48.79402" lon="2.34377">
        <ele>103.40000152588</ele>
        <time>2015-11-30T20:18:56.000Z</time>
      </trkpt>
      <trkpt lat="48.7938" lon="2.34382">
        <ele>103.59999847412</ele>
        <time>2015-11-30T20:19:02.000Z</time>
      </trkpt>
      <trkpt lat="48.79361" lon="2.34387">
        <ele>104</ele>
        <time>2015-11-30T20:19:06.000Z</time>
      </trkpt>
      <trkpt lat="48.79336" lon="2.34393">
        <ele>104.19999694824</ele>
        <time>2015-11-30T20:19:11.000Z</time>
      </trkpt>
      <trkpt lat="48.79317" lon="2.34398">
        <ele>104.40000152588</ele>
        <time>2015-11-30T20:19:16.000Z</time>
      </trkpt>
      <trkpt lat="48.79296" lon="2.34401">
        <ele>104.40000152588</ele>
        <time>2015-11-30T20:19:21.000Z</time>
      </trkpt>
      <trkpt lat="48.79274" lon="2.34403">
        <ele>104.19999694824</ele>
        <time>2015-11-30T20:19:27.000Z</time>
      </trkpt>
      <trkpt lat="48.79248" lon="2.34402">
        <ele>105</ele>
        <time>2015-11-30T20:19:33.000Z</time>
      </trkpt>
      <trkpt lat="48.79226" lon="2.34398">
        <ele>105.80000305176</ele>
        <time>2015-11-30T20:19:39.000Z</time>
      </trkpt>
      <trkpt lat="48.79207" lon="2.34395">
        <ele>106.40000152588</ele>
        <time>2015-11-30T20:19:44.000Z</time>
      </trkpt>
      <trkpt lat="48.79187" lon="2.34391">
        <ele>107.19999694824</ele>
        <time>2015-11-30T20:19:49.000Z</time>
      </trkpt>
      <trkpt lat="48.79168" lon="2.34385">
        <ele>107.59999847412</ele>
        <time>2015-11-30T20:19:56.000Z</time>
      </trkpt>
      <trkpt lat="48.7915" lon="2.34378">
        <ele>107.80000305176</ele>
        <time>2015-11-30T20:20:01.000Z</time>
      </trkpt>
      <trkpt lat="48.7913" lon="2.34371">
        <ele>108</ele>
        <time>2015-11-30T20:20:09.000Z</time>
      </trkpt>
      <trkpt lat="48.79112" lon="2.34364">
        <ele>108.19999694824</ele>
        <time>2015-11-30T20:20:15.000Z</time>
      </trkpt>
      <trkpt lat="48.7909" lon="2.34359">
        <ele>108.40000152588</ele>
        <time>2015-11-30T20:20:23.000Z</time>
      </trkpt>
      <trkpt lat="48.79072" lon="2.34356">
        <ele>108.59999847412</ele>
        <time>2015-11-30T20:20:28.000Z</time>
      </trkpt>
      <trkpt lat="48.79045" lon="2.34351">
        <ele>108.80000305176</ele>
        <time>2015-11-30T20:20:33.000Z</time>
      </trkpt>
      <trkpt lat="48.79027" lon="2.34346">
        <ele>108.59999847412</ele>
        <time>2015-11-30T20:20:37.000Z</time>
      </trkpt>
      <trkpt lat="48.79008" lon="2.34343">
        <ele>108</ele>
        <time>2015-11-30T20:20:42.000Z</time>
      </trkpt>
      <trkpt lat="48.78989" lon="2.34338">
        <ele>107.40000152588</ele>
        <time>2015-11-30T20:20:46.000Z</time>
      </trkpt>
      <trkpt lat="48.78967" lon="2.34332">
        <ele>106.80000305176</ele>
        <time>2015-11-30T20:20:51.000Z</time>
      </trkpt>
      <trkpt lat="48.78945" lon="2.34327">
        <ele>106</ele>
        <time>2015-11-30T20:20:56.000Z</time>
      </trkpt>
      <trkpt lat="48.7893" lon="2.34325">
        <ele>105.59999847412</ele>
        <time>2015-11-30T20:21:00.000Z</time>
      </trkpt>
      <trkpt lat="48.78907" lon="2.34322">
        <ele>105.59999847412</ele>
        <time>2015-11-30T20:21:06.000Z</time>
      </trkpt>
      <trkpt lat="48.78887" lon="2.34317">
        <ele>105.40000152588</ele>
        <time>2015-11-30T20:21:12.000Z</time>
      </trkpt>
      <trkpt lat="48.78868" lon="2.34313">
        <ele>105.40000152588</ele>
        <time>2015-11-30T20:21:17.000Z</time>
      </trkpt>
      <trkpt lat="48.78848" lon="2.34308">
        <ele>105.40000152588</ele>
        <time>2015-11-30T20:21:23.000Z</time>
      </trkpt>
      <trkpt lat="48.78828" lon="2.34302">
        <ele>105.59999847412</ele>
        <time>2015-11-30T20:21:29.000Z</time>
      </trkpt>
      <trkpt lat="48.78808" lon="2.34294">
        <ele>105.19999694824</ele>
        <time>2015-11-30T20:21:34.000Z</time>
      </trkpt>
      <trkpt lat="48.7879" lon="2.34285">
        <ele>104.80000305176</ele>
        <time>2015-11-30T20:21:40.000Z</time>
      </trkpt>
      <trkpt lat="48.7877" lon="2.34273">
        <ele>104.19999694824</ele>
        <time>2015-11-30T20:21:48.000Z</time>
      </trkpt>
      <trkpt lat="48.78752" lon="2.34264">
        <ele>103.59999847412</ele>
        <time>2015-11-30T20:21:53.000Z</time>
      </trkpt>
      <trkpt lat="48.78733" lon="2.34253">
        <ele>102.80000305176</ele>
        <time>2015-11-30T20:21:58.000Z</time>
      </trkpt>
      <trkpt lat="48.78704" lon="2.3424">
        <ele>102</ele>
        <time>2015-11-30T20:22:04.000Z</time>
      </trkpt>
      <trkpt lat="48.78684" lon="2.34233">
        <ele>101.59999847412</ele>
        <time>2015-11-30T20:22:09.000Z</time>
      </trkpt>
      <trkpt lat="48.78667" lon="2.34225">
        <ele>101.80000305176</ele>
        <time>2015-11-30T20:22:13.000Z</time>
      </trkpt>
      <trkpt lat="48.78649" lon="2.34215">
        <ele>101.80000305176</ele>
        <time>2015-11-30T20:22:17.000Z</time>
      </trkpt>
      <trkpt lat="48.7863" lon="2.34207">
        <ele>102</ele>
        <time>2015-11-30T20:22:23.000Z</time>
      </trkpt>
      <trkpt lat="48.7862" lon="2.34202">
        <ele>102</ele>
        <time>2015-11-30T20:22:24.000Z</time>
      </trkpt>
      <trkpt lat="48.78615" lon="2.342">
        <ele>102</ele>
        <time>2015-11-30T20:22:26.000Z</time>
      </trkpt>
      <trkpt lat="48.78595" lon="2.34195">
        <ele>102.19999694824</ele>
        <time>2015-11-30T20:22:30.000Z</time>
      </trkpt>
      <trkpt lat="48.78573" lon="2.34189">
        <ele>102.19999694824</ele>
        <time>2015-11-30T20:22:35.000Z</time>
      </trkpt>
      <trkpt lat="48.78555" lon="2.34182">
        <ele>102.19999694824</ele>
        <time>2015-11-30T20:22:39.000Z</time>
      </trkpt>
      <trkpt lat="48.78533" lon="2.34175">
        <ele>102.19999694824</ele>
        <time>2015-11-30T20:22:44.000Z</time>
      </trkpt>
      <trkpt lat="48.78515" lon="2.34167">
        <ele>102.19999694824</ele>
        <time>2015-11-30T20:22:48.000Z</time>
      </trkpt>
      <trkpt lat="48.78501" lon="2.34163">
        <ele>102.19999694824</ele>
        <time>2015-11-30T20:22:51.000Z</time>
      </trkpt>
      <trkpt lat="48.78483" lon="2.34158">
        <ele>102.40000152588</ele>
        <time>2015-11-30T20:22:55.000Z</time>
      </trkpt>
      <trkpt lat="48.78463" lon="2.3415">
        <ele>102.59999847412</ele>
        <time>2015-11-30T20:23:00.000Z</time>
      </trkpt>
      <trkpt lat="48.78459" lon="2.34148">
        <ele>102.59999847412</ele>
        <time>2015-11-30T20:23:01.000Z</time>
      </trkpt>
      <trkpt lat="48.7844" lon="2.3414">
        <ele>102.59999847412</ele>
        <time>2015-11-30T20:23:06.000Z</time>
      </trkpt>
      <trkpt lat="48.78433" lon="2.34138">
        <ele>102.59999847412</ele>
        <time>2015-11-30T20:23:08.000Z</time>
      </trkpt>
      <trkpt lat="48.78412" lon="2.34138">
        <ele>101.80000305176</ele>
        <time>2015-11-30T20:23:15.000Z</time>
      </trkpt>
      <trkpt lat="48.78394" lon="2.34137">
        <ele>101.19999694824</ele>
        <time>2015-11-30T20:23:21.000Z</time>
      </trkpt>
      <trkpt lat="48.78373" lon="2.34137">
        <ele>100.80000305176</ele>
        <time>2015-11-30T20:23:27.000Z</time>
      </trkpt>
      <trkpt lat="48.78353" lon="2.34133">
        <ele>100.19999694824</ele>
        <time>2015-11-30T20:23:32.000Z</time>
      </trkpt>
      <trkpt lat="48.78334" lon="2.34131">
        <ele>100</ele>
        <time>2015-11-30T20:23:36.000Z</time>
      </trkpt>
      <trkpt lat="48.78313" lon="2.3413">
        <ele>99.400001525879</ele>
        <time>2015-11-30T20:23:41.000Z</time>
      </trkpt>
      <trkpt lat="48.78292" lon="2.34128">
        <ele>98.400001525879</ele>
        <time>2015-11-30T20:23:46.000Z</time>
      </trkpt>
      <trkpt lat="48.78272" lon="2.34125">
        <ele>97.599998474121</ele>
        <time>2015-11-30T20:23:51.000Z</time>
      </trkpt>
      <trkpt lat="48.78254" lon="2.34123">
        <ele>97.400001525879</ele>
        <time>2015-11-30T20:23:55.000Z</time>
      </trkpt>
      <trkpt lat="48.78239" lon="2.34122">
        <ele>97.599998474121</ele>
        <time>2015-11-30T20:23:58.000Z</time>
      </trkpt>
      <trkpt lat="48.78235" lon="2.34094">
        <ele>97.800003051758</ele>
        <time>2015-11-30T20:24:03.000Z</time>
      </trkpt>
      <trkpt lat="48.78242" lon="2.34064">
        <ele>97.800003051758</ele>
        <time>2015-11-30T20:24:09.000Z</time>
      </trkpt>
      <trkpt lat="48.78243" lon="2.34058">
        <ele>97.800003051758</ele>
        <time>2015-11-30T20:24:10.000Z</time>
      </trkpt>
      <trkpt lat="48.7825" lon="2.34031">
        <ele>97.400001525879</ele>
        <time>2015-11-30T20:24:15.000Z</time>
      </trkpt>
      <trkpt lat="48.78254" lon="2.34021">
        <ele>97.199996948242</ele>
        <time>2015-11-30T20:24:17.000Z</time>
      </trkpt>
      <trkpt lat="48.78269" lon="2.34001">
        <ele>97</ele>
        <time>2015-11-30T20:24:22.000Z</time>
      </trkpt>
      <trkpt lat="48.78287" lon="2.33985">
        <ele>97</ele>
        <time>2015-11-30T20:24:27.000Z</time>
      </trkpt>
      <trkpt lat="48.78304" lon="2.33972">
        <ele>96.800003051758</ele>
        <time>2015-11-30T20:24:32.000Z</time>
      </trkpt>
      <trkpt lat="48.78322" lon="2.33961">
        <ele>96.800003051758</ele>
        <time>2015-11-30T20:24:37.000Z</time>
      </trkpt>
      <trkpt lat="48.78342" lon="2.33947">
        <ele>96.800003051758</ele>
        <time>2015-11-30T20:24:42.000Z</time>
      </trkpt>
      <trkpt lat="48.7836" lon="2.33933">
        <ele>96.599998474121</ele>
        <time>2015-11-30T20:24:46.000Z</time>
      </trkpt>
      <trkpt lat="48.78378" lon="2.33919">
        <ele>95.800003051758</ele>
        <time>2015-11-30T20:24:50.000Z</time>
      </trkpt>
      <trkpt lat="48.78398" lon="2.33907">
        <ele>94.599998474121</ele>
        <time>2015-11-30T20:24:54.000Z</time>
      </trkpt>
      <trkpt lat="48.78417" lon="2.33893">
        <ele>93.199996948242</ele>
        <time>2015-11-30T20:24:58.000Z</time>
      </trkpt>
      <trkpt lat="48.78437" lon="2.33877">
        <ele>93.199996948242</ele>
        <time>2015-11-30T20:25:02.000Z</time>
      </trkpt>
      <trkpt lat="48.78457" lon="2.33864">
        <ele>92.400001525879</ele>
        <time>2015-11-30T20:25:06.000Z</time>
      </trkpt>
      <trkpt lat="48.78478" lon="2.3385">
        <ele>92</ele>
        <time>2015-11-30T20:25:10.000Z</time>
      </trkpt>
      <trkpt lat="48.78495" lon="2.33837">
        <ele>92</ele>
        <time>2015-11-30T20:25:14.000Z</time>
      </trkpt>
      <trkpt lat="48.78514" lon="2.33825">
        <ele>91.800003051758</ele>
        <time>2015-11-30T20:25:22.000Z</time>
      </trkpt>
      <trkpt lat="48.78532" lon="2.33813">
        <ele>90.400001525879</ele>
        <time>2015-11-30T20:25:29.000Z</time>
      </trkpt>
      <trkpt lat="48.7855" lon="2.33799">
        <ele>88.400001525879</ele>
        <time>2015-11-30T20:25:37.000Z</time>
      </trkpt>
      <trkpt lat="48.78569" lon="2.33786">
        <ele>86.199996948242</ele>
        <time>2015-11-30T20:25:44.000Z</time>
      </trkpt>
      <trkpt lat="48.78588" lon="2.33774">
        <ele>83.599998474121</ele>
        <time>2015-11-30T20:25:49.000Z</time>
      </trkpt>
      <trkpt lat="48.78607" lon="2.33764">
        <ele>81</ele>
        <time>2015-11-30T20:25:53.000Z</time>
      </trkpt>
      <trkpt lat="48.78626" lon="2.33758">
        <ele>79.800003051758</ele>
        <time>2015-11-30T20:25:57.000Z</time>
      </trkpt>
      <trkpt lat="48.78644" lon="2.33754">
        <ele>79</ele>
        <time>2015-11-30T20:26:01.000Z</time>
      </trkpt>
      <trkpt lat="48.78664" lon="2.3375">
        <ele>78</ele>
        <time>2015-11-30T20:26:05.000Z</time>
      </trkpt>
      <trkpt lat="48.78684" lon="2.33746">
        <ele>77.199996948242</ele>
        <time>2015-11-30T20:26:09.000Z</time>
      </trkpt>
      <trkpt lat="48.78702" lon="2.33742">
        <ele>76.400001525879</ele>
        <time>2015-11-30T20:26:13.000Z</time>
      </trkpt>
      <trkpt lat="48.7872" lon="2.33737">
        <ele>75.599998474121</ele>
        <time>2015-11-30T20:26:18.000Z</time>
      </trkpt>
      <trkpt lat="48.7873" lon="2.33734">
        <ele>75</ele>
        <time>2015-11-30T20:26:23.000Z</time>
      </trkpt>
      <trkpt lat="48.78734" lon="2.33733">
        <ele>74.800003051758</ele>
        <time>2015-11-30T20:26:26.000Z</time>
      </trkpt>
      <trkpt lat="48.78736" lon="2.33728">
        <ele>74.400001525879</ele>
        <time>2015-11-30T20:28:09.000Z</time>
      </trkpt>
      <trkpt lat="48.78754" lon="2.33721">
        <ele>73.400001525879</ele>
        <time>2015-11-30T20:28:18.000Z</time>
      </trkpt>
      <trkpt lat="48.78774" lon="2.33718">
        <ele>72.400001525879</ele>
        <time>2015-11-30T20:28:25.000Z</time>
      </trkpt>
      <trkpt lat="48.78794" lon="2.33717">
        <ele>71.400001525879</ele>
        <time>2015-11-30T20:28:32.000Z</time>
      </trkpt>
      <trkpt lat="48.78813" lon="2.33713">
        <ele>70.199996948242</ele>
        <time>2015-11-30T20:28:37.000Z</time>
      </trkpt>
      <trkpt lat="48.78831" lon="2.33711">
        <ele>69.199996948242</ele>
        <time>2015-11-30T20:28:41.000Z</time>
      </trkpt>
      <trkpt lat="48.78852" lon="2.33707">
        <ele>68.199996948242</ele>
        <time>2015-11-30T20:28:45.000Z</time>
      </trkpt>
      <trkpt lat="48.78873" lon="2.33703">
        <ele>67</ele>
        <time>2015-11-30T20:28:49.000Z</time>
      </trkpt>
      <trkpt lat="48.78894" lon="2.33698">
        <ele>65.800003051758</ele>
        <time>2015-11-30T20:28:53.000Z</time>
      </trkpt>
      <trkpt lat="48.78916" lon="2.33696">
        <ele>65.400001525879</ele>
        <time>2015-11-30T20:28:57.000Z</time>
      </trkpt>
      <trkpt lat="48.78937" lon="2.33696">
        <ele>65.199996948242</ele>
        <time>2015-11-30T20:29:01.000Z</time>
      </trkpt>
      <trkpt lat="48.78956" lon="2.33694">
        <ele>64.599998474121</ele>
        <time>2015-11-30T20:29:05.000Z</time>
      </trkpt>
      <trkpt lat="48.78977" lon="2.33691">
        <ele>63.400001525879</ele>
        <time>2015-11-30T20:29:11.000Z</time>
      </trkpt>
      <trkpt lat="48.78999" lon="2.33688">
        <ele>61.599998474121</ele>
        <time>2015-11-30T20:29:16.000Z</time>
      </trkpt>
      <trkpt lat="48.79018" lon="2.33687">
        <ele>60.200000762939</ele>
        <time>2015-11-30T20:29:20.000Z</time>
      </trkpt>
      <trkpt lat="48.7904" lon="2.33684">
        <ele>57.799999237061</ele>
        <time>2015-11-30T20:29:25.000Z</time>
      </trkpt>
      <trkpt lat="48.79062" lon="2.33684">
        <ele>56.400001525879</ele>
        <time>2015-11-30T20:29:30.000Z</time>
      </trkpt>
      <trkpt lat="48.79081" lon="2.33682">
        <ele>55.400001525879</ele>
        <time>2015-11-30T20:29:34.000Z</time>
      </trkpt>
      <trkpt lat="48.791" lon="2.33682">
        <ele>54.200000762939</ele>
        <time>2015-11-30T20:29:38.000Z</time>
      </trkpt>
      <trkpt lat="48.79118" lon="2.33681">
        <ele>53.200000762939</ele>
        <time>2015-11-30T20:29:42.000Z</time>
      </trkpt>
      <trkpt lat="48.79133" lon="2.33681">
        <ele>52.799999237061</ele>
        <time>2015-11-30T20:29:45.000Z</time>
      </trkpt>
      <trkpt lat="48.79152" lon="2.33685">
        <ele>52.400001525879</ele>
        <time>2015-11-30T20:29:49.000Z</time>
      </trkpt>
      <trkpt lat="48.79172" lon="2.33688">
        <ele>52</ele>
        <time>2015-11-30T20:29:53.000Z</time>
      </trkpt>
      <trkpt lat="48.79193" lon="2.33689">
        <ele>51.400001525879</ele>
        <time>2015-11-30T20:29:57.000Z</time>
      </trkpt>
      <trkpt lat="48.79204" lon="2.33691">
        <ele>51</ele>
        <time>2015-11-30T20:29:59.000Z</time>
      </trkpt>
      <trkpt lat="48.79223" lon="2.33696">
        <ele>50.400001525879</ele>
        <time>2015-11-30T20:30:03.000Z</time>
      </trkpt>
      <trkpt lat="48.79243" lon="2.33698">
        <ele>49.599998474121</ele>
        <time>2015-11-30T20:30:09.000Z</time>
      </trkpt>
      <trkpt lat="48.79245" lon="2.33698">
        <ele>49.400001525879</ele>
        <time>2015-11-30T20:30:10.000Z</time>
      </trkpt>
      <trkpt lat="48.79254" lon="2.33696">
        <ele>49</ele>
        <time>2015-11-30T20:30:14.000Z</time>
      </trkpt>
      <trkpt lat="48.79262" lon="2.33693">
        <ele>48.400001525879</ele>
        <time>2015-11-30T20:30:17.000Z</time>
      </trkpt>
      <trkpt lat="48.79274" lon="2.33697">
        <ele>48.200000762939</ele>
        <time>2015-11-30T20:30:21.000Z</time>
      </trkpt>
      <trkpt lat="48.79291" lon="2.33711">
        <ele>48.799999237061</ele>
        <time>2015-11-30T20:30:26.000Z</time>
      </trkpt>
      <trkpt lat="48.79309" lon="2.33729">
        <ele>49.400001525879</ele>
        <time>2015-11-30T20:30:31.000Z</time>
      </trkpt>
      <trkpt lat="48.79327" lon="2.33743">
        <ele>49.799999237061</ele>
        <time>2015-11-30T20:30:35.000Z</time>
      </trkpt>
      <trkpt lat="48.79345" lon="2.33757">
        <ele>49.799999237061</ele>
        <time>2015-11-30T20:30:39.000Z</time>
      </trkpt>
      <trkpt lat="48.79361" lon="2.33771">
        <ele>49.599998474121</ele>
        <time>2015-11-30T20:30:43.000Z</time>
      </trkpt>
      <trkpt lat="48.79364" lon="2.33774">
        <ele>49.400001525879</ele>
        <time>2015-11-30T20:30:44.000Z</time>
      </trkpt>
      <trkpt lat="48.79382" lon="2.33772">
        <ele>48.599998474121</ele>
        <time>2015-11-30T20:30:49.000Z</time>
      </trkpt>
      <trkpt lat="48.79392" lon="2.33756">
        <ele>47.799999237061</ele>
        <time>2015-11-30T20:30:52.000Z</time>
      </trkpt>
      <trkpt lat="48.79405" lon="2.3373">
        <ele>46.799999237061</ele>
        <time>2015-11-30T20:30:56.000Z</time>
      </trkpt>
      <trkpt lat="48.79411" lon="2.33709">
        <ele>46.599998474121</ele>
        <time>2015-11-30T20:30:59.000Z</time>
      </trkpt>
      <trkpt lat="48.79421" lon="2.3368">
        <ele>47</ele>
        <time>2015-11-30T20:31:04.000Z</time>
      </trkpt>
      <trkpt lat="48.79438" lon="2.33667">
        <ele>47</ele>
        <time>2015-11-30T20:31:09.000Z</time>
      </trkpt>
      <trkpt lat="48.79443" lon="2.33662">
        <ele>47</ele>
        <time>2015-11-30T20:31:11.000Z</time>
      </trkpt>
      <trkpt lat="48.79452" lon="2.33641">
        <ele>47.599998474121</ele>
        <time>2015-11-30T20:31:16.000Z</time>
      </trkpt>
      <trkpt lat="48.79463" lon="2.33613">
        <ele>48.200000762939</ele>
        <time>2015-11-30T20:31:22.000Z</time>
      </trkpt>
      <trkpt lat="48.7947" lon="2.33585">
        <ele>48.799999237061</ele>
        <time>2015-11-30T20:31:28.000Z</time>
      </trkpt>
      <trkpt lat="48.79472" lon="2.33576">
        <ele>49.200000762939</ele>
        <time>2015-11-30T20:31:30.000Z</time>
      </trkpt>
      <trkpt lat="48.79479" lon="2.33548">
        <ele>49.799999237061</ele>
        <time>2015-11-30T20:31:36.000Z</time>
      </trkpt>
      <trkpt lat="48.79481" lon="2.33529">
        <ele>49.799999237061</ele>
        <time>2015-11-30T20:31:42.000Z</time>
      </trkpt>
      <trkpt lat="48.7948" lon="2.33527">
        <ele>49.599998474121</ele>
        <time>2015-11-30T20:31:45.000Z</time>
      </trkpt>
      <trkpt lat="48.79492" lon="2.33529">
        <ele>49.200000762939</ele>
        <time>2015-11-30T20:32:17.000Z</time>
      </trkpt>
      <trkpt lat="48.7951" lon="2.33538">
        <ele>48.599998474121</ele>
        <time>2015-11-30T20:32:24.000Z</time>
      </trkpt>
      <trkpt lat="48.79529" lon="2.33546">
        <ele>48</ele>
        <time>2015-11-30T20:32:30.000Z</time>
      </trkpt>
      <trkpt lat="48.79549" lon="2.3355">
        <ele>48</ele>
        <time>2015-11-30T20:32:35.000Z</time>
      </trkpt>
      <trkpt lat="48.79568" lon="2.33542">
        <ele>47.599998474121</ele>
        <time>2015-11-30T20:32:40.000Z</time>
      </trkpt>
      <trkpt lat="48.79585" lon="2.33525">
        <ele>47</ele>
        <time>2015-11-30T20:32:44.000Z</time>
      </trkpt>
      <trkpt lat="48.79603" lon="2.33504">
        <ele>46.200000762939</ele>
        <time>2015-11-30T20:32:48.000Z</time>
      </trkpt>
      <trkpt lat="48.79623" lon="2.33485">
        <ele>45.599998474121</ele>
        <time>2015-11-30T20:32:52.000Z</time>
      </trkpt>
      <trkpt lat="48.7964" lon="2.33467">
        <ele>45.400001525879</ele>
        <time>2015-11-30T20:32:56.000Z</time>
      </trkpt>
      <trkpt lat="48.79656" lon="2.33452">
        <ele>45</ele>
        <time>2015-11-30T20:33:00.000Z</time>
      </trkpt>
      <trkpt lat="48.79671" lon="2.33437">
        <ele>44</ele>
        <time>2015-11-30T20:33:04.000Z</time>
      </trkpt>
      <trkpt lat="48.7969" lon="2.33418">
        <ele>43.200000762939</ele>
        <time>2015-11-30T20:33:08.000Z</time>
      </trkpt>
      <trkpt lat="48.79706" lon="2.33403">
        <ele>44.200000762939</ele>
        <time>2015-11-30T20:33:12.000Z</time>
      </trkpt>
      <trkpt lat="48.79721" lon="2.33387">
        <ele>45.400001525879</ele>
        <time>2015-11-30T20:33:16.000Z</time>
      </trkpt>
      <trkpt lat="48.79737" lon="2.33371">
        <ele>46.400001525879</ele>
        <time>2015-11-30T20:33:20.000Z</time>
      </trkpt>
      <trkpt lat="48.79754" lon="2.33355">
        <ele>45.799999237061</ele>
        <time>2015-11-30T20:33:24.000Z</time>
      </trkpt>
      <trkpt lat="48.79758" lon="2.33351">
        <ele>45.599998474121</ele>
        <time>2015-11-30T20:33:25.000Z</time>
      </trkpt>
      <trkpt lat="48.79772" lon="2.33334">
        <ele>45.200000762939</ele>
        <time>2015-11-30T20:33:29.000Z</time>
      </trkpt>
      <trkpt lat="48.79776" lon="2.33329">
        <ele>45</ele>
        <time>2015-11-30T20:33:30.000Z</time>
      </trkpt>
      <trkpt lat="48.7978" lon="2.33326">
        <ele>45</ele>
        <time>2015-11-30T20:33:31.000Z</time>
      </trkpt>
      <trkpt lat="48.79795" lon="2.33313">
        <ele>45.200000762939</ele>
        <time>2015-11-30T20:33:35.000Z</time>
      </trkpt>
      <trkpt lat="48.79814" lon="2.33294">
        <ele>45.400001525879</ele>
        <time>2015-11-30T20:33:40.000Z</time>
      </trkpt>
      <trkpt lat="48.79822" lon="2.33286">
        <ele>45.599998474121</ele>
        <time>2015-11-30T20:33:42.000Z</time>
      </trkpt>
      <trkpt lat="48.79842" lon="2.33276">
        <ele>45.599998474121</ele>
        <time>2015-11-30T20:33:47.000Z</time>
      </trkpt>
      <trkpt lat="48.79847" lon="2.33276">
        <ele>45.599998474121</ele>
        <time>2015-11-30T20:33:48.000Z</time>
      </trkpt>
      <trkpt lat="48.79867" lon="2.3328">
        <ele>46.599998474121</ele>
        <time>2015-11-30T20:33:54.000Z</time>
      </trkpt>
      <trkpt lat="48.79885" lon="2.33285">
        <ele>48</ele>
        <time>2015-11-30T20:33:59.000Z</time>
      </trkpt>
      <trkpt lat="48.79896" lon="2.3329">
        <ele>49</ele>
        <time>2015-11-30T20:34:02.000Z</time>
      </trkpt>
      <trkpt lat="48.79913" lon="2.33294">
        <ele>49.400001525879</ele>
        <time>2015-11-30T20:34:07.000Z</time>
      </trkpt>
      <trkpt lat="48.79933" lon="2.333">
        <ele>49.799999237061</ele>
        <time>2015-11-30T20:34:13.000Z</time>
      </trkpt>
      <trkpt lat="48.79948" lon="2.33303">
        <ele>49.200000762939</ele>
        <time>2015-11-30T20:34:17.000Z</time>
      </trkpt>
      <trkpt lat="48.79956" lon="2.33305">
        <ele>48.799999237061</ele>
        <time>2015-11-30T20:34:19.000Z</time>
      </trkpt>
      <trkpt lat="48.79978" lon="2.3331">
        <ele>47.599998474121</ele>
        <time>2015-11-30T20:34:24.000Z</time>
      </trkpt>
      <trkpt lat="48.79999" lon="2.33314">
        <ele>46.400001525879</ele>
        <time>2015-11-30T20:34:29.000Z</time>
      </trkpt>
      <trkpt lat="48.80019" lon="2.33319">
        <ele>46</ele>
        <time>2015-11-30T20:34:34.000Z</time>
      </trkpt>
      <trkpt lat="48.8004" lon="2.33323">
        <ele>46</ele>
        <time>2015-11-30T20:34:39.000Z</time>
      </trkpt>
      <trkpt lat="48.80058" lon="2.33325">
        <ele>46</ele>
        <time>2015-11-30T20:34:43.000Z</time>
      </trkpt>
      <trkpt lat="48.80079" lon="2.3333">
        <ele>46</ele>
        <time>2015-11-30T20:34:49.000Z</time>
      </trkpt>
      <trkpt lat="48.80083" lon="2.33332">
        <ele>46</ele>
        <time>2015-11-30T20:34:50.000Z</time>
      </trkpt>
      <trkpt lat="48.8009" lon="2.33336">
        <ele>46.200000762939</ele>
        <time>2015-11-30T20:34:52.000Z</time>
      </trkpt>
      <trkpt lat="48.80096" lon="2.33338">
        <ele>46.200000762939</ele>
        <time>2015-11-30T20:34:54.000Z</time>
      </trkpt>
      <trkpt lat="48.80116" lon="2.33342">
        <ele>45.799999237061</ele>
        <time>2015-11-30T20:34:59.000Z</time>
      </trkpt>
      <trkpt lat="48.80134" lon="2.33348">
        <ele>45.799999237061</ele>
        <time>2015-11-30T20:35:03.000Z</time>
      </trkpt>
      <trkpt lat="48.80152" lon="2.33355">
        <ele>45.799999237061</ele>
        <time>2015-11-30T20:35:07.000Z</time>
      </trkpt>
      <trkpt lat="48.80171" lon="2.33363">
        <ele>45.599998474121</ele>
        <time>2015-11-30T20:35:11.000Z</time>
      </trkpt>
      <trkpt lat="48.80193" lon="2.3337">
        <ele>45.400001525879</ele>
        <time>2015-11-30T20:35:16.000Z</time>
      </trkpt>
      <trkpt lat="48.80214" lon="2.33377">
        <ele>44.799999237061</ele>
        <time>2015-11-30T20:35:21.000Z</time>
      </trkpt>
      <trkpt lat="48.80233" lon="2.33382">
        <ele>44.200000762939</ele>
        <time>2015-11-30T20:35:25.000Z</time>
      </trkpt>
      <trkpt lat="48.80237" lon="2.33384">
        <ele>44.200000762939</ele>
        <time>2015-11-30T20:35:26.000Z</time>
      </trkpt>
      <trkpt lat="48.80252" lon="2.334">
        <ele>43.599998474121</ele>
        <time>2015-11-30T20:35:30.000Z</time>
      </trkpt>
      <trkpt lat="48.80269" lon="2.33418">
        <ele>43.200000762939</ele>
        <time>2015-11-30T20:35:34.000Z</time>
      </trkpt>
      <trkpt lat="48.80282" lon="2.33429">
        <ele>43.200000762939</ele>
        <time>2015-11-30T20:35:37.000Z</time>
      </trkpt>
      <trkpt lat="48.80297" lon="2.33445">
        <ele>43.400001525879</ele>
        <time>2015-11-30T20:35:41.000Z</time>
      </trkpt>
      <trkpt lat="48.80315" lon="2.33465">
        <ele>43.799999237061</ele>
        <time>2015-11-30T20:35:46.000Z</time>
      </trkpt>
      <trkpt lat="48.80329" lon="2.33482">
        <ele>44</ele>
        <time>2015-11-30T20:35:50.000Z</time>
      </trkpt>
      <trkpt lat="48.80333" lon="2.33485">
        <ele>44</ele>
        <time>2015-11-30T20:35:51.000Z</time>
      </trkpt>
      <trkpt lat="48.80347" lon="2.33501">
        <ele>44</ele>
        <time>2015-11-30T20:35:55.000Z</time>
      </trkpt>
      <trkpt lat="48.80361" lon="2.33518">
        <ele>44</ele>
        <time>2015-11-30T20:35:59.000Z</time>
      </trkpt>
      <trkpt lat="48.80376" lon="2.33536">
        <ele>44.200000762939</ele>
        <time>2015-11-30T20:36:03.000Z</time>
      </trkpt>
      <trkpt lat="48.80379" lon="2.3354">
        <ele>44.200000762939</ele>
        <time>2015-11-30T20:36:04.000Z</time>
      </trkpt>
      <trkpt lat="48.80393" lon="2.33558">
        <ele>44.400001525879</ele>
        <time>2015-11-30T20:36:08.000Z</time>
      </trkpt>
      <trkpt lat="48.80409" lon="2.33576">
        <ele>44.599998474121</ele>
        <time>2015-11-30T20:36:12.000Z</time>
      </trkpt>
      <trkpt lat="48.80423" lon="2.33595">
        <ele>44.599998474121</ele>
        <time>2015-11-30T20:36:16.000Z</time>
      </trkpt>
      <trkpt lat="48.80436" lon="2.33613">
        <ele>44.599998474121</ele>
        <time>2015-11-30T20:36:20.000Z</time>
      </trkpt>
      <trkpt lat="48.80447" lon="2.33626">
        <ele>44.200000762939</ele>
        <time>2015-11-30T20:36:23.000Z</time>
      </trkpt>
      <trkpt lat="48.80462" lon="2.33643">
        <ele>43.599998474121</ele>
        <time>2015-11-30T20:36:27.000Z</time>
      </trkpt>
      <trkpt lat="48.80478" lon="2.33659">
        <ele>43.200000762939</ele>
        <time>2015-11-30T20:36:31.000Z</time>
      </trkpt>
      <trkpt lat="48.80493" lon="2.33676">
        <ele>42.799999237061</ele>
        <time>2015-11-30T20:36:35.000Z</time>
      </trkpt>
      <trkpt lat="48.80506" lon="2.33696">
        <ele>42.799999237061</ele>
        <time>2015-11-30T20:36:39.000Z</time>
      </trkpt>
      <trkpt lat="48.80522" lon="2.33715">
        <ele>42.599998474121</ele>
        <time>2015-11-30T20:36:43.000Z</time>
      </trkpt>
      <trkpt lat="48.80525" lon="2.3372">
        <ele>42.799999237061</ele>
        <time>2015-11-30T20:36:44.000Z</time>
      </trkpt>
      <trkpt lat="48.80539" lon="2.33743">
        <ele>43.400001525879</ele>
        <time>2015-11-30T20:36:48.000Z</time>
      </trkpt>
      <trkpt lat="48.80549" lon="2.33762">
        <ele>43</ele>
        <time>2015-11-30T20:36:51.000Z</time>
      </trkpt>
      <trkpt lat="48.80557" lon="2.3379">
        <ele>42.200000762939</ele>
        <time>2015-11-30T20:36:55.000Z</time>
      </trkpt>
      <trkpt lat="48.80559" lon="2.33796">
        <ele>42.200000762939</ele>
        <time>2015-11-30T20:36:56.000Z</time>
      </trkpt>
      <trkpt lat="48.80568" lon="2.33822">
        <ele>42.200000762939</ele>
        <time>2015-11-30T20:37:00.000Z</time>
      </trkpt>
      <trkpt lat="48.80572" lon="2.33837">
        <ele>42.200000762939</ele>
        <time>2015-11-30T20:37:02.000Z</time>
      </trkpt>
      <trkpt lat="48.80578" lon="2.33864">
        <ele>42</ele>
        <time>2015-11-30T20:37:06.000Z</time>
      </trkpt>
      <trkpt lat="48.80583" lon="2.33876">
        <ele>41.799999237061</ele>
        <time>2015-11-30T20:37:08.000Z</time>
      </trkpt>
      <trkpt lat="48.80593" lon="2.33906">
        <ele>41.400001525879</ele>
        <time>2015-11-30T20:37:13.000Z</time>
      </trkpt>
      <trkpt lat="48.80597" lon="2.33918">
        <ele>41.400001525879</ele>
        <time>2015-11-30T20:37:15.000Z</time>
      </trkpt>
      <trkpt lat="48.80606" lon="2.33946">
        <ele>41.400001525879</ele>
        <time>2015-11-30T20:37:20.000Z</time>
      </trkpt>
      <trkpt lat="48.80615" lon="2.33976">
        <ele>41.799999237061</ele>
        <time>2015-11-30T20:37:25.000Z</time>
      </trkpt>
      <trkpt lat="48.80622" lon="2.34002">
        <ele>42.200000762939</ele>
        <time>2015-11-30T20:37:31.000Z</time>
      </trkpt>
      <trkpt lat="48.80626" lon="2.34011">
        <ele>42.200000762939</ele>
        <time>2015-11-30T20:37:35.000Z</time>
      </trkpt>
      <trkpt lat="48.80628" lon="2.34015">
        <ele>42.200000762939</ele>
        <time>2015-11-30T20:37:37.000Z</time>
      </trkpt>
      <trkpt lat="48.80629" lon="2.34017">
        <ele>42.200000762939</ele>
        <time>2015-11-30T20:37:39.000Z</time>
      </trkpt>
      <trkpt lat="48.80633" lon="2.34019">
        <ele>42.400001525879</ele>
        <time>2015-11-30T20:39:12.000Z</time>
      </trkpt>
      <trkpt lat="48.8065" lon="2.34036">
        <ele>42.599998474121</ele>
        <time>2015-11-30T20:39:19.000Z</time>
      </trkpt>
      <trkpt lat="48.80667" lon="2.34054">
        <ele>42.799999237061</ele>
        <time>2015-11-30T20:39:25.000Z</time>
      </trkpt>
      <trkpt lat="48.80684" lon="2.3407">
        <ele>43</ele>
        <time>2015-11-30T20:39:30.000Z</time>
      </trkpt>
      <trkpt lat="48.80702" lon="2.34088">
        <ele>43.400001525879</ele>
        <time>2015-11-30T20:39:35.000Z</time>
      </trkpt>
      <trkpt lat="48.80719" lon="2.34102">
        <ele>43.599998474121</ele>
        <time>2015-11-30T20:39:40.000Z</time>
      </trkpt>
      <trkpt lat="48.80734" lon="2.34118">
        <ele>43.799999237061</ele>
        <time>2015-11-30T20:39:45.000Z</time>
      </trkpt>
      <trkpt lat="48.80752" lon="2.34135">
        <ele>44</ele>
        <time>2015-11-30T20:39:50.000Z</time>
      </trkpt>
      <trkpt lat="48.80771" lon="2.34153">
        <ele>44.200000762939</ele>
        <time>2015-11-30T20:39:55.000Z</time>
      </trkpt>
      <trkpt lat="48.80786" lon="2.34168">
        <ele>44.200000762939</ele>
        <time>2015-11-30T20:39:59.000Z</time>
      </trkpt>
      <trkpt lat="48.80805" lon="2.34185">
        <ele>44</ele>
        <time>2015-11-30T20:40:04.000Z</time>
      </trkpt>
      <trkpt lat="48.80823" lon="2.342">
        <ele>44</ele>
        <time>2015-11-30T20:40:09.000Z</time>
      </trkpt>
      <trkpt lat="48.80834" lon="2.34208">
        <ele>44</ele>
        <time>2015-11-30T20:40:12.000Z</time>
      </trkpt>
      <trkpt lat="48.80853" lon="2.34222">
        <ele>43.799999237061</ele>
        <time>2015-11-30T20:40:17.000Z</time>
      </trkpt>
      <trkpt lat="48.80869" lon="2.34235">
        <ele>43.400001525879</ele>
        <time>2015-11-30T20:40:21.000Z</time>
      </trkpt>
      <trkpt lat="48.80882" lon="2.34244">
        <ele>43.200000762939</ele>
        <time>2015-11-30T20:40:24.000Z</time>
      </trkpt>
      <trkpt lat="48.80899" lon="2.34259">
        <ele>42.799999237061</ele>
        <time>2015-11-30T20:40:28.000Z</time>
      </trkpt>
      <trkpt lat="48.80917" lon="2.34271">
        <ele>42.799999237061</ele>
        <time>2015-11-30T20:40:32.000Z</time>
      </trkpt>
      <trkpt lat="48.80937" lon="2.34287">
        <ele>42.599998474121</ele>
        <time>2015-11-30T20:40:37.000Z</time>
      </trkpt>
      <trkpt lat="48.80953" lon="2.34301">
        <ele>42.799999237061</ele>
        <time>2015-11-30T20:40:41.000Z</time>
      </trkpt>
      <trkpt lat="48.8096" lon="2.34308">
        <ele>42.799999237061</ele>
        <time>2015-11-30T20:40:43.000Z</time>
      </trkpt>
      <trkpt lat="48.80975" lon="2.34324">
        <ele>43</ele>
        <time>2015-11-30T20:40:47.000Z</time>
      </trkpt>
      <trkpt lat="48.80986" lon="2.34342">
        <ele>43.200000762939</ele>
        <time>2015-11-30T20:40:51.000Z</time>
      </trkpt>
      <trkpt lat="48.8099" lon="2.34348">
        <ele>43.200000762939</ele>
        <time>2015-11-30T20:40:52.000Z</time>
      </trkpt>
      <trkpt lat="48.81007" lon="2.3437">
        <ele>43.599998474121</ele>
        <time>2015-11-30T20:40:57.000Z</time>
      </trkpt>
      <trkpt lat="48.8101" lon="2.34374">
        <ele>43.799999237061</ele>
        <time>2015-11-30T20:40:58.000Z</time>
      </trkpt>
      <trkpt lat="48.81013" lon="2.34378">
        <ele>43.799999237061</ele>
        <time>2015-11-30T20:40:59.000Z</time>
      </trkpt>
      <trkpt lat="48.81029" lon="2.34402">
        <ele>43.799999237061</ele>
        <time>2015-11-30T20:41:04.000Z</time>
      </trkpt>
      <trkpt lat="48.81037" lon="2.34411">
        <ele>43.599998474121</ele>
        <time>2015-11-30T20:41:06.000Z</time>
      </trkpt>
      <trkpt lat="48.81053" lon="2.34433">
        <ele>43.400001525879</ele>
        <time>2015-11-30T20:41:10.000Z</time>
      </trkpt>
      <trkpt lat="48.8106" lon="2.34443">
        <ele>43.400001525879</ele>
        <time>2015-11-30T20:41:12.000Z</time>
      </trkpt>
      <trkpt lat="48.8107" lon="2.34468">
        <ele>43.599998474121</ele>
        <time>2015-11-30T20:41:16.000Z</time>
      </trkpt>
      <trkpt lat="48.81076" lon="2.34492">
        <ele>44</ele>
        <time>2015-11-30T20:41:24.000Z</time>
      </trkpt>
      <trkpt lat="48.8109" lon="2.34509">
        <ele>43.599998474121</ele>
        <time>2015-11-30T20:41:34.000Z</time>
      </trkpt>
      <trkpt lat="48.81105" lon="2.34529">
        <ele>43.400001525879</ele>
        <time>2015-11-30T20:41:39.000Z</time>
      </trkpt>
      <trkpt lat="48.81119" lon="2.34549">
        <ele>43.200000762939</ele>
        <time>2015-11-30T20:41:44.000Z</time>
      </trkpt>
      <trkpt lat="48.81133" lon="2.34567">
        <ele>42.799999237061</ele>
        <time>2015-11-30T20:41:49.000Z</time>
      </trkpt>
      <trkpt lat="48.81152" lon="2.34584">
        <ele>42.200000762939</ele>
        <time>2015-11-30T20:41:55.000Z</time>
      </trkpt>
      <trkpt lat="48.81173" lon="2.34597">
        <ele>41.599998474121</ele>
        <time>2015-11-30T20:42:00.000Z</time>
      </trkpt>
      <trkpt lat="48.8119" lon="2.34609">
        <ele>41</ele>
        <time>2015-11-30T20:42:04.000Z</time>
      </trkpt>
      <trkpt lat="48.81209" lon="2.34626">
        <ele>41.799999237061</ele>
        <time>2015-11-30T20:42:09.000Z</time>
      </trkpt>
      <trkpt lat="48.81227" lon="2.34643">
        <ele>42.400001525879</ele>
        <time>2015-11-30T20:42:14.000Z</time>
      </trkpt>
      <trkpt lat="48.81242" lon="2.34655">
        <ele>43</ele>
        <time>2015-11-30T20:42:18.000Z</time>
      </trkpt>
      <trkpt lat="48.8126" lon="2.3467">
        <ele>43.599998474121</ele>
        <time>2015-11-30T20:42:23.000Z</time>
      </trkpt>
      <trkpt lat="48.81267" lon="2.34676">
        <ele>43.599998474121</ele>
        <time>2015-11-30T20:42:25.000Z</time>
      </trkpt>
      <trkpt lat="48.81284" lon="2.34684">
        <ele>43.400001525879</ele>
        <time>2015-11-30T20:42:30.000Z</time>
      </trkpt>
      <trkpt lat="48.81287" lon="2.34686">
        <ele>43.200000762939</ele>
        <time>2015-11-30T20:42:31.000Z</time>
      </trkpt>
      <trkpt lat="48.81295" lon="2.34695">
        <ele>42.799999237061</ele>
        <time>2015-11-30T20:42:34.000Z</time>
      </trkpt>
      <trkpt lat="48.81314" lon="2.34712">
        <ele>42</ele>
        <time>2015-11-30T20:42:39.000Z</time>
      </trkpt>
      <trkpt lat="48.81331" lon="2.34724">
        <ele>41.200000762939</ele>
        <time>2015-11-30T20:42:43.000Z</time>
      </trkpt>
      <trkpt lat="48.81342" lon="2.34734">
        <ele>40.599998474121</ele>
        <time>2015-11-30T20:42:46.000Z</time>
      </trkpt>
      <trkpt lat="48.81355" lon="2.34752">
        <ele>40.200000762939</ele>
        <time>2015-11-30T20:42:50.000Z</time>
      </trkpt>
      <trkpt lat="48.81368" lon="2.34773">
        <ele>41</ele>
        <time>2015-11-30T20:42:55.000Z</time>
      </trkpt>
      <trkpt lat="48.81371" lon="2.34778">
        <ele>41.200000762939</ele>
        <time>2015-11-30T20:42:56.000Z</time>
      </trkpt>
      <trkpt lat="48.81372" lon="2.34783">
        <ele>41.400001525879</ele>
        <time>2015-11-30T20:42:57.000Z</time>
      </trkpt>
      <trkpt lat="48.81378" lon="2.34804">
        <ele>42.400001525879</ele>
        <time>2015-11-30T20:43:01.000Z</time>
      </trkpt>
      <trkpt lat="48.81384" lon="2.34828">
        <ele>43.200000762939</ele>
        <time>2015-11-30T20:43:05.000Z</time>
      </trkpt>
      <trkpt lat="48.81392" lon="2.34853">
        <ele>43.200000762939</ele>
        <time>2015-11-30T20:43:09.000Z</time>
      </trkpt>
      <trkpt lat="48.814" lon="2.34878">
        <ele>43</ele>
        <time>2015-11-30T20:43:13.000Z</time>
      </trkpt>
      <trkpt lat="48.81406" lon="2.34903">
        <ele>43</ele>
        <time>2015-11-30T20:43:17.000Z</time>
      </trkpt>
      <trkpt lat="48.81409" lon="2.34916">
        <ele>43</ele>
        <time>2015-11-30T20:43:19.000Z</time>
      </trkpt>
      <trkpt lat="48.81417" lon="2.34946">
        <ele>42.599998474121</ele>
        <time>2015-11-30T20:43:24.000Z</time>
      </trkpt>
      <trkpt lat="48.81422" lon="2.34964">
        <ele>42.400001525879</ele>
        <time>2015-11-30T20:43:28.000Z</time>
      </trkpt>
      <trkpt lat="48.81423" lon="2.3497">
        <ele>42.400001525879</ele>
        <time>2015-11-30T20:43:30.000Z</time>
      </trkpt>
      <trkpt lat="48.81429" lon="2.34997">
        <ele>42.400001525879</ele>
        <time>2015-11-30T20:43:52.000Z</time>
      </trkpt>
      <trkpt lat="48.81435" lon="2.35022">
        <ele>43</ele>
        <time>2015-11-30T20:43:57.000Z</time>
      </trkpt>
      <trkpt lat="48.81443" lon="2.35049">
        <ele>43.799999237061</ele>
        <time>2015-11-30T20:44:02.000Z</time>
      </trkpt>
      <trkpt lat="48.81452" lon="2.35073">
        <ele>44.799999237061</ele>
        <time>2015-11-30T20:44:06.000Z</time>
      </trkpt>
      <trkpt lat="48.81458" lon="2.351">
        <ele>44.400001525879</ele>
        <time>2015-11-30T20:44:10.000Z</time>
      </trkpt>
      <trkpt lat="48.81465" lon="2.35126">
        <ele>44</ele>
        <time>2015-11-30T20:44:14.000Z</time>
      </trkpt>
      <trkpt lat="48.81472" lon="2.35151">
        <ele>43.799999237061</ele>
        <time>2015-11-30T20:44:18.000Z</time>
      </trkpt>
      <trkpt lat="48.8148" lon="2.35179">
        <ele>43.599998474121</ele>
        <time>2015-11-30T20:44:23.000Z</time>
      </trkpt>
      <trkpt lat="48.81494" lon="2.35201">
        <ele>43</ele>
        <time>2015-11-30T20:44:28.000Z</time>
      </trkpt>
      <trkpt lat="48.81497" lon="2.35206">
        <ele>42.799999237061</ele>
        <time>2015-11-30T20:44:29.000Z</time>
      </trkpt>
      <trkpt lat="48.81503" lon="2.35215">
        <ele>42.599998474121</ele>
        <time>2015-11-30T20:44:31.000Z</time>
      </trkpt>
      <trkpt lat="48.81516" lon="2.35238">
        <ele>42.200000762939</ele>
        <time>2015-11-30T20:44:36.000Z</time>
      </trkpt>
      <trkpt lat="48.81531" lon="2.35261">
        <ele>42</ele>
        <time>2015-11-30T20:44:41.000Z</time>
      </trkpt>
      <trkpt lat="48.81537" lon="2.35271">
        <ele>42.200000762939</ele>
        <time>2015-11-30T20:44:43.000Z</time>
      </trkpt>
      <trkpt lat="48.81546" lon="2.35283">
        <ele>42.200000762939</ele>
        <time>2015-11-30T20:44:46.000Z</time>
      </trkpt>
      <trkpt lat="48.81562" lon="2.35303">
        <ele>42</ele>
        <time>2015-11-30T20:44:51.000Z</time>
      </trkpt>
      <trkpt lat="48.81564" lon="2.35306">
        <ele>42.200000762939</ele>
        <time>2015-11-30T20:44:52.000Z</time>
      </trkpt>
      <trkpt lat="48.81577" lon="2.35322">
        <ele>42</ele>
        <time>2015-11-30T20:44:57.000Z</time>
      </trkpt>
      <trkpt lat="48.81586" lon="2.35325">
        <ele>41.799999237061</ele>
        <time>2015-11-30T20:45:00.000Z</time>
      </trkpt>
      <trkpt lat="48.81608" lon="2.35327">
        <ele>41</ele>
        <time>2015-11-30T20:45:06.000Z</time>
      </trkpt>
      <trkpt lat="48.81626" lon="2.3533">
        <ele>41.200000762939</ele>
        <time>2015-11-30T20:45:12.000Z</time>
      </trkpt>
      <trkpt lat="48.81645" lon="2.35331">
        <ele>41.400001525879</ele>
        <time>2015-11-30T20:45:17.000Z</time>
      </trkpt>
      <trkpt lat="48.81665" lon="2.35331">
        <ele>41.799999237061</ele>
        <time>2015-11-30T20:45:22.000Z</time>
      </trkpt>
      <trkpt lat="48.81686" lon="2.35333">
        <ele>42</ele>
        <time>2015-11-30T20:45:27.000Z</time>
      </trkpt>
      <trkpt lat="48.81705" lon="2.35337">
        <ele>42.200000762939</ele>
        <time>2015-11-30T20:45:32.000Z</time>
      </trkpt>
      <trkpt lat="48.81723" lon="2.3534">
        <ele>42.200000762939</ele>
        <time>2015-11-30T20:45:37.000Z</time>
      </trkpt>
      <trkpt lat="48.81739" lon="2.35343">
        <ele>42.400001525879</ele>
        <time>2015-11-30T20:45:43.000Z</time>
      </trkpt>
      <trkpt lat="48.81757" lon="2.35345">
        <ele>42.599998474121</ele>
        <time>2015-11-30T20:46:01.000Z</time>
      </trkpt>
      <trkpt lat="48.81777" lon="2.35346">
        <ele>42.799999237061</ele>
        <time>2015-11-30T20:46:09.000Z</time>
      </trkpt>
      <trkpt lat="48.81797" lon="2.3534">
        <ele>43.200000762939</ele>
        <time>2015-11-30T20:46:15.000Z</time>
      </trkpt>
      <trkpt lat="48.81816" lon="2.3534">
        <ele>43.799999237061</ele>
        <time>2015-11-30T20:46:20.000Z</time>
      </trkpt>
      <trkpt lat="48.81837" lon="2.35341">
        <ele>44.200000762939</ele>
        <time>2015-11-30T20:46:25.000Z</time>
      </trkpt>
      <trkpt lat="48.81856" lon="2.35341">
        <ele>44.599998474121</ele>
        <time>2015-11-30T20:46:29.000Z</time>
      </trkpt>
      <trkpt lat="48.81875" lon="2.35341">
        <ele>43.599998474121</ele>
        <time>2015-11-30T20:46:33.000Z</time>
      </trkpt>
      <trkpt lat="48.81894" lon="2.35343">
        <ele>42.200000762939</ele>
        <time>2015-11-30T20:46:37.000Z</time>
      </trkpt>
      <trkpt lat="48.81914" lon="2.35342">
        <ele>40.799999237061</ele>
        <time>2015-11-30T20:46:41.000Z</time>
      </trkpt>
      <trkpt lat="48.81933" lon="2.35338">
        <ele>39.400001525879</ele>
        <time>2015-11-30T20:46:45.000Z</time>
      </trkpt>
      <trkpt lat="48.8195" lon="2.35331">
        <ele>39.200000762939</ele>
        <time>2015-11-30T20:46:49.000Z</time>
      </trkpt>
      <trkpt lat="48.81971" lon="2.35321">
        <ele>39.400001525879</ele>
        <time>2015-11-30T20:46:54.000Z</time>
      </trkpt>
      <trkpt lat="48.81992" lon="2.35311">
        <ele>39.599998474121</ele>
        <time>2015-11-30T20:46:59.000Z</time>
      </trkpt>
      <trkpt lat="48.81996" lon="2.35309">
        <ele>39.599998474121</ele>
        <time>2015-11-30T20:47:00.000Z</time>
      </trkpt>
      <trkpt lat="48.82016" lon="2.35297">
        <ele>40.200000762939</ele>
        <time>2015-11-30T20:47:05.000Z</time>
      </trkpt>
      <trkpt lat="48.82038" lon="2.35287">
        <ele>40.799999237061</ele>
        <time>2015-11-30T20:47:10.000Z</time>
      </trkpt>
      <trkpt lat="48.82056" lon="2.35278">
        <ele>41.400001525879</ele>
        <time>2015-11-30T20:47:14.000Z</time>
      </trkpt>
      <trkpt lat="48.82075" lon="2.35268">
        <ele>41.200000762939</ele>
        <time>2015-11-30T20:47:19.000Z</time>
      </trkpt>
      <trkpt lat="48.82093" lon="2.35261">
        <ele>41.200000762939</ele>
        <time>2015-11-30T20:47:25.000Z</time>
      </trkpt>
      <trkpt lat="48.82136" lon="2.35257">
        <ele>41.200000762939</ele>
        <time>2015-11-30T20:47:33.000Z</time>
      </trkpt>
      <trkpt lat="48.82155" lon="2.35258">
        <ele>41.200000762939</ele>
        <time>2015-11-30T20:47:38.000Z</time>
      </trkpt>
      <trkpt lat="48.82159" lon="2.35256">
        <ele>41.200000762939</ele>
        <time>2015-11-30T20:47:39.000Z</time>
      </trkpt>
      <trkpt lat="48.82177" lon="2.35253">
        <ele>41.200000762939</ele>
        <time>2015-11-30T20:47:44.000Z</time>
      </trkpt>
      <trkpt lat="48.82183" lon="2.35254">
        <ele>41.200000762939</ele>
        <time>2015-11-30T20:47:46.000Z</time>
      </trkpt>
      <trkpt lat="48.82199" lon="2.35259">
        <ele>41.200000762939</ele>
        <time>2015-11-30T20:47:50.000Z</time>
      </trkpt>
      <trkpt lat="48.82215" lon="2.35269">
        <ele>41.599998474121</ele>
        <time>2015-11-30T20:47:56.000Z</time>
      </trkpt>
      <trkpt lat="48.82233" lon="2.35279">
        <ele>42</ele>
        <time>2015-11-30T20:48:05.000Z</time>
      </trkpt>
      <trkpt lat="48.8225" lon="2.35283">
        <ele>42.200000762939</ele>
        <time>2015-11-30T20:48:09.000Z</time>
      </trkpt>
      <trkpt lat="48.82258" lon="2.35283">
        <ele>42.200000762939</ele>
        <time>2015-11-30T20:48:11.000Z</time>
      </trkpt>
      <trkpt lat="48.82278" lon="2.35289">
        <ele>43</ele>
        <time>2015-11-30T20:48:15.000Z</time>
      </trkpt>
      <trkpt lat="48.82294" lon="2.3529">
        <ele>44.599998474121</ele>
        <time>2015-11-30T20:48:21.000Z</time>
      </trkpt>
      <trkpt lat="48.82299" lon="2.35292">
        <ele>45.200000762939</ele>
        <time>2015-11-30T20:48:24.000Z</time>
      </trkpt>
      <trkpt lat="48.82309" lon="2.35279">
        <ele>45.799999237061</ele>
        <time>2015-11-30T20:48:29.000Z</time>
      </trkpt>
      <trkpt lat="48.82327" lon="2.35292">
        <ele>47.599998474121</ele>
        <time>2015-11-30T20:48:33.000Z</time>
      </trkpt>
      <trkpt lat="48.82344" lon="2.35309">
        <ele>49.400001525879</ele>
        <time>2015-11-30T20:48:39.000Z</time>
      </trkpt>
      <trkpt lat="48.82348" lon="2.35313">
        <ele>49.799999237061</ele>
        <time>2015-11-30T20:48:42.000Z</time>
      </trkpt>
      <trkpt lat="48.82351" lon="2.35316">
        <ele>50.200000762939</ele>
        <time>2015-11-30T20:48:44.000Z</time>
      </trkpt>
      <trkpt lat="48.82358" lon="2.35324">
        <ele>50.799999237061</ele>
        <time>2015-11-30T20:48:54.000Z</time>
      </trkpt>
      <trkpt lat="48.82368" lon="2.35348">
        <ele>51.200000762939</ele>
        <time>2015-11-30T20:49:08.000Z</time>
      </trkpt>
      <trkpt lat="48.82373" lon="2.35353">
        <ele>51.400001525879</ele>
        <time>2015-11-30T20:49:11.000Z</time>
      </trkpt>
      <trkpt lat="48.82383" lon="2.35357">
        <ele>51.599998474121</ele>
        <time>2015-11-30T20:49:15.000Z</time>
      </trkpt>
      <trkpt lat="48.82398" lon="2.35373">
        <ele>52</ele>
        <time>2015-11-30T20:49:22.000Z</time>
      </trkpt>
      <trkpt lat="48.82408" lon="2.35388">
        <ele>52.200000762939</ele>
        <time>2015-11-30T20:49:31.000Z</time>
      </trkpt>
      <trkpt lat="48.82401" lon="2.35412">
        <ele>51.599998474121</ele>
        <time>2015-11-30T20:49:48.000Z</time>
      </trkpt>
      <trkpt lat="48.82387" lon="2.35433">
        <ele>52</ele>
        <time>2015-11-30T20:49:57.000Z</time>
      </trkpt>
      <trkpt lat="48.82374" lon="2.35452">
        <ele>52.400001525879</ele>
        <time>2015-11-30T20:50:06.000Z</time>
      </trkpt>
      <trkpt lat="48.8236" lon="2.35471">
        <ele>52.799999237061</ele>
        <time>2015-11-30T20:50:15.000Z</time>
      </trkpt>
      <trkpt lat="48.82345" lon="2.35488">
        <ele>53.200000762939</ele>
        <time>2015-11-30T20:50:22.000Z</time>
      </trkpt>
      <trkpt lat="48.82328" lon="2.35505">
        <ele>54.599998474121</ele>
        <time>2015-11-30T20:50:29.000Z</time>
      </trkpt>
      <trkpt lat="48.82315" lon="2.35526">
        <ele>55.799999237061</ele>
        <time>2015-11-30T20:50:40.000Z</time>
      </trkpt>
      <trkpt lat="48.82315" lon="2.35527">
        <ele>56</ele>
        <time>2015-11-30T20:50:41.000Z</time>
      </trkpt>
      <trkpt lat="48.82305" lon="2.35531">
        <ele>56.200000762939</ele>
        <time>2015-11-30T20:51:44.000Z</time>
      </trkpt>
      <trkpt lat="48.82327" lon="2.35528">
        <ele>55.799999237061</ele>
        <time>2015-11-30T20:52:00.000Z</time>
      </trkpt>
      <trkpt lat="48.82336" lon="2.35529">
        <ele>55.799999237061</ele>
        <time>2015-11-30T20:52:03.000Z</time>
      </trkpt>
      <trkpt lat="48.82343" lon="2.35533">
        <ele>55.799999237061</ele>
        <time>2015-11-30T20:52:12.000Z</time>
      </trkpt>
      <trkpt lat="48.82345" lon="2.35534">
        <ele>55.799999237061</ele>
        <time>2015-11-30T20:52:14.000Z</time>
      </trkpt>
      <trkpt lat="48.82347" lon="2.35536">
        <ele>56</ele>
        <time>2015-11-30T20:52:16.000Z</time>
      </trkpt>
      <trkpt lat="48.82352" lon="2.35541">
        <ele>56.200000762939</ele>
        <time>2015-11-30T20:52:23.000Z</time>
      </trkpt>
      <trkpt lat="48.82353" lon="2.35542">
        <ele>56.200000762939</ele>
        <time>2015-11-30T20:52:25.000Z</time>
      </trkpt>
      <trkpt lat="48.82355" lon="2.35544">
        <ele>56.200000762939</ele>
        <time>2015-11-30T20:52:35.000Z</time>
      </trkpt>
      <trkpt lat="48.82359" lon="2.35532">
        <ele>55.799999237061</ele>
        <time>2015-11-30T20:52:51.000Z</time>
      </trkpt>
      <trkpt lat="48.82378" lon="2.35531">
        <ele>56.200000762939</ele>
        <time>2015-11-30T20:53:14.000Z</time>
      </trkpt>
      <trkpt lat="48.82398" lon="2.35535">
        <ele>56.799999237061</ele>
        <time>2015-11-30T20:53:21.000Z</time>
      </trkpt>
      <trkpt lat="48.82407" lon="2.35534">
        <ele>57.200000762939</ele>
        <time>2015-11-30T20:53:26.000Z</time>
      </trkpt>
      <trkpt lat="48.82411" lon="2.35535">
        <ele>57.400001525879</ele>
        <time>2015-11-30T20:53:28.000Z</time>
      </trkpt>
      <trkpt lat="48.82432" lon="2.35537">
        <ele>58.200000762939</ele>
        <time>2015-11-30T20:53:36.000Z</time>
      </trkpt>
      <trkpt lat="48.82451" lon="2.35538">
        <ele>58.400001525879</ele>
        <time>2015-11-30T20:53:43.000Z</time>
      </trkpt>
      <trkpt lat="48.82471" lon="2.35533">
        <ele>57.799999237061</ele>
        <time>2015-11-30T20:53:49.000Z</time>
      </trkpt>
      <trkpt lat="48.82482" lon="2.35528">
        <ele>57.599998474121</ele>
        <time>2015-11-30T20:53:53.000Z</time>
      </trkpt>
      <trkpt lat="48.82492" lon="2.35532">
        <ele>57.599998474121</ele>
        <time>2015-11-30T20:53:57.000Z</time>
      </trkpt>
      <trkpt lat="48.8251" lon="2.35526">
        <ele>57.200000762939</ele>
        <time>2015-11-30T20:54:07.000Z</time>
      </trkpt>
      <trkpt lat="48.82529" lon="2.3552">
        <ele>57</ele>
        <time>2015-11-30T20:54:15.000Z</time>
      </trkpt>
      <trkpt lat="48.82548" lon="2.35518">
        <ele>57.799999237061</ele>
        <time>2015-11-30T20:54:21.000Z</time>
      </trkpt>
      <trkpt lat="48.82568" lon="2.35519">
        <ele>58.799999237061</ele>
        <time>2015-11-30T20:54:25.000Z</time>
      </trkpt>
      <trkpt lat="48.82576" lon="2.35522">
        <ele>59.200000762939</ele>
        <time>2015-11-30T20:54:27.000Z</time>
      </trkpt>
      <trkpt lat="48.8259" lon="2.35544">
        <ele>60.400001525879</ele>
        <time>2015-11-30T20:54:34.000Z</time>
      </trkpt>
      <trkpt lat="48.82596" lon="2.35567">
        <ele>61.200000762939</ele>
        <time>2015-11-30T20:54:39.000Z</time>
      </trkpt>
      <trkpt lat="48.82598" lon="2.35598">
        <ele>62.400001525879</ele>
        <time>2015-11-30T20:54:45.000Z</time>
      </trkpt>
      <trkpt lat="48.82605" lon="2.3563">
        <ele>63.799999237061</ele>
        <time>2015-11-30T20:54:51.000Z</time>
      </trkpt>
      <trkpt lat="48.82606" lon="2.35662">
        <ele>65</ele>
        <time>2015-11-30T20:54:57.000Z</time>
      </trkpt>
      <trkpt lat="48.8261" lon="2.35691">
        <ele>66</ele>
        <time>2015-11-30T20:55:04.000Z</time>
      </trkpt>
      <trkpt lat="48.82612" lon="2.35714">
        <ele>66.800003051758</ele>
        <time>2015-11-30T20:55:38.000Z</time>
      </trkpt>
      <trkpt lat="48.82611" lon="2.35743">
        <ele>67.800003051758</ele>
        <time>2015-11-30T20:55:51.000Z</time>
      </trkpt>
      <trkpt lat="48.82614" lon="2.3577">
        <ele>67.599998474121</ele>
        <time>2015-11-30T20:55:59.000Z</time>
      </trkpt>
      <trkpt lat="48.82614" lon="2.35798">
        <ele>67.800003051758</ele>
        <time>2015-11-30T20:56:06.000Z</time>
      </trkpt>
      <trkpt lat="48.82615" lon="2.35825">
        <ele>68.199996948242</ele>
        <time>2015-11-30T20:56:11.000Z</time>
      </trkpt>
      <trkpt lat="48.82615" lon="2.35853">
        <ele>67.800003051758</ele>
        <time>2015-11-30T20:56:15.000Z</time>
      </trkpt>
      <trkpt lat="48.82612" lon="2.35885">
        <ele>66.400001525879</ele>
        <time>2015-11-30T20:56:20.000Z</time>
      </trkpt>
      <trkpt lat="48.82611" lon="2.35914">
        <ele>65</ele>
        <time>2015-11-30T20:56:24.000Z</time>
      </trkpt>
      <trkpt lat="48.8261" lon="2.35941">
        <ele>63.799999237061</ele>
        <time>2015-11-30T20:56:28.000Z</time>
      </trkpt>
      <trkpt lat="48.82612" lon="2.35974">
        <ele>62.599998474121</ele>
        <time>2015-11-30T20:56:33.000Z</time>
      </trkpt>
      <trkpt lat="48.8262" lon="2.35996">
        <ele>61.599998474121</ele>
        <time>2015-11-30T20:56:39.000Z</time>
      </trkpt>
      <trkpt lat="48.82636" lon="2.35987">
        <ele>61.200000762939</ele>
        <time>2015-11-30T20:56:45.000Z</time>
      </trkpt>
      <trkpt lat="48.82654" lon="2.3597">
        <ele>61.200000762939</ele>
        <time>2015-11-30T20:56:50.000Z</time>
      </trkpt>
      <trkpt lat="48.8267" lon="2.35956">
        <ele>61.599998474121</ele>
        <time>2015-11-30T20:56:54.000Z</time>
      </trkpt>
      <trkpt lat="48.82686" lon="2.35938">
        <ele>62.599998474121</ele>
        <time>2015-11-30T20:56:58.000Z</time>
      </trkpt>
      <trkpt lat="48.82701" lon="2.35924">
        <ele>63.200000762939</ele>
        <time>2015-11-30T20:57:01.000Z</time>
      </trkpt>
      <trkpt lat="48.82718" lon="2.35909">
        <ele>63.200000762939</ele>
        <time>2015-11-30T20:57:04.000Z</time>
      </trkpt>
      <trkpt lat="48.82737" lon="2.35893">
        <ele>62.400001525879</ele>
        <time>2015-11-30T20:57:07.000Z</time>
      </trkpt>
      <trkpt lat="48.82757" lon="2.35877">
        <ele>61</ele>
        <time>2015-11-30T20:57:10.000Z</time>
      </trkpt>
      <trkpt lat="48.8278" lon="2.35858">
        <ele>59.400001525879</ele>
        <time>2015-11-30T20:57:13.000Z</time>
      </trkpt>
      <trkpt lat="48.82801" lon="2.35842">
        <ele>59.799999237061</ele>
        <time>2015-11-30T20:57:16.000Z</time>
      </trkpt>
      <trkpt lat="48.8282" lon="2.35829">
        <ele>61.200000762939</ele>
        <time>2015-11-30T20:57:19.000Z</time>
      </trkpt>
      <trkpt lat="48.8284" lon="2.35814">
        <ele>63.400001525879</ele>
        <time>2015-11-30T20:57:22.000Z</time>
      </trkpt>
      <trkpt lat="48.8286" lon="2.35798">
        <ele>64.599998474121</ele>
        <time>2015-11-30T20:57:25.000Z</time>
      </trkpt>
      <trkpt lat="48.8288" lon="2.35784">
        <ele>65.199996948242</ele>
        <time>2015-11-30T20:57:28.000Z</time>
      </trkpt>
      <trkpt lat="48.82891" lon="2.35772">
        <ele>66.199996948242</ele>
        <time>2015-11-30T20:57:30.000Z</time>
      </trkpt>
      <trkpt lat="48.82909" lon="2.35756">
        <ele>68.199996948242</ele>
        <time>2015-11-30T20:57:33.000Z</time>
      </trkpt>
      <trkpt lat="48.82929" lon="2.35744">
        <ele>69.800003051758</ele>
        <time>2015-11-30T20:57:36.000Z</time>
      </trkpt>
      <trkpt lat="48.82947" lon="2.35728">
        <ele>70.199996948242</ele>
        <time>2015-11-30T20:57:39.000Z</time>
      </trkpt>
      <trkpt lat="48.82959" lon="2.35717">
        <ele>70.400001525879</ele>
        <time>2015-11-30T20:57:41.000Z</time>
      </trkpt>
      <trkpt lat="48.8297" lon="2.35707">
        <ele>70.800003051758</ele>
        <time>2015-11-30T20:57:43.000Z</time>
      </trkpt>
      <trkpt lat="48.82987" lon="2.35691">
        <ele>70.599998474121</ele>
        <time>2015-11-30T20:57:46.000Z</time>
      </trkpt>
      <trkpt lat="48.83007" lon="2.3568">
        <ele>70.400001525879</ele>
        <time>2015-11-30T20:57:49.000Z</time>
      </trkpt>
      <trkpt lat="48.83014" lon="2.35676">
        <ele>70.199996948242</ele>
        <time>2015-11-30T20:57:50.000Z</time>
      </trkpt>
      <trkpt lat="48.83033" lon="2.35664">
        <ele>69.199996948242</ele>
        <time>2015-11-30T20:57:53.000Z</time>
      </trkpt>
      <trkpt lat="48.83047" lon="2.35649">
        <ele>69</ele>
        <time>2015-11-30T20:57:56.000Z</time>
      </trkpt>
      <trkpt lat="48.83065" lon="2.35638">
        <ele>68.199996948242</ele>
        <time>2015-11-30T20:58:00.000Z</time>
      </trkpt>
      <trkpt lat="48.83074" lon="2.35642">
        <ele>67.400001525879</ele>
        <time>2015-11-30T20:58:39.000Z</time>
      </trkpt>
      <trkpt lat="48.83072" lon="2.35642">
        <ele>67.400001525879</ele>
        <time>2015-11-30T21:00:27.000Z</time>
      </trkpt>
      <trkpt lat="48.83073" lon="2.35643">
        <ele>67.400001525879</ele>
        <time>2015-11-30T21:00:28.000Z</time>
      </trkpt>
      <trkpt lat="48.83086" lon="2.35658">
        <ele>65.800003051758</ele>
        <time>2015-11-30T21:00:37.000Z</time>
      </trkpt>
      <trkpt lat="48.83099" lon="2.35674">
        <ele>64.800003051758</ele>
        <time>2015-11-30T21:00:45.000Z</time>
      </trkpt>
      <trkpt lat="48.83102" lon="2.35682">
        <ele>64.800003051758</ele>
        <time>2015-11-30T21:00:47.000Z</time>
      </trkpt>
      <trkpt lat="48.83111" lon="2.35709">
        <ele>65.400001525879</ele>
        <time>2015-11-30T21:00:53.000Z</time>
      </trkpt>
      <trkpt lat="48.83121" lon="2.35734">
        <ele>66</ele>
        <time>2015-11-30T21:00:58.000Z</time>
      </trkpt>
      <trkpt lat="48.83131" lon="2.35763">
        <ele>65.800003051758</ele>
        <time>2015-11-30T21:01:03.000Z</time>
      </trkpt>
      <trkpt lat="48.83143" lon="2.35792">
        <ele>64.599998474121</ele>
        <time>2015-11-30T21:01:08.000Z</time>
      </trkpt>
      <trkpt lat="48.83152" lon="2.35818">
        <ele>63.400001525879</ele>
        <time>2015-11-30T21:01:12.000Z</time>
      </trkpt>
      <trkpt lat="48.83162" lon="2.35846">
        <ele>62</ele>
        <time>2015-11-30T21:01:16.000Z</time>
      </trkpt>
      <trkpt lat="48.83172" lon="2.35876">
        <ele>60.200000762939</ele>
        <time>2015-11-30T21:01:20.000Z</time>
      </trkpt>
      <trkpt lat="48.83181" lon="2.35906">
        <ele>58.599998474121</ele>
        <time>2015-11-30T21:01:24.000Z</time>
      </trkpt>
      <trkpt lat="48.8319" lon="2.35935">
        <ele>57</ele>
        <time>2015-11-30T21:01:28.000Z</time>
      </trkpt>
      <trkpt lat="48.83193" lon="2.35943">
        <ele>56.799999237061</ele>
        <time>2015-11-30T21:01:29.000Z</time>
      </trkpt>
      <trkpt lat="48.83203" lon="2.35975">
        <ele>55.799999237061</ele>
        <time>2015-11-30T21:01:33.000Z</time>
      </trkpt>
      <trkpt lat="48.83214" lon="2.36007">
        <ele>55.200000762939</ele>
        <time>2015-11-30T21:01:37.000Z</time>
      </trkpt>
      <trkpt lat="48.83221" lon="2.36032">
        <ele>55.400001525879</ele>
        <time>2015-11-30T21:01:40.000Z</time>
      </trkpt>
      <trkpt lat="48.83231" lon="2.36065">
        <ele>55.400001525879</ele>
        <time>2015-11-30T21:01:44.000Z</time>
      </trkpt>
      <trkpt lat="48.83239" lon="2.3609">
        <ele>55</ele>
        <time>2015-11-30T21:01:47.000Z</time>
      </trkpt>
      <trkpt lat="48.83249" lon="2.36121">
        <ele>53.400001525879</ele>
        <time>2015-11-30T21:01:51.000Z</time>
      </trkpt>
      <trkpt lat="48.83259" lon="2.36152">
        <ele>52</ele>
        <time>2015-11-30T21:01:55.000Z</time>
      </trkpt>
      <trkpt lat="48.83271" lon="2.36179">
        <ele>52</ele>
        <time>2015-11-30T21:01:59.000Z</time>
      </trkpt>
      <trkpt lat="48.83282" lon="2.36208">
        <ele>51.799999237061</ele>
        <time>2015-11-30T21:02:03.000Z</time>
      </trkpt>
      <trkpt lat="48.83292" lon="2.36239">
        <ele>51.799999237061</ele>
        <time>2015-11-30T21:02:07.000Z</time>
      </trkpt>
      <trkpt lat="48.83302" lon="2.36271">
        <ele>51.400001525879</ele>
        <time>2015-11-30T21:02:11.000Z</time>
      </trkpt>
      <trkpt lat="48.83311" lon="2.36297">
        <ele>51.200000762939</ele>
        <time>2015-11-30T21:02:14.000Z</time>
      </trkpt>
      <trkpt lat="48.8332" lon="2.36323">
        <ele>51.200000762939</ele>
        <time>2015-11-30T21:02:17.000Z</time>
      </trkpt>
      <trkpt lat="48.83329" lon="2.36347">
        <ele>50.799999237061</ele>
        <time>2015-11-30T21:02:21.000Z</time>
      </trkpt>
      <trkpt lat="48.83331" lon="2.36356">
        <ele>50.599998474121</ele>
        <time>2015-11-30T21:02:23.000Z</time>
      </trkpt>
      <trkpt lat="48.8334" lon="2.36385">
        <ele>50</ele>
        <time>2015-11-30T21:02:29.000Z</time>
      </trkpt>
      <trkpt lat="48.83349" lon="2.36409">
        <ele>49.200000762939</ele>
        <time>2015-11-30T21:02:33.000Z</time>
      </trkpt>
      <trkpt lat="48.83359" lon="2.36437">
        <ele>48.799999237061</ele>
        <time>2015-11-30T21:02:37.000Z</time>
      </trkpt>
      <trkpt lat="48.83368" lon="2.36468">
        <ele>48.200000762939</ele>
        <time>2015-11-30T21:02:41.000Z</time>
      </trkpt>
      <trkpt lat="48.83379" lon="2.36498">
        <ele>47.599998474121</ele>
        <time>2015-11-30T21:02:45.000Z</time>
      </trkpt>
      <trkpt lat="48.8339" lon="2.36529">
        <ele>47.400001525879</ele>
        <time>2015-11-30T21:02:49.000Z</time>
      </trkpt>
      <trkpt lat="48.83398" lon="2.36556">
        <ele>46.599998474121</ele>
        <time>2015-11-30T21:02:52.000Z</time>
      </trkpt>
      <trkpt lat="48.83407" lon="2.36584">
        <ele>45.599998474121</ele>
        <time>2015-11-30T21:02:55.000Z</time>
      </trkpt>
      <trkpt lat="48.83416" lon="2.3661">
        <ele>44.200000762939</ele>
        <time>2015-11-30T21:02:58.000Z</time>
      </trkpt>
      <trkpt lat="48.83426" lon="2.36638">
        <ele>42.599998474121</ele>
        <time>2015-11-30T21:03:01.000Z</time>
      </trkpt>
      <trkpt lat="48.83434" lon="2.36664">
        <ele>41.400001525879</ele>
        <time>2015-11-30T21:03:04.000Z</time>
      </trkpt>
      <trkpt lat="48.83444" lon="2.36697">
        <ele>42</ele>
        <time>2015-11-30T21:03:08.000Z</time>
      </trkpt>
      <trkpt lat="48.83453" lon="2.36727">
        <ele>42.799999237061</ele>
        <time>2015-11-30T21:03:12.000Z</time>
      </trkpt>
      <trkpt lat="48.83464" lon="2.36756">
        <ele>43.200000762939</ele>
        <time>2015-11-30T21:03:16.000Z</time>
      </trkpt>
      <trkpt lat="48.83475" lon="2.36785">
        <ele>42.599998474121</ele>
        <time>2015-11-30T21:03:20.000Z</time>
      </trkpt>
      <trkpt lat="48.83489" lon="2.36811">
        <ele>42.200000762939</ele>
        <time>2015-11-30T21:03:24.000Z</time>
      </trkpt>
      <trkpt lat="48.83499" lon="2.36829">
        <ele>41.799999237061</ele>
        <time>2015-11-30T21:03:27.000Z</time>
      </trkpt>
      <trkpt lat="48.83509" lon="2.36856">
        <ele>41.200000762939</ele>
        <time>2015-11-30T21:03:31.000Z</time>
      </trkpt>
      <trkpt lat="48.83517" lon="2.36878">
        <ele>40.599998474121</ele>
        <time>2015-11-30T21:03:34.000Z</time>
      </trkpt>
      <trkpt lat="48.83525" lon="2.3691">
        <ele>40</ele>
        <time>2015-11-30T21:03:38.000Z</time>
      </trkpt>
      <trkpt lat="48.83533" lon="2.36939">
        <ele>39.599998474121</ele>
        <time>2015-11-30T21:03:42.000Z</time>
      </trkpt>
      <trkpt lat="48.83541" lon="2.36967">
        <ele>39.400001525879</ele>
        <time>2015-11-30T21:03:46.000Z</time>
      </trkpt>
      <trkpt lat="48.83548" lon="2.3698">
        <ele>39</ele>
        <time>2015-11-30T21:03:48.000Z</time>
      </trkpt>
      <trkpt lat="48.83564" lon="2.37006">
        <ele>38.599998474121</ele>
        <time>2015-11-30T21:03:52.000Z</time>
      </trkpt>
      <trkpt lat="48.83575" lon="2.37028">
        <ele>38.400001525879</ele>
        <time>2015-11-30T21:03:55.000Z</time>
      </trkpt>
      <trkpt lat="48.83578" lon="2.37036">
        <ele>38.400001525879</ele>
        <time>2015-11-30T21:03:56.000Z</time>
      </trkpt>
      <trkpt lat="48.83587" lon="2.37061">
        <ele>38.400001525879</ele>
        <time>2015-11-30T21:03:59.000Z</time>
      </trkpt>
      <trkpt lat="48.83591" lon="2.37078">
        <ele>38</ele>
        <time>2015-11-30T21:04:01.000Z</time>
      </trkpt>
      <trkpt lat="48.83603" lon="2.37105">
        <ele>38.200000762939</ele>
        <time>2015-11-30T21:04:05.000Z</time>
      </trkpt>
      <trkpt lat="48.83608" lon="2.37116">
        <ele>38.200000762939</ele>
        <time>2015-11-30T21:04:07.000Z</time>
      </trkpt>
      <trkpt lat="48.83618" lon="2.3714">
        <ele>37.599998474121</ele>
        <time>2015-11-30T21:04:14.000Z</time>
      </trkpt>
      <trkpt lat="48.83608" lon="2.37166">
        <ele>39</ele>
        <time>2015-11-30T21:05:23.000Z</time>
      </trkpt>
      <trkpt lat="48.8359" lon="2.37185">
        <ele>38.599998474121</ele>
        <time>2015-11-30T21:05:29.000Z</time>
      </trkpt>
      <trkpt lat="48.83587" lon="2.3719">
        <ele>38.599998474121</ele>
        <time>2015-11-30T21:05:30.000Z</time>
      </trkpt>
      <trkpt lat="48.83567" lon="2.37208">
        <ele>38</ele>
        <time>2015-11-30T21:05:34.000Z</time>
      </trkpt>
      <trkpt lat="48.83556" lon="2.3722">
        <ele>38.599998474121</ele>
        <time>2015-11-30T21:05:36.000Z</time>
      </trkpt>
      <trkpt lat="48.83537" lon="2.37237">
        <ele>39.400001525879</ele>
        <time>2015-11-30T21:05:39.000Z</time>
      </trkpt>
      <trkpt lat="48.83531" lon="2.37243">
        <ele>39.799999237061</ele>
        <time>2015-11-30T21:05:40.000Z</time>
      </trkpt>
      <trkpt lat="48.83513" lon="2.37263">
        <ele>41.400001525879</ele>
        <time>2015-11-30T21:05:43.000Z</time>
      </trkpt>
      <trkpt lat="48.83495" lon="2.37282">
        <ele>43</ele>
        <time>2015-11-30T21:05:46.000Z</time>
      </trkpt>
      <trkpt lat="48.83476" lon="2.37301">
        <ele>43.200000762939</ele>
        <time>2015-11-30T21:05:49.000Z</time>
      </trkpt>
      <trkpt lat="48.83458" lon="2.37318">
        <ele>41</ele>
        <time>2015-11-30T21:05:52.000Z</time>
      </trkpt>
      <trkpt lat="48.83439" lon="2.37337">
        <ele>38.799999237061</ele>
        <time>2015-11-30T21:05:55.000Z</time>
      </trkpt>
      <trkpt lat="48.83431" lon="2.37342">
        <ele>38.400001525879</ele>
        <time>2015-11-30T21:05:56.000Z</time>
      </trkpt>
      <trkpt lat="48.83411" lon="2.37361">
        <ele>37</ele>
        <time>2015-11-30T21:05:59.000Z</time>
      </trkpt>
      <trkpt lat="48.83392" lon="2.37381">
        <ele>36.400001525879</ele>
        <time>2015-11-30T21:06:02.000Z</time>
      </trkpt>
      <trkpt lat="48.83386" lon="2.37389">
        <ele>36.599998474121</ele>
        <time>2015-11-30T21:06:03.000Z</time>
      </trkpt>
      <trkpt lat="48.83375" lon="2.37403">
        <ele>37.400001525879</ele>
        <time>2015-11-30T21:06:05.000Z</time>
      </trkpt>
      <trkpt lat="48.83355" lon="2.37423">
        <ele>38.200000762939</ele>
        <time>2015-11-30T21:06:08.000Z</time>
      </trkpt>
      <trkpt lat="48.83333" lon="2.37441">
        <ele>37.599998474121</ele>
        <time>2015-11-30T21:06:11.000Z</time>
      </trkpt>
      <trkpt lat="48.83313" lon="2.37457">
        <ele>37</ele>
        <time>2015-11-30T21:06:14.000Z</time>
      </trkpt>
      <trkpt lat="48.83293" lon="2.37473">
        <ele>36.799999237061</ele>
        <time>2015-11-30T21:06:17.000Z</time>
      </trkpt>
      <trkpt lat="48.83275" lon="2.3749">
        <ele>36.799999237061</ele>
        <time>2015-11-30T21:06:20.000Z</time>
      </trkpt>
      <trkpt lat="48.83257" lon="2.37507">
        <ele>37</ele>
        <time>2015-11-30T21:06:23.000Z</time>
      </trkpt>
      <trkpt lat="48.8324" lon="2.37522">
        <ele>37.200000762939</ele>
        <time>2015-11-30T21:06:26.000Z</time>
      </trkpt>
      <trkpt lat="48.83222" lon="2.37539">
        <ele>37.599998474121</ele>
        <time>2015-11-30T21:06:29.000Z</time>
      </trkpt>
      <trkpt lat="48.8321" lon="2.3755">
        <ele>38.599998474121</ele>
        <time>2015-11-30T21:06:31.000Z</time>
      </trkpt>
      <trkpt lat="48.83193" lon="2.37565">
        <ele>39.799999237061</ele>
        <time>2015-11-30T21:06:34.000Z</time>
      </trkpt>
      <trkpt lat="48.83176" lon="2.3758">
        <ele>40.400001525879</ele>
        <time>2015-11-30T21:06:37.000Z</time>
      </trkpt>
      <trkpt lat="48.8316" lon="2.37594">
        <ele>40</ele>
        <time>2015-11-30T21:06:40.000Z</time>
      </trkpt>
      <trkpt lat="48.83155" lon="2.37598">
        <ele>40</ele>
        <time>2015-11-30T21:06:41.000Z</time>
      </trkpt>
      <trkpt lat="48.83135" lon="2.37599">
        <ele>39</ele>
        <time>2015-11-30T21:06:45.000Z</time>
      </trkpt>
      <trkpt lat="48.83116" lon="2.37613">
        <ele>38.599998474121</ele>
        <time>2015-11-30T21:06:50.000Z</time>
      </trkpt>
      <trkpt lat="48.83097" lon="2.37632">
        <ele>39</ele>
        <time>2015-11-30T21:06:55.000Z</time>
      </trkpt>
      <trkpt lat="48.83087" lon="2.37641">
        <ele>39.400001525879</ele>
        <time>2015-11-30T21:06:58.000Z</time>
      </trkpt>
      <trkpt lat="48.83073" lon="2.37661">
        <ele>39.599998474121</ele>
        <time>2015-11-30T21:07:03.000Z</time>
      </trkpt>
      <trkpt lat="48.83072" lon="2.37665">
        <ele>39.599998474121</ele>
        <time>2015-11-30T21:07:04.000Z</time>
      </trkpt>
      <trkpt lat="48.83056" lon="2.3766">
        <ele>39.400001525879</ele>
        <time>2015-11-30T21:07:10.000Z</time>
      </trkpt>
      <trkpt lat="48.83054" lon="2.3766">
        <ele>39.400001525879</ele>
        <time>2015-11-30T21:07:11.000Z</time>
      </trkpt>
      <trkpt lat="48.83051" lon="2.37653">
        <ele>39.200000762939</ele>
        <time>2015-11-30T21:07:28.000Z</time>
      </trkpt>
      <trkpt lat="48.83049" lon="2.37658">
        <ele>39.200000762939</ele>
        <time>2015-11-30T21:07:35.000Z</time>
      </trkpt>
      <trkpt lat="48.83064" lon="2.37667">
        <ele>39.400001525879</ele>
        <time>2015-11-30T21:08:51.000Z</time>
      </trkpt>
      <trkpt lat="48.8307" lon="2.37695">
        <ele>38.799999237061</ele>
        <time>2015-11-30T21:09:02.000Z</time>
      </trkpt>
      <trkpt lat="48.83081" lon="2.37721">
        <ele>38.400001525879</ele>
        <time>2015-11-30T21:09:11.000Z</time>
      </trkpt>
      <trkpt lat="48.83095" lon="2.37745">
        <ele>38</ele>
        <time>2015-11-30T21:09:17.000Z</time>
      </trkpt>
      <trkpt lat="48.83107" lon="2.37768">
        <ele>38.599998474121</ele>
        <time>2015-11-30T21:09:22.000Z</time>
      </trkpt>
      <trkpt lat="48.8312" lon="2.37788">
        <ele>39.599998474121</ele>
        <time>2015-11-30T21:09:26.000Z</time>
      </trkpt>
      <trkpt lat="48.83123" lon="2.37794">
        <ele>40</ele>
        <time>2015-11-30T21:09:27.000Z</time>
      </trkpt>
      <trkpt lat="48.83137" lon="2.37819">
        <ele>41.200000762939</ele>
        <time>2015-11-30T21:09:31.000Z</time>
      </trkpt>
      <trkpt lat="48.83151" lon="2.37842">
        <ele>42.599998474121</ele>
        <time>2015-11-30T21:09:35.000Z</time>
      </trkpt>
      <trkpt lat="48.83165" lon="2.37868">
        <ele>44.200000762939</ele>
        <time>2015-11-30T21:09:39.000Z</time>
      </trkpt>
      <trkpt lat="48.83178" lon="2.37894">
        <ele>45.799999237061</ele>
        <time>2015-11-30T21:09:43.000Z</time>
      </trkpt>
      <trkpt lat="48.8319" lon="2.37918">
        <ele>46.799999237061</ele>
        <time>2015-11-30T21:09:47.000Z</time>
      </trkpt>
      <trkpt lat="48.83199" lon="2.37935">
        <ele>46</ele>
        <time>2015-11-30T21:09:50.000Z</time>
      </trkpt>
      <trkpt lat="48.83213" lon="2.37957">
        <ele>44.599998474121</ele>
        <time>2015-11-30T21:09:54.000Z</time>
      </trkpt>
      <trkpt lat="48.83225" lon="2.37981">
        <ele>43.400001525879</ele>
        <time>2015-11-30T21:09:58.000Z</time>
      </trkpt>
      <trkpt lat="48.83236" lon="2.38005">
        <ele>41.400001525879</ele>
        <time>2015-11-30T21:10:02.000Z</time>
      </trkpt>
      <trkpt lat="48.83247" lon="2.38024">
        <ele>38.799999237061</ele>
        <time>2015-11-30T21:10:06.000Z</time>
      </trkpt>
      <trkpt lat="48.83255" lon="2.38037">
        <ele>37</ele>
        <time>2015-11-30T21:10:09.000Z</time>
      </trkpt>
      <trkpt lat="48.83269" lon="2.38061">
        <ele>33.799999237061</ele>
        <time>2015-11-30T21:10:14.000Z</time>
      </trkpt>
      <trkpt lat="48.83275" lon="2.38074">
        <ele>31.799999237061</ele>
        <time>2015-11-30T21:10:17.000Z</time>
      </trkpt>
      <trkpt lat="48.8328" lon="2.38082">
        <ele>30.799999237061</ele>
        <time>2015-11-30T21:10:19.000Z</time>
      </trkpt>
      <trkpt lat="48.83291" lon="2.38106">
        <ele>30.799999237061</ele>
        <time>2015-11-30T21:10:24.000Z</time>
      </trkpt>
      <trkpt lat="48.83298" lon="2.38121">
        <ele>31.200000762939</ele>
        <time>2015-11-30T21:10:27.000Z</time>
      </trkpt>
      <trkpt lat="48.8331" lon="2.38142">
        <ele>31.60000038147</ele>
        <time>2015-11-30T21:10:31.000Z</time>
      </trkpt>
      <trkpt lat="48.83321" lon="2.38163">
        <ele>32</ele>
        <time>2015-11-30T21:10:35.000Z</time>
      </trkpt>
      <trkpt lat="48.83335" lon="2.38188">
        <ele>31.39999961853</ele>
        <time>2015-11-30T21:10:40.000Z</time>
      </trkpt>
      <trkpt lat="48.83347" lon="2.38215">
        <ele>30.799999237061</ele>
        <time>2015-11-30T21:10:45.000Z</time>
      </trkpt>
      <trkpt lat="48.83359" lon="2.38238">
        <ele>31</ele>
        <time>2015-11-30T21:10:50.000Z</time>
      </trkpt>
      <trkpt lat="48.83368" lon="2.38252">
        <ele>32</ele>
        <time>2015-11-30T21:10:53.000Z</time>
      </trkpt>
      <trkpt lat="48.83381" lon="2.38274">
        <ele>33.200000762939</ele>
        <time>2015-11-30T21:10:58.000Z</time>
      </trkpt>
      <trkpt lat="48.83392" lon="2.38299">
        <ele>34.200000762939</ele>
        <time>2015-11-30T21:11:02.000Z</time>
      </trkpt>
      <trkpt lat="48.83401" lon="2.38316">
        <ele>35</ele>
        <time>2015-11-30T21:11:05.000Z</time>
      </trkpt>
      <trkpt lat="48.83412" lon="2.3834">
        <ele>35.599998474121</ele>
        <time>2015-11-30T21:11:09.000Z</time>
      </trkpt>
      <trkpt lat="48.83423" lon="2.38367">
        <ele>35.200000762939</ele>
        <time>2015-11-30T21:11:14.000Z</time>
      </trkpt>
      <trkpt lat="48.83434" lon="2.38389">
        <ele>34.799999237061</ele>
        <time>2015-11-30T21:11:18.000Z</time>
      </trkpt>
      <trkpt lat="48.83447" lon="2.38415">
        <ele>34.599998474121</ele>
        <time>2015-11-30T21:11:23.000Z</time>
      </trkpt>
      <trkpt lat="48.83455" lon="2.38428">
        <ele>35.400001525879</ele>
        <time>2015-11-30T21:11:26.000Z</time>
      </trkpt>
      <trkpt lat="48.83469" lon="2.38452">
        <ele>37.200000762939</ele>
        <time>2015-11-30T21:11:31.000Z</time>
      </trkpt>
      <trkpt lat="48.83477" lon="2.38464">
        <ele>38.200000762939</ele>
        <time>2015-11-30T21:11:34.000Z</time>
      </trkpt>
      <trkpt lat="48.83482" lon="2.38476">
        <ele>39</ele>
        <time>2015-11-30T21:11:37.000Z</time>
      </trkpt>
      <trkpt lat="48.83497" lon="2.38499">
        <ele>40.799999237061</ele>
        <time>2015-11-30T21:11:42.000Z</time>
      </trkpt>
      <trkpt lat="48.83511" lon="2.38519">
        <ele>41.200000762939</ele>
        <time>2015-11-30T21:11:47.000Z</time>
      </trkpt>
      <trkpt lat="48.83516" lon="2.38521">
        <ele>41.400001525879</ele>
        <time>2015-11-30T21:11:48.000Z</time>
      </trkpt>
      <trkpt lat="48.83532" lon="2.3851">
        <ele>41.599998474121</ele>
        <time>2015-11-30T21:11:52.000Z</time>
      </trkpt>
      <trkpt lat="48.83548" lon="2.38493">
        <ele>40.599998474121</ele>
        <time>2015-11-30T21:11:56.000Z</time>
      </trkpt>
      <trkpt lat="48.8356" lon="2.38479">
        <ele>39.799999237061</ele>
        <time>2015-11-30T21:11:59.000Z</time>
      </trkpt>
      <trkpt lat="48.83576" lon="2.38461">
        <ele>39</ele>
        <time>2015-11-30T21:12:03.000Z</time>
      </trkpt>
      <trkpt lat="48.83591" lon="2.38444">
        <ele>39.799999237061</ele>
        <time>2015-11-30T21:12:07.000Z</time>
      </trkpt>
      <trkpt lat="48.83594" lon="2.38439">
        <ele>40</ele>
        <time>2015-11-30T21:12:08.000Z</time>
      </trkpt>
      <trkpt lat="48.83611" lon="2.38419">
        <ele>40.799999237061</ele>
        <time>2015-11-30T21:12:13.000Z</time>
      </trkpt>
      <trkpt lat="48.83626" lon="2.38399">
        <ele>41.200000762939</ele>
        <time>2015-11-30T21:12:18.000Z</time>
      </trkpt>
      <trkpt lat="48.8364" lon="2.38382">
        <ele>41.400001525879</ele>
        <time>2015-11-30T21:12:22.000Z</time>
      </trkpt>
      <trkpt lat="48.83648" lon="2.38374">
        <ele>41.400001525879</ele>
        <time>2015-11-30T21:12:24.000Z</time>
      </trkpt>
      <trkpt lat="48.83657" lon="2.38367">
        <ele>41.799999237061</ele>
        <time>2015-11-30T21:12:26.000Z</time>
      </trkpt>
      <trkpt lat="48.83667" lon="2.38355">
        <ele>42.200000762939</ele>
        <time>2015-11-30T21:12:29.000Z</time>
      </trkpt>
      <trkpt lat="48.83685" lon="2.38334">
        <ele>42.799999237061</ele>
        <time>2015-11-30T21:12:34.000Z</time>
      </trkpt>
      <trkpt lat="48.83701" lon="2.38319">
        <ele>42.400001525879</ele>
        <time>2015-11-30T21:12:38.000Z</time>
      </trkpt>
      <trkpt lat="48.83718" lon="2.38301">
        <ele>41.599998474121</ele>
        <time>2015-11-30T21:12:43.000Z</time>
      </trkpt>
      <trkpt lat="48.83726" lon="2.38294">
        <ele>41.200000762939</ele>
        <time>2015-11-30T21:12:45.000Z</time>
      </trkpt>
      <trkpt lat="48.83737" lon="2.38283">
        <ele>41.200000762939</ele>
        <time>2015-11-30T21:12:48.000Z</time>
      </trkpt>
      <trkpt lat="48.83754" lon="2.38261">
        <ele>41.599998474121</ele>
        <time>2015-11-30T21:12:53.000Z</time>
      </trkpt>
      <trkpt lat="48.83769" lon="2.3824">
        <ele>42</ele>
        <time>2015-11-30T21:12:58.000Z</time>
      </trkpt>
      <trkpt lat="48.83773" lon="2.38236">
        <ele>42</ele>
        <time>2015-11-30T21:12:59.000Z</time>
      </trkpt>
      <trkpt lat="48.83789" lon="2.38218">
        <ele>41.799999237061</ele>
        <time>2015-11-30T21:13:04.000Z</time>
      </trkpt>
      <trkpt lat="48.83806" lon="2.38199">
        <ele>41.599998474121</ele>
        <time>2015-11-30T21:13:09.000Z</time>
      </trkpt>
      <trkpt lat="48.8382" lon="2.3818">
        <ele>41.799999237061</ele>
        <time>2015-11-30T21:13:14.000Z</time>
      </trkpt>
      <trkpt lat="48.83834" lon="2.38158">
        <ele>42.200000762939</ele>
        <time>2015-11-30T21:13:19.000Z</time>
      </trkpt>
      <trkpt lat="48.83841" lon="2.38146">
        <ele>42.400001525879</ele>
        <time>2015-11-30T21:13:22.000Z</time>
      </trkpt>
      <trkpt lat="48.83849" lon="2.38134">
        <ele>41.599998474121</ele>
        <time>2015-11-30T21:13:25.000Z</time>
      </trkpt>
      <trkpt lat="48.83855" lon="2.38124">
        <ele>41</ele>
        <time>2015-11-30T21:13:28.000Z</time>
      </trkpt>
      <trkpt lat="48.83864" lon="2.38113">
        <ele>41.200000762939</ele>
        <time>2015-11-30T21:13:33.000Z</time>
      </trkpt>
      <trkpt lat="48.8388" lon="2.38092">
        <ele>41.400001525879</ele>
        <time>2015-11-30T21:13:41.000Z</time>
      </trkpt>
      <trkpt lat="48.83895" lon="2.38075">
        <ele>42.400001525879</ele>
        <time>2015-11-30T21:13:47.000Z</time>
      </trkpt>
      <trkpt lat="48.83914" lon="2.38059">
        <ele>44.200000762939</ele>
        <time>2015-11-30T21:13:54.000Z</time>
      </trkpt>
      <trkpt lat="48.83931" lon="2.38041">
        <ele>44.200000762939</ele>
        <time>2015-11-30T21:14:02.000Z</time>
      </trkpt>
      <trkpt lat="48.83934" lon="2.38034">
        <ele>44</ele>
        <time>2015-11-30T21:14:04.000Z</time>
      </trkpt>
      <trkpt lat="48.83947" lon="2.38016">
        <ele>44</ele>
        <time>2015-11-30T21:14:09.000Z</time>
      </trkpt>
      <trkpt lat="48.83962" lon="2.37999">
        <ele>44</ele>
        <time>2015-11-30T21:14:14.000Z</time>
      </trkpt>
      <trkpt lat="48.83977" lon="2.3798">
        <ele>45.200000762939</ele>
        <time>2015-11-30T21:14:20.000Z</time>
      </trkpt>
      <trkpt lat="48.83983" lon="2.37969">
        <ele>46</ele>
        <time>2015-11-30T21:14:25.000Z</time>
      </trkpt>
      <trkpt lat="48.83995" lon="2.37979">
        <ele>45.400001525879</ele>
        <time>2015-11-30T21:15:00.000Z</time>
      </trkpt>
      <trkpt lat="48.8401" lon="2.37997">
        <ele>44</ele>
        <time>2015-11-30T21:15:09.000Z</time>
      </trkpt>
      <trkpt lat="48.84015" lon="2.37999">
        <ele>44</ele>
        <time>2015-11-30T21:15:12.000Z</time>
      </trkpt>
      <trkpt lat="48.84019" lon="2.37997">
        <ele>44.200000762939</ele>
        <time>2015-11-30T21:15:16.000Z</time>
      </trkpt>
      <trkpt lat="48.84026" lon="2.37994">
        <ele>44</ele>
        <time>2015-11-30T21:15:22.000Z</time>
      </trkpt>
      <trkpt lat="48.84035" lon="2.37992">
        <ele>43.599998474121</ele>
        <time>2015-11-30T21:16:03.000Z</time>
      </trkpt>
      <trkpt lat="48.84046" lon="2.37972">
        <ele>43.599998474121</ele>
        <time>2015-11-30T21:16:25.000Z</time>
      </trkpt>
      <trkpt lat="48.84052" lon="2.37946">
        <ele>43.799999237061</ele>
        <time>2015-11-30T21:16:29.000Z</time>
      </trkpt>
      <trkpt lat="48.84057" lon="2.37914">
        <ele>46</ele>
        <time>2015-11-30T21:16:34.000Z</time>
      </trkpt>
      <trkpt lat="48.8406" lon="2.37899">
        <ele>45.799999237061</ele>
        <time>2015-11-30T21:16:37.000Z</time>
      </trkpt>
      <trkpt lat="48.84071" lon="2.37881">
        <ele>45.599998474121</ele>
        <time>2015-11-30T21:16:42.000Z</time>
      </trkpt>
      <trkpt lat="48.84075" lon="2.37874">
        <ele>44.799999237061</ele>
        <time>2015-11-30T21:16:44.000Z</time>
      </trkpt>
      <trkpt lat="48.8409" lon="2.37851">
        <ele>41.799999237061</ele>
        <time>2015-11-30T21:16:50.000Z</time>
      </trkpt>
      <trkpt lat="48.84097" lon="2.37824">
        <ele>39.799999237061</ele>
        <time>2015-11-30T21:16:56.000Z</time>
      </trkpt>
      <trkpt lat="48.84099" lon="2.37821">
        <ele>39.599998474121</ele>
        <time>2015-11-30T21:16:57.000Z</time>
      </trkpt>
      <trkpt lat="48.84112" lon="2.37798">
        <ele>39</ele>
        <time>2015-11-30T21:17:02.000Z</time>
      </trkpt>
      <trkpt lat="48.84127" lon="2.3778">
        <ele>38.799999237061</ele>
        <time>2015-11-30T21:17:07.000Z</time>
      </trkpt>
      <trkpt lat="48.84141" lon="2.3776">
        <ele>38.599998474121</ele>
        <time>2015-11-30T21:17:12.000Z</time>
      </trkpt>
      <trkpt lat="48.84153" lon="2.37739">
        <ele>39.400001525879</ele>
        <time>2015-11-30T21:17:17.000Z</time>
      </trkpt>
      <trkpt lat="48.84167" lon="2.37719">
        <ele>40.799999237061</ele>
        <time>2015-11-30T21:17:22.000Z</time>
      </trkpt>
      <trkpt lat="48.84179" lon="2.37692">
        <ele>39.200000762939</ele>
        <time>2015-11-30T21:17:28.000Z</time>
      </trkpt>
      <trkpt lat="48.84191" lon="2.37671">
        <ele>38</ele>
        <time>2015-11-30T21:17:33.000Z</time>
      </trkpt>
      <trkpt lat="48.84206" lon="2.3765">
        <ele>38.200000762939</ele>
        <time>2015-11-30T21:17:39.000Z</time>
      </trkpt>
      <trkpt lat="48.84217" lon="2.37627">
        <ele>39.200000762939</ele>
        <time>2015-11-30T21:17:45.000Z</time>
      </trkpt>
      <trkpt lat="48.8423" lon="2.37605">
        <ele>39.400001525879</ele>
        <time>2015-11-30T21:17:52.000Z</time>
      </trkpt>
      <trkpt lat="48.84246" lon="2.37588">
        <ele>39</ele>
        <time>2015-11-30T21:17:59.000Z</time>
      </trkpt>
      <trkpt lat="48.84257" lon="2.37564">
        <ele>38.799999237061</ele>
        <time>2015-11-30T21:18:06.000Z</time>
      </trkpt>
      <trkpt lat="48.84271" lon="2.37545">
        <ele>40.599998474121</ele>
        <time>2015-11-30T21:18:12.000Z</time>
      </trkpt>
      <trkpt lat="48.8428" lon="2.37519">
        <ele>42.599998474121</ele>
        <time>2015-11-30T21:18:18.000Z</time>
      </trkpt>
      <trkpt lat="48.84284" lon="2.37489">
        <ele>44.400001525879</ele>
        <time>2015-11-30T21:18:24.000Z</time>
      </trkpt>
      <trkpt lat="48.84288" lon="2.37455">
        <ele>45</ele>
        <time>2015-11-30T21:18:32.000Z</time>
      </trkpt>
      <trkpt lat="48.84287" lon="2.37452">
        <ele>44.799999237061</ele>
        <time>2015-11-30T21:18:35.000Z</time>
      </trkpt>
      <trkpt lat="48.84288" lon="2.37446">
        <ele>45</ele>
        <time>2015-11-30T21:18:40.000Z</time>
      </trkpt>
      <trkpt lat="48.84302" lon="2.37429">
        <ele>45.599998474121</ele>
        <time>2015-11-30T21:18:46.000Z</time>
      </trkpt>
      <trkpt lat="48.84319" lon="2.37411">
        <ele>46</ele>
        <time>2015-11-30T21:18:52.000Z</time>
      </trkpt>
      <trkpt lat="48.8433" lon="2.37389">
        <ele>45.799999237061</ele>
        <time>2015-11-30T21:18:57.000Z</time>
      </trkpt>
      <trkpt lat="48.84342" lon="2.3736">
        <ele>46.400001525879</ele>
        <time>2015-11-30T21:19:04.000Z</time>
      </trkpt>
      <trkpt lat="48.8436" lon="2.37342">
        <ele>46.799999237061</ele>
        <time>2015-11-30T21:19:09.000Z</time>
      </trkpt>
      <trkpt lat="48.84375" lon="2.37321">
        <ele>45.599998474121</ele>
        <time>2015-11-30T21:19:12.000Z</time>
      </trkpt>
      <trkpt lat="48.8439" lon="2.37302">
        <ele>44.200000762939</ele>
        <time>2015-11-30T21:19:15.000Z</time>
      </trkpt>
      <trkpt lat="48.84407" lon="2.37285">
        <ele>43.400001525879</ele>
        <time>2015-11-30T21:19:18.000Z</time>
      </trkpt>
      <trkpt lat="48.84423" lon="2.37271">
        <ele>43.200000762939</ele>
        <time>2015-11-30T21:19:22.000Z</time>
      </trkpt>
      <trkpt lat="48.84439" lon="2.37248">
        <ele>43</ele>
        <time>2015-11-30T21:19:27.000Z</time>
      </trkpt>
      <trkpt lat="48.84451" lon="2.37238">
        <ele>42.400001525879</ele>
        <time>2015-11-30T21:19:30.000Z</time>
      </trkpt>
      <trkpt lat="48.84466" lon="2.37225">
        <ele>41.799999237061</ele>
        <time>2015-11-30T21:19:34.000Z</time>
      </trkpt>
      <trkpt lat="48.84479" lon="2.37205">
        <ele>41</ele>
        <time>2015-11-30T21:19:38.000Z</time>
      </trkpt>
      <trkpt lat="48.84493" lon="2.37184">
        <ele>41.200000762939</ele>
        <time>2015-11-30T21:19:42.000Z</time>
      </trkpt>
      <trkpt lat="48.84504" lon="2.37164">
        <ele>41.599998474121</ele>
        <time>2015-11-30T21:19:46.000Z</time>
      </trkpt>
      <trkpt lat="48.84512" lon="2.37147">
        <ele>41</ele>
        <time>2015-11-30T21:19:50.000Z</time>
      </trkpt>
      <trkpt lat="48.84517" lon="2.37136">
        <ele>40.799999237061</ele>
        <time>2015-11-30T21:19:53.000Z</time>
      </trkpt>
      <trkpt lat="48.84523" lon="2.37125">
        <ele>40.599998474121</ele>
        <time>2015-11-30T21:19:56.000Z</time>
      </trkpt>
      <trkpt lat="48.84535" lon="2.37117">
        <ele>40.200000762939</ele>
        <time>2015-11-30T21:20:00.000Z</time>
      </trkpt>
      <trkpt lat="48.84538" lon="2.37116">
        <ele>40</ele>
        <time>2015-11-30T21:20:02.000Z</time>
      </trkpt>
      <trkpt lat="48.8455" lon="2.37129">
        <ele>40.400001525879</ele>
        <time>2015-11-30T21:20:18.000Z</time>
      </trkpt>
      <trkpt lat="48.8455" lon="2.3713">
        <ele>40.400001525879</ele>
        <time>2015-11-30T21:20:20.000Z</time>
      </trkpt>
      <trkpt lat="48.84558" lon="2.37119">
        <ele>40</ele>
        <time>2015-11-30T21:20:30.000Z</time>
      </trkpt>
      <trkpt lat="48.84565" lon="2.37106">
        <ele>40.400001525879</ele>
        <time>2015-11-30T21:21:10.000Z</time>
      </trkpt>
      <trkpt lat="48.84579" lon="2.37086">
        <ele>41.599998474121</ele>
        <time>2015-11-30T21:21:17.000Z</time>
      </trkpt>
      <trkpt lat="48.84592" lon="2.37067">
        <ele>42.200000762939</ele>
        <time>2015-11-30T21:21:24.000Z</time>
      </trkpt>
      <trkpt lat="48.84608" lon="2.37051">
        <ele>42.599998474121</ele>
        <time>2015-11-30T21:21:31.000Z</time>
      </trkpt>
      <trkpt lat="48.84626" lon="2.37035">
        <ele>42.200000762939</ele>
        <time>2015-11-30T21:21:39.000Z</time>
      </trkpt>
      <trkpt lat="48.8464" lon="2.37014">
        <ele>42.200000762939</ele>
        <time>2015-11-30T21:21:45.000Z</time>
      </trkpt>
      <trkpt lat="48.84654" lon="2.36992">
        <ele>42.599998474121</ele>
        <time>2015-11-30T21:21:51.000Z</time>
      </trkpt>
      <trkpt lat="48.8467" lon="2.36975">
        <ele>43</ele>
        <time>2015-11-30T21:21:56.000Z</time>
      </trkpt>
      <trkpt lat="48.84686" lon="2.36959">
        <ele>43</ele>
        <time>2015-11-30T21:22:03.000Z</time>
      </trkpt>
      <trkpt lat="48.84686" lon="2.36956">
        <ele>43</ele>
        <time>2015-11-30T21:22:06.000Z</time>
      </trkpt>
      <trkpt lat="48.84698" lon="2.36941">
        <ele>42.799999237061</ele>
        <time>2015-11-30T21:22:38.000Z</time>
      </trkpt>
      <trkpt lat="48.84712" lon="2.36922">
        <ele>42.799999237061</ele>
        <time>2015-11-30T21:22:43.000Z</time>
      </trkpt>
      <trkpt lat="48.84729" lon="2.36901">
        <ele>42.200000762939</ele>
        <time>2015-11-30T21:22:48.000Z</time>
      </trkpt>
      <trkpt lat="48.84747" lon="2.36879">
        <ele>41.400001525879</ele>
        <time>2015-11-30T21:22:52.000Z</time>
      </trkpt>
      <trkpt lat="48.84764" lon="2.36861">
        <ele>40.799999237061</ele>
        <time>2015-11-30T21:22:55.000Z</time>
      </trkpt>
      <trkpt lat="48.84781" lon="2.36842">
        <ele>39.799999237061</ele>
        <time>2015-11-30T21:22:58.000Z</time>
      </trkpt>
      <trkpt lat="48.84794" lon="2.36824">
        <ele>39</ele>
        <time>2015-11-30T21:23:01.000Z</time>
      </trkpt>
      <trkpt lat="48.84798" lon="2.36818">
        <ele>38.400001525879</ele>
        <time>2015-11-30T21:23:02.000Z</time>
      </trkpt>
      <trkpt lat="48.84808" lon="2.36798">
        <ele>36.799999237061</ele>
        <time>2015-11-30T21:23:06.000Z</time>
      </trkpt>
      <trkpt lat="48.84816" lon="2.36781">
        <ele>36.200000762939</ele>
        <time>2015-11-30T21:23:13.000Z</time>
      </trkpt>
      <trkpt lat="48.84824" lon="2.36771">
        <ele>36.799999237061</ele>
        <time>2015-11-30T21:23:38.000Z</time>
      </trkpt>
      <trkpt lat="48.84844" lon="2.36773">
        <ele>38</ele>
        <time>2015-11-30T21:23:45.000Z</time>
      </trkpt>
      <trkpt lat="48.84863" lon="2.36781">
        <ele>39</ele>
        <time>2015-11-30T21:23:52.000Z</time>
      </trkpt>
      <trkpt lat="48.84882" lon="2.36787">
        <ele>40.200000762939</ele>
        <time>2015-11-30T21:23:59.000Z</time>
      </trkpt>
      <trkpt lat="48.84887" lon="2.36785">
        <ele>40.400001525879</ele>
        <time>2015-11-30T21:24:01.000Z</time>
      </trkpt>
      <trkpt lat="48.84901" lon="2.36785">
        <ele>40.400001525879</ele>
        <time>2015-11-30T21:24:06.000Z</time>
      </trkpt>
      <trkpt lat="48.84903" lon="2.36785">
        <ele>40.400001525879</ele>
        <time>2015-11-30T21:24:07.000Z</time>
      </trkpt>
      <trkpt lat="48.84907" lon="2.36773">
        <ele>39</ele>
        <time>2015-11-30T21:24:11.000Z</time>
      </trkpt>
      <trkpt lat="48.84914" lon="2.36746">
        <ele>36.200000762939</ele>
        <time>2015-11-30T21:24:18.000Z</time>
      </trkpt>
      <trkpt lat="48.84922" lon="2.36717">
        <ele>35.799999237061</ele>
        <time>2015-11-30T21:24:25.000Z</time>
      </trkpt>
      <trkpt lat="48.84929" lon="2.3669">
        <ele>37</ele>
        <time>2015-11-30T21:24:32.000Z</time>
      </trkpt>
      <trkpt lat="48.84935" lon="2.36673">
        <ele>37.599998474121</ele>
        <time>2015-11-30T21:24:40.000Z</time>
      </trkpt>
      <trkpt lat="48.8494" lon="2.36665">
        <ele>38</ele>
        <time>2015-11-30T21:24:48.000Z</time>
      </trkpt>
      <trkpt lat="48.84945" lon="2.36639">
        <ele>41.400001525879</ele>
        <time>2015-11-30T21:24:54.000Z</time>
      </trkpt>
      <trkpt lat="48.84951" lon="2.36612">
        <ele>44.799999237061</ele>
        <time>2015-11-30T21:24:59.000Z</time>
      </trkpt>
      <trkpt lat="48.84959" lon="2.36584">
        <ele>46.200000762939</ele>
        <time>2015-11-30T21:25:04.000Z</time>
      </trkpt>
      <trkpt lat="48.84966" lon="2.36553">
        <ele>44.400001525879</ele>
        <time>2015-11-30T21:25:09.000Z</time>
      </trkpt>
      <trkpt lat="48.84974" lon="2.3652">
        <ele>42.799999237061</ele>
        <time>2015-11-30T21:25:14.000Z</time>
      </trkpt>
      <trkpt lat="48.84979" lon="2.36492">
        <ele>42.400001525879</ele>
        <time>2015-11-30T21:25:18.000Z</time>
      </trkpt>
      <trkpt lat="48.84983" lon="2.36464">
        <ele>41.200000762939</ele>
        <time>2015-11-30T21:25:22.000Z</time>
      </trkpt>
      <trkpt lat="48.84982" lon="2.36457">
        <ele>41</ele>
        <time>2015-11-30T21:25:23.000Z</time>
      </trkpt>
      <trkpt lat="48.8498" lon="2.36439">
        <ele>40.400001525879</ele>
        <time>2015-11-30T21:25:26.000Z</time>
      </trkpt>
      <trkpt lat="48.84978" lon="2.36428">
        <ele>40</ele>
        <time>2015-11-30T21:25:28.000Z</time>
      </trkpt>
      <trkpt lat="48.84975" lon="2.36417">
        <ele>39.599998474121</ele>
        <time>2015-11-30T21:25:31.000Z</time>
      </trkpt>
      <trkpt lat="48.84974" lon="2.36407">
        <ele>39.599998474121</ele>
        <time>2015-11-30T21:25:37.000Z</time>
      </trkpt>
      <trkpt lat="48.84981" lon="2.36392">
        <ele>39.400001525879</ele>
        <time>2015-11-30T21:25:44.000Z</time>
      </trkpt>
      <trkpt lat="48.8499" lon="2.36375">
        <ele>39</ele>
        <time>2015-11-30T21:25:48.000Z</time>
      </trkpt>
      <trkpt lat="48.85003" lon="2.36355">
        <ele>37.400001525879</ele>
        <time>2015-11-30T21:25:52.000Z</time>
      </trkpt>
      <trkpt lat="48.8502" lon="2.36332">
        <ele>35.200000762939</ele>
        <time>2015-11-30T21:25:57.000Z</time>
      </trkpt>
      <trkpt lat="48.85033" lon="2.36313">
        <ele>35.799999237061</ele>
        <time>2015-11-30T21:26:01.000Z</time>
      </trkpt>
      <trkpt lat="48.85047" lon="2.36295">
        <ele>36.599998474121</ele>
        <time>2015-11-30T21:26:05.000Z</time>
      </trkpt>
      <trkpt lat="48.85063" lon="2.36279">
        <ele>37.400001525879</ele>
        <time>2015-11-30T21:26:09.000Z</time>
      </trkpt>
      <trkpt lat="48.85078" lon="2.36263">
        <ele>37.599998474121</ele>
        <time>2015-11-30T21:26:13.000Z</time>
      </trkpt>
      <trkpt lat="48.85091" lon="2.36245">
        <ele>37.799999237061</ele>
        <time>2015-11-30T21:26:18.000Z</time>
      </trkpt>
      <trkpt lat="48.85106" lon="2.36247">
        <ele>38</ele>
        <time>2015-11-30T21:26:26.000Z</time>
      </trkpt>
      <trkpt lat="48.85113" lon="2.36259">
        <ele>38.599998474121</ele>
        <time>2015-11-30T21:26:32.000Z</time>
      </trkpt>
      <trkpt lat="48.85127" lon="2.36248">
        <ele>38.799999237061</ele>
        <time>2015-11-30T21:27:05.000Z</time>
      </trkpt>
      <trkpt lat="48.8514" lon="2.36224">
        <ele>38.400001525879</ele>
        <time>2015-11-30T21:27:13.000Z</time>
      </trkpt>
      <trkpt lat="48.85153" lon="2.36202">
        <ele>38.599998474121</ele>
        <time>2015-11-30T21:27:20.000Z</time>
      </trkpt>
      <trkpt lat="48.85166" lon="2.3618">
        <ele>40.400001525879</ele>
        <time>2015-11-30T21:27:26.000Z</time>
      </trkpt>
      <trkpt lat="48.85181" lon="2.36159">
        <ele>42.400001525879</ele>
        <time>2015-11-30T21:27:31.000Z</time>
      </trkpt>
      <trkpt lat="48.85196" lon="2.36139">
        <ele>42.200000762939</ele>
        <time>2015-11-30T21:27:36.000Z</time>
      </trkpt>
      <trkpt lat="48.8521" lon="2.36117">
        <ele>41.599998474121</ele>
        <time>2015-11-30T21:27:41.000Z</time>
      </trkpt>
      <trkpt lat="48.85224" lon="2.36094">
        <ele>40.799999237061</ele>
        <time>2015-11-30T21:27:46.000Z</time>
      </trkpt>
      <trkpt lat="48.85239" lon="2.36071">
        <ele>40</ele>
        <time>2015-11-30T21:27:51.000Z</time>
      </trkpt>
      <trkpt lat="48.85246" lon="2.36045">
        <ele>39.200000762939</ele>
        <time>2015-11-30T21:27:57.000Z</time>
      </trkpt>
      <trkpt lat="48.85254" lon="2.36019">
        <ele>38.799999237061</ele>
        <time>2015-11-30T21:28:03.000Z</time>
      </trkpt>
      <trkpt lat="48.85265" lon="2.35992">
        <ele>39.200000762939</ele>
        <time>2015-11-30T21:28:09.000Z</time>
      </trkpt>
      <trkpt lat="48.85273" lon="2.35967">
        <ele>38.200000762939</ele>
        <time>2015-11-30T21:28:14.000Z</time>
      </trkpt>
      <trkpt lat="48.85281" lon="2.35939">
        <ele>37.599998474121</ele>
        <time>2015-11-30T21:28:19.000Z</time>
      </trkpt>
      <trkpt lat="48.85291" lon="2.35915">
        <ele>37</ele>
        <time>2015-11-30T21:28:23.000Z</time>
      </trkpt>
      <trkpt lat="48.85304" lon="2.35896">
        <ele>36.799999237061</ele>
        <time>2015-11-30T21:28:27.000Z</time>
      </trkpt>
      <trkpt lat="48.85315" lon="2.35873">
        <ele>36.599998474121</ele>
        <time>2015-11-30T21:28:32.000Z</time>
      </trkpt>
      <trkpt lat="48.85325" lon="2.35847">
        <ele>36.599998474121</ele>
        <time>2015-11-30T21:28:38.000Z</time>
      </trkpt>
      <trkpt lat="48.85334" lon="2.35823">
        <ele>37</ele>
        <time>2015-11-30T21:28:43.000Z</time>
      </trkpt>
      <trkpt lat="48.85343" lon="2.35797">
        <ele>37.400001525879</ele>
        <time>2015-11-30T21:28:50.000Z</time>
      </trkpt>
      <trkpt lat="48.85345" lon="2.35796">
        <ele>37.400001525879</ele>
        <time>2015-11-30T21:28:51.000Z</time>
      </trkpt>
      <trkpt lat="48.85347" lon="2.35769">
        <ele>37.799999237061</ele>
        <time>2015-11-30T21:29:15.000Z</time>
      </trkpt>
      <trkpt lat="48.85356" lon="2.35741">
        <ele>38</ele>
        <time>2015-11-30T21:29:25.000Z</time>
      </trkpt>
      <trkpt lat="48.85367" lon="2.35716">
        <ele>38.599998474121</ele>
        <time>2015-11-30T21:29:32.000Z</time>
      </trkpt>
      <trkpt lat="48.85376" lon="2.35688">
        <ele>39.200000762939</ele>
        <time>2015-11-30T21:29:38.000Z</time>
      </trkpt>
      <trkpt lat="48.85386" lon="2.35663">
        <ele>39.400001525879</ele>
        <time>2015-11-30T21:29:44.000Z</time>
      </trkpt>
      <trkpt lat="48.85395" lon="2.35637">
        <ele>38.799999237061</ele>
        <time>2015-11-30T21:29:49.000Z</time>
      </trkpt>
      <trkpt lat="48.85404" lon="2.35609">
        <ele>38.200000762939</ele>
        <time>2015-11-30T21:29:54.000Z</time>
      </trkpt>
      <trkpt lat="48.85414" lon="2.3558">
        <ele>37.799999237061</ele>
        <time>2015-11-30T21:29:59.000Z</time>
      </trkpt>
      <trkpt lat="48.85425" lon="2.35554">
        <ele>38.400001525879</ele>
        <time>2015-11-30T21:30:04.000Z</time>
      </trkpt>
      <trkpt lat="48.85435" lon="2.35529">
        <ele>36.599998474121</ele>
        <time>2015-11-30T21:30:09.000Z</time>
      </trkpt>
      <trkpt lat="48.85446" lon="2.35501">
        <ele>35.400001525879</ele>
        <time>2015-11-30T21:30:15.000Z</time>
      </trkpt>
      <trkpt lat="48.85456" lon="2.35476">
        <ele>34.799999237061</ele>
        <time>2015-11-30T21:30:20.000Z</time>
      </trkpt>
      <trkpt lat="48.85465" lon="2.35451">
        <ele>34</ele>
        <time>2015-11-30T21:30:24.000Z</time>
      </trkpt>
      <trkpt lat="48.85473" lon="2.35426">
        <ele>35</ele>
        <time>2015-11-30T21:30:28.000Z</time>
      </trkpt>
      <trkpt lat="48.85483" lon="2.35402">
        <ele>35.799999237061</ele>
        <time>2015-11-30T21:30:32.000Z</time>
      </trkpt>
      <trkpt lat="48.85492" lon="2.35378">
        <ele>35.400001525879</ele>
        <time>2015-11-30T21:30:36.000Z</time>
      </trkpt>
      <trkpt lat="48.85501" lon="2.35356">
        <ele>35.400001525879</ele>
        <time>2015-11-30T21:30:40.000Z</time>
      </trkpt>
      <trkpt lat="48.85509" lon="2.35336">
        <ele>35.400001525879</ele>
        <time>2015-11-30T21:30:44.000Z</time>
      </trkpt>
      <trkpt lat="48.8552" lon="2.3531">
        <ele>34.599998474121</ele>
        <time>2015-11-30T21:30:49.000Z</time>
      </trkpt>
      <trkpt lat="48.85523" lon="2.35305">
        <ele>34.200000762939</ele>
        <time>2015-11-30T21:30:50.000Z</time>
      </trkpt>
      <trkpt lat="48.85541" lon="2.353">
        <ele>35.400001525879</ele>
        <time>2015-11-30T21:30:57.000Z</time>
      </trkpt>
      <trkpt lat="48.85545" lon="2.35294">
        <ele>35</ele>
        <time>2015-11-30T21:31:02.000Z</time>
      </trkpt>
      <trkpt lat="48.85551" lon="2.35267">
        <ele>33.400001525879</ele>
        <time>2015-11-30T21:31:10.000Z</time>
      </trkpt>
      <trkpt lat="48.85556" lon="2.35238">
        <ele>33.400001525879</ele>
        <time>2015-11-30T21:31:16.000Z</time>
      </trkpt>
      <trkpt lat="48.85566" lon="2.35211">
        <ele>35.599998474121</ele>
        <time>2015-11-30T21:31:23.000Z</time>
      </trkpt>
      <trkpt lat="48.85572" lon="2.35184">
        <ele>33.200000762939</ele>
        <time>2015-11-30T21:31:29.000Z</time>
      </trkpt>
      <trkpt lat="48.85582" lon="2.35159">
        <ele>31.60000038147</ele>
        <time>2015-11-30T21:31:35.000Z</time>
      </trkpt>
      <trkpt lat="48.85593" lon="2.35132">
        <ele>31.799999237061</ele>
        <time>2015-11-30T21:31:41.000Z</time>
      </trkpt>
      <trkpt lat="48.85603" lon="2.35106">
        <ele>30.799999237061</ele>
        <time>2015-11-30T21:31:47.000Z</time>
      </trkpt>
      <trkpt lat="48.85612" lon="2.35087">
        <ele>30.60000038147</ele>
        <time>2015-11-30T21:31:53.000Z</time>
      </trkpt>
      <trkpt lat="48.85623" lon="2.35091">
        <ele>31.60000038147</ele>
        <time>2015-11-30T21:31:57.000Z</time>
      </trkpt>
      <trkpt lat="48.85639" lon="2.35102">
        <ele>33.200000762939</ele>
        <time>2015-11-30T21:32:03.000Z</time>
      </trkpt>
      <trkpt lat="48.85655" lon="2.35115">
        <ele>35</ele>
        <time>2015-11-30T21:32:09.000Z</time>
      </trkpt>
      <trkpt lat="48.85675" lon="2.35121">
        <ele>36.799999237061</ele>
        <time>2015-11-30T21:32:17.000Z</time>
      </trkpt>
      <trkpt lat="48.85678" lon="2.3512">
        <ele>37</ele>
        <time>2015-11-30T21:32:19.000Z</time>
      </trkpt>
      <trkpt lat="48.85683" lon="2.35109">
        <ele>37.200000762939</ele>
        <time>2015-11-30T21:32:23.000Z</time>
      </trkpt>
      <trkpt lat="48.85694" lon="2.35086">
        <ele>37.200000762939</ele>
        <time>2015-11-30T21:32:29.000Z</time>
      </trkpt>
      <trkpt lat="48.85703" lon="2.3506">
        <ele>39.400001525879</ele>
        <time>2015-11-30T21:32:34.000Z</time>
      </trkpt>
      <trkpt lat="48.85713" lon="2.35035">
        <ele>41.400001525879</ele>
        <time>2015-11-30T21:32:38.000Z</time>
      </trkpt>
      <trkpt lat="48.85721" lon="2.35005">
        <ele>43.400001525879</ele>
        <time>2015-11-30T21:32:42.000Z</time>
      </trkpt>
      <trkpt lat="48.8573" lon="2.34976">
        <ele>45.799999237061</ele>
        <time>2015-11-30T21:32:46.000Z</time>
      </trkpt>
      <trkpt lat="48.85737" lon="2.3495">
        <ele>46.200000762939</ele>
        <time>2015-11-30T21:32:49.000Z</time>
      </trkpt>
      <trkpt lat="48.85742" lon="2.34931">
        <ele>44.200000762939</ele>
        <time>2015-11-30T21:32:51.000Z</time>
      </trkpt>
      <trkpt lat="48.85751" lon="2.34903">
        <ele>42.599998474121</ele>
        <time>2015-11-30T21:32:54.000Z</time>
      </trkpt>
      <trkpt lat="48.85757" lon="2.34883">
        <ele>41.799999237061</ele>
        <time>2015-11-30T21:32:56.000Z</time>
      </trkpt>
      <trkpt lat="48.85765" lon="2.34851">
        <ele>39.599998474121</ele>
        <time>2015-11-30T21:32:59.000Z</time>
      </trkpt>
      <trkpt lat="48.85774" lon="2.34819">
        <ele>38.400001525879</ele>
        <time>2015-11-30T21:33:02.000Z</time>
      </trkpt>
      <trkpt lat="48.85776" lon="2.34809">
        <ele>38.799999237061</ele>
        <time>2015-11-30T21:33:03.000Z</time>
      </trkpt>
      <trkpt lat="48.8578" lon="2.34779">
        <ele>40.200000762939</ele>
        <time>2015-11-30T21:33:06.000Z</time>
      </trkpt>
      <trkpt lat="48.85783" lon="2.3476">
        <ele>41</ele>
        <time>2015-11-30T21:33:08.000Z</time>
      </trkpt>
      <trkpt lat="48.8579" lon="2.34736">
        <ele>41</ele>
        <time>2015-11-30T21:33:11.000Z</time>
      </trkpt>
      <trkpt lat="48.85811" lon="2.34726">
        <ele>42.400001525879</ele>
        <time>2015-11-30T21:33:15.000Z</time>
      </trkpt>
      <trkpt lat="48.85817" lon="2.34727">
        <ele>43</ele>
        <time>2015-11-30T21:33:16.000Z</time>
      </trkpt>
      <trkpt lat="48.8584" lon="2.3473">
        <ele>45.200000762939</ele>
        <time>2015-11-30T21:33:20.000Z</time>
      </trkpt>
      <trkpt lat="48.85861" lon="2.34734">
        <ele>47.200000762939</ele>
        <time>2015-11-30T21:33:24.000Z</time>
      </trkpt>
      <trkpt lat="48.85871" lon="2.34734">
        <ele>46.799999237061</ele>
        <time>2015-11-30T21:33:26.000Z</time>
      </trkpt>
      <trkpt lat="48.85885" lon="2.3473">
        <ele>46.400001525879</ele>
        <time>2015-11-30T21:33:29.000Z</time>
      </trkpt>
      <trkpt lat="48.85893" lon="2.34725">
        <ele>46.200000762939</ele>
        <time>2015-11-30T21:33:31.000Z</time>
      </trkpt>
      <trkpt lat="48.85913" lon="2.34712">
        <ele>46</ele>
        <time>2015-11-30T21:33:35.000Z</time>
      </trkpt>
      <trkpt lat="48.8593" lon="2.34699">
        <ele>46</ele>
        <time>2015-11-30T21:33:39.000Z</time>
      </trkpt>
      <trkpt lat="48.85936" lon="2.34696">
        <ele>46</ele>
        <time>2015-11-30T21:33:41.000Z</time>
      </trkpt>
      <trkpt lat="48.85945" lon="2.34695">
        <ele>46</ele>
        <time>2015-11-30T21:33:45.000Z</time>
      </trkpt>
      <trkpt lat="48.85945" lon="2.34694">
        <ele>46</ele>
        <time>2015-11-30T21:33:46.000Z</time>
      </trkpt>
      <trkpt lat="48.85948" lon="2.34705">
        <ele>45.599998474121</ele>
        <time>2015-11-30T21:33:59.000Z</time>
      </trkpt>
      <trkpt lat="48.85959" lon="2.3471">
        <ele>45.599998474121</ele>
        <time>2015-11-30T21:34:30.000Z</time>
      </trkpt>
      <trkpt lat="48.85957" lon="2.34713">
        <ele>45.400001525879</ele>
        <time>2015-11-30T21:34:55.000Z</time>
      </trkpt>
    </trkseg>
  </trk>
</gpx>